<?xml version="1.0" encoding="UTF-8"?>
<gpx xmlns="http://www.topografix.com/GPX/1/1" xmlns:dkl="http://www.gpsware.de/DKL/1/1" xmlns:rtx="http://www.bike-gps.de/RTX/1/1" version="1.1" creator="KOMPASS Digital Map" xmlns:xsi="http://www.w3.org/2001/XMLSchema-instance" xsi:schemaLocation="http://www.topografix.com/GPX/1/1 http://www.topografix.com/GPX/1/1/gpx.xsd">
 <metadata>
 <name>KOMPASS Digital Map Track</name>
 <desc> </desc>
 <time>2010-09-21T14:10:16Z</time>
 <bounds minlat="47.413883" minlon="13.209322" maxlat="47.462505" maxlon="13.522817"/>
 </metadata>
 <trk>
 <name>2010_Filzmoos_Neuberg</name>
 <cmt>Filzmoos - Neuberg über Marchegsattel</cmt>
 <extensions>
 <dkl:dkl>
 <dkl:format_version>1.1</dkl:format_version>
 <dkl:format>
 <dkl:color>FF0000</dkl:color>
 <dkl:style>00000000</dkl:style>
 <dkl:strength>3</dkl:strength>
 <dkl:transparent>0</dkl:transparent>
 </dkl:format>
 <dkl:profile>
 <dkl:mode>0</dkl:mode>
 <dkl:smooth>0</dkl:smooth>
 </dkl:profile>
 </dkl:dkl>
 </extensions>
 <trkseg>
 <trkpt lat="47.421932" lon="13.219065">
 <ele>515.55</ele>
 <time>2010-05-28T07:11:56Z</time>
 </trkpt>
 <trkpt lat="47.421928" lon="13.219114">
 <ele>516.90</ele>
 <time>2010-05-28T07:11:59Z</time>
 </trkpt>
 <trkpt lat="47.421955" lon="13.219461">
 <ele>516.96</ele>
 <time>2010-05-28T07:12:05Z</time>
 </trkpt>
 <trkpt lat="47.422058" lon="13.219452">
 <ele>516.98</ele>
 <time>2010-05-28T07:12:10Z</time>
 </trkpt>
 <trkpt lat="47.422352" lon="13.219427">
 <ele>516.64</ele>
 <time>2010-05-28T07:12:18Z</time>
 </trkpt>
 <trkpt lat="47.422707" lon="13.219396">
 <ele>516.34</ele>
 <time>2010-05-28T07:12:26Z</time>
 </trkpt>
 <trkpt lat="47.423111" lon="13.219379">
 <ele>516.66</ele>
 <time>2010-05-28T07:12:35Z</time>
 </trkpt>
 <trkpt lat="47.423523" lon="13.219369">
 <ele>516.22</ele>
 <time>2010-05-28T07:12:44Z</time>
 </trkpt>
 <trkpt lat="47.423752" lon="13.219364">
 <ele>515.79</ele>
 <time>2010-05-28T07:12:52Z</time>
 </trkpt>
 <trkpt lat="47.423752" lon="13.219364">
 <ele>515.38</ele>
 <time>2010-05-28T07:12:57Z</time>
 </trkpt>
 <trkpt lat="47.424244" lon="13.219359">
 <ele>515.56</ele>
 <time>2010-05-28T07:13:01Z</time>
 </trkpt>
 <trkpt lat="47.424225" lon="13.219428">
 <ele>514.64</ele>
 <time>2010-05-28T07:13:06Z</time>
 </trkpt>
 <trkpt lat="47.424095" lon="13.219814">
 <ele>514.57</ele>
 <time>2010-05-28T07:13:09Z</time>
 </trkpt>
 <trkpt lat="47.424137" lon="13.220201">
 <ele>515.14</ele>
 <time>2010-05-28T07:13:13Z</time>
 </trkpt>
 <trkpt lat="47.424232" lon="13.220253">
 <ele>515.77</ele>
 <time>2010-05-28T07:13:16Z</time>
 </trkpt>
 <trkpt lat="47.424545" lon="13.220398">
 <ele>515.96</ele>
 <time>2010-05-28T07:13:24Z</time>
 </trkpt>
 <trkpt lat="47.424591" lon="13.220417">
 <ele>515.92</ele>
 <time>2010-05-28T07:13:25Z</time>
 </trkpt>
 <trkpt lat="47.424915" lon="13.220678">
 <ele>515.80</ele>
 <time>2010-05-28T07:13:33Z</time>
 </trkpt>
 <trkpt lat="47.425159" lon="13.220937">
 <ele>515.90</ele>
 <time>2010-05-28T07:13:39Z</time>
 </trkpt>
 <trkpt lat="47.425510" lon="13.220737">
 <ele>515.75</ele>
 <time>2010-05-28T07:13:43Z</time>
 </trkpt>
 <trkpt lat="47.425484" lon="13.220879">
 <ele>516.08</ele>
 <time>2010-05-28T07:13:50Z</time>
 </trkpt>
 <trkpt lat="47.425510" lon="13.220823">
 <ele>516.74</ele>
 <time>2010-05-28T07:13:56Z</time>
 </trkpt>
 <trkpt lat="47.425697" lon="13.220785">
 <ele>517.80</ele>
 <time>2010-05-28T07:14:02Z</time>
 </trkpt>
 <trkpt lat="47.425827" lon="13.220831">
 <ele>518.10</ele>
 <time>2010-05-28T07:14:08Z</time>
 </trkpt>
 <trkpt lat="47.426018" lon="13.220899">
 <ele>518.17</ele>
 <time>2010-05-28T07:14:14Z</time>
 </trkpt>
 <trkpt lat="47.426250" lon="13.220977">
 <ele>517.85</ele>
 <time>2010-05-28T07:14:21Z</time>
 </trkpt>
 <trkpt lat="47.426434" lon="13.221038">
 <ele>517.38</ele>
 <time>2010-05-28T07:14:26Z</time>
 </trkpt>
 <trkpt lat="47.426434" lon="13.221038">
 <ele>516.80</ele>
 <time>2010-05-28T07:14:30Z</time>
 </trkpt>
 <trkpt lat="47.426434" lon="13.221038">
 <ele>515.90</ele>
 <time>2010-05-28T07:14:36Z</time>
 </trkpt>
 <trkpt lat="47.426582" lon="13.221123">
 <ele>515.01</ele>
 <time>2010-05-28T07:14:40Z</time>
 </trkpt>
 <trkpt lat="47.426582" lon="13.221123">
 <ele>514.32</ele>
 <time>2010-05-28T07:14:43Z</time>
 </trkpt>
 <trkpt lat="47.426582" lon="13.221123">
 <ele>513.39</ele>
 <time>2010-05-28T07:14:47Z</time>
 </trkpt>
 <trkpt lat="47.427376" lon="13.220588">
 <ele>513.75</ele>
 <time>2010-05-28T07:14:51Z</time>
 </trkpt>
 <trkpt lat="47.428238" lon="13.221102">
 <ele>514.85</ele>
 <time>2010-05-28T07:14:58Z</time>
 </trkpt>
 <trkpt lat="47.428238" lon="13.221102">
 <ele>514.97</ele>
 <time>2010-05-28T07:14:59Z</time>
 </trkpt>
 <trkpt lat="47.427818" lon="13.220522">
 <ele>515.11</ele>
 <time>2010-05-28T07:15:02Z</time>
 </trkpt>
 <trkpt lat="47.427990" lon="13.220406">
 <ele>515.03</ele>
 <time>2010-05-28T07:15:06Z</time>
 </trkpt>
 <trkpt lat="47.428238" lon="13.221102">
 <ele>515.53</ele>
 <time>2010-05-28T07:15:12Z</time>
 </trkpt>
 <trkpt lat="47.428238" lon="13.221102">
 <ele>515.47</ele>
 <time>2010-05-28T07:15:13Z</time>
 </trkpt>
 <trkpt lat="47.428188" lon="13.219781">
 <ele>515.19</ele>
 <time>2010-05-28T07:15:16Z</time>
 </trkpt>
 <trkpt lat="47.428265" lon="13.219488">
 <ele>515.10</ele>
 <time>2010-05-28T07:15:20Z</time>
 </trkpt>
 <trkpt lat="47.428432" lon="13.219170">
 <ele>515.03</ele>
 <time>2010-05-28T07:15:25Z</time>
 </trkpt>
 <trkpt lat="47.428715" lon="13.218925">
 <ele>514.95</ele>
 <time>2010-05-28T07:15:31Z</time>
 </trkpt>
 <trkpt lat="47.428886" lon="13.218619">
 <ele>514.74</ele>
 <time>2010-05-28T07:15:36Z</time>
 </trkpt>
 <trkpt lat="47.428936" lon="13.218479">
 <ele>514.81</ele>
 <time>2010-05-28T07:15:38Z</time>
 </trkpt>
 <trkpt lat="47.429504" lon="13.217669">
 <ele>514.78</ele>
 <time>2010-05-28T07:15:42Z</time>
 </trkpt>
 <trkpt lat="47.429504" lon="13.217669">
 <ele>515.01</ele>
 <time>2010-05-28T07:15:47Z</time>
 </trkpt>
 <trkpt lat="47.429504" lon="13.217669">
 <ele>515.31</ele>
 <time>2010-05-28T07:15:52Z</time>
 </trkpt>
 <trkpt lat="47.429504" lon="13.217669">
 <ele>515.40</ele>
 <time>2010-05-28T07:15:53Z</time>
 </trkpt>
 <trkpt lat="47.429508" lon="13.217601">
 <ele>515.44</ele>
 <time>2010-05-28T07:15:55Z</time>
 </trkpt>
 <trkpt lat="47.429523" lon="13.217347">
 <ele>515.67</ele>
 <time>2010-05-28T07:16:00Z</time>
 </trkpt>
 <trkpt lat="47.429523" lon="13.217347">
 <ele>516.17</ele>
 <time>2010-05-28T07:16:03Z</time>
 </trkpt>
 <trkpt lat="47.429523" lon="13.217347">
 <ele>516.23</ele>
 <time>2010-05-28T07:16:08Z</time>
 </trkpt>
 <trkpt lat="47.429523" lon="13.217347">
 <ele>516.40</ele>
 <time>2010-05-28T07:16:12Z</time>
 </trkpt>
 <trkpt lat="47.429523" lon="13.217347">
 <ele>516.58</ele>
 <time>2010-05-28T07:16:13Z</time>
 </trkpt>
 <trkpt lat="47.430187" lon="13.216068">
 <ele>516.39</ele>
 <time>2010-05-28T07:16:22Z</time>
 </trkpt>
 <trkpt lat="47.430447" lon="13.216018">
 <ele>516.41</ele>
 <time>2010-05-28T07:16:27Z</time>
 </trkpt>
 <trkpt lat="47.430679" lon="13.215880">
 <ele>516.58</ele>
 <time>2010-05-28T07:16:32Z</time>
 </trkpt>
 <trkpt lat="47.430813" lon="13.214686">
 <ele>516.68</ele>
 <time>2010-05-28T07:16:37Z</time>
 </trkpt>
 <trkpt lat="47.430855" lon="13.214652">
 <ele>516.84</ele>
 <time>2010-05-28T07:16:44Z</time>
 </trkpt>
 <trkpt lat="47.431175" lon="13.214406">
 <ele>516.83</ele>
 <time>2010-05-28T07:16:51Z</time>
 </trkpt>
 <trkpt lat="47.431534" lon="13.214098">
 <ele>516.35</ele>
 <time>2010-05-28T07:17:00Z</time>
 </trkpt>
 <trkpt lat="47.432434" lon="13.214710">
 <ele>516.51</ele>
 <time>2010-05-28T07:17:09Z</time>
 </trkpt>
 <trkpt lat="47.432186" lon="13.213463">
 <ele>516.62</ele>
 <time>2010-05-28T07:17:17Z</time>
 </trkpt>
 <trkpt lat="47.433041" lon="13.213867">
 <ele>516.73</ele>
 <time>2010-05-28T07:17:25Z</time>
 </trkpt>
 <trkpt lat="47.433407" lon="13.213310">
 <ele>517.03</ele>
 <time>2010-05-28T07:17:35Z</time>
 </trkpt>
 <trkpt lat="47.433628" lon="13.212879">
 <ele>516.74</ele>
 <time>2010-05-28T07:17:42Z</time>
 </trkpt>
 <trkpt lat="47.433861" lon="13.212360">
 <ele>516.87</ele>
 <time>2010-05-28T07:17:50Z</time>
 </trkpt>
 <trkpt lat="47.434086" lon="13.211743">
 <ele>516.83</ele>
 <time>2010-05-28T07:17:59Z</time>
 </trkpt>
 <trkpt lat="47.434158" lon="13.211531">
 <ele>516.59</ele>
 <time>2010-05-28T07:18:02Z</time>
 </trkpt>
 <trkpt lat="47.434296" lon="13.211295">
 <ele>516.60</ele>
 <time>2010-05-28T07:18:06Z</time>
 </trkpt>
 <trkpt lat="47.434422" lon="13.210010">
 <ele>516.72</ele>
 <time>2010-05-28T07:18:14Z</time>
 </trkpt>
 <trkpt lat="47.434723" lon="13.209892">
 <ele>516.98</ele>
 <time>2010-05-28T07:18:20Z</time>
 </trkpt>
 <trkpt lat="47.435226" lon="13.209696">
 <ele>517.14</ele>
 <time>2010-05-28T07:18:30Z</time>
 </trkpt>
 <trkpt lat="47.435928" lon="13.210654">
 <ele>517.11</ele>
 <time>2010-05-28T07:18:39Z</time>
 </trkpt>
 <trkpt lat="47.436825" lon="13.210841">
 <ele>517.06</ele>
 <time>2010-05-28T07:18:48Z</time>
 </trkpt>
 <trkpt lat="47.436886" lon="13.210652">
 <ele>516.96</ele>
 <time>2010-05-28T07:18:53Z</time>
 </trkpt>
 <trkpt lat="47.436886" lon="13.210652">
 <ele>519.02</ele>
 <time>2010-05-28T07:18:59Z</time>
 </trkpt>
 <trkpt lat="47.436886" lon="13.210652">
 <ele>521.52</ele>
 <time>2010-05-28T07:19:07Z</time>
 </trkpt>
 <trkpt lat="47.437084" lon="13.209956">
 <ele>523.71</ele>
 <time>2010-05-28T07:19:15Z</time>
 </trkpt>
 <trkpt lat="47.437099" lon="13.209682">
 <ele>526.23</ele>
 <time>2010-05-28T07:19:23Z</time>
 </trkpt>
 <trkpt lat="47.437080" lon="13.209473">
 <ele>527.59</ele>
 <time>2010-05-28T07:19:29Z</time>
 </trkpt>
 <trkpt lat="47.437077" lon="13.209462">
 <ele>527.92</ele>
 <time>2010-05-28T07:19:30Z</time>
 </trkpt>
 <trkpt lat="47.437057" lon="13.209322">
 <ele>528.69</ele>
 <time>2010-05-28T07:19:35Z</time>
 </trkpt>
 <trkpt lat="47.437057" lon="13.209322">
 <ele>529.14</ele>
 <time>2010-05-28T07:19:39Z</time>
 </trkpt>
 <trkpt lat="47.437084" lon="13.209951">
 <ele>529.10</ele>
 <time>2010-05-28T07:19:44Z</time>
 </trkpt>
 <trkpt lat="47.437042" lon="13.210138">
 <ele>529.15</ele>
 <time>2010-05-28T07:19:47Z</time>
 </trkpt>
 <trkpt lat="47.436924" lon="13.210524">
 <ele>528.96</ele>
 <time>2010-05-28T07:19:54Z</time>
 </trkpt>
 <trkpt lat="47.436745" lon="13.211085">
 <ele>529.29</ele>
 <time>2010-05-28T07:20:04Z</time>
 </trkpt>
 <trkpt lat="47.436520" lon="13.211749">
 <ele>529.47</ele>
 <time>2010-05-28T07:20:15Z</time>
 </trkpt>
 <trkpt lat="47.436378" lon="13.212405">
 <ele>528.69</ele>
 <time>2010-05-28T07:20:24Z</time>
 </trkpt>
 <trkpt lat="47.436245" lon="13.213100">
 <ele>527.57</ele>
 <time>2010-05-28T07:20:32Z</time>
 </trkpt>
 <trkpt lat="47.436115" lon="13.213753">
 <ele>525.86</ele>
 <time>2010-05-28T07:20:39Z</time>
 </trkpt>
 <trkpt lat="47.436153" lon="13.214461">
 <ele>525.05</ele>
 <time>2010-05-28T07:20:46Z</time>
 </trkpt>
 <trkpt lat="47.436161" lon="13.214640">
 <ele>524.49</ele>
 <time>2010-05-28T07:20:48Z</time>
 </trkpt>
 <trkpt lat="47.436214" lon="13.215405">
 <ele>524.44</ele>
 <time>2010-05-28T07:20:57Z</time>
 </trkpt>
 <trkpt lat="47.436314" lon="13.215965">
 <ele>524.69</ele>
 <time>2010-05-28T07:21:04Z</time>
 </trkpt>
 <trkpt lat="47.436329" lon="13.216629">
 <ele>525.50</ele>
 <time>2010-05-28T07:21:13Z</time>
 </trkpt>
 <trkpt lat="47.436283" lon="13.217180">
 <ele>526.84</ele>
 <time>2010-05-28T07:21:22Z</time>
 </trkpt>
 <trkpt lat="47.436302" lon="13.217627">
 <ele>528.33</ele>
 <time>2010-05-28T07:21:30Z</time>
 </trkpt>
 <trkpt lat="47.436329" lon="13.218290">
 <ele>530.11</ele>
 <time>2010-05-28T07:21:42Z</time>
 </trkpt>
 <trkpt lat="47.436359" lon="13.218836">
 <ele>531.43</ele>
 <time>2010-05-28T07:21:52Z</time>
 </trkpt>
 <trkpt lat="47.436436" lon="13.219522">
 <ele>533.32</ele>
 <time>2010-05-28T07:22:05Z</time>
 </trkpt>
 <trkpt lat="47.436562" lon="13.220053">
 <ele>535.19</ele>
 <time>2010-05-28T07:22:16Z</time>
 </trkpt>
 <trkpt lat="47.436672" lon="13.220536">
 <ele>536.15</ele>
 <time>2010-05-28T07:22:26Z</time>
 </trkpt>
 <trkpt lat="47.436749" lon="13.220905">
 <ele>537.51</ele>
 <time>2010-05-28T07:22:34Z</time>
 </trkpt>
 <trkpt lat="47.436817" lon="13.221344">
 <ele>538.58</ele>
 <time>2010-05-28T07:22:43Z</time>
 </trkpt>
 <trkpt lat="47.436855" lon="13.221698">
 <ele>539.46</ele>
 <time>2010-05-28T07:22:50Z</time>
 </trkpt>
 <trkpt lat="47.436806" lon="13.222113">
 <ele>540.51</ele>
 <time>2010-05-28T07:22:58Z</time>
 </trkpt>
 <trkpt lat="47.436680" lon="13.222662">
 <ele>542.22</ele>
 <time>2010-05-28T07:23:09Z</time>
 </trkpt>
 <trkpt lat="47.436512" lon="13.223267">
 <ele>543.94</ele>
 <time>2010-05-28T07:23:23Z</time>
 </trkpt>
 <trkpt lat="47.436462" lon="13.223552">
 <ele>544.77</ele>
 <time>2010-05-28T07:23:29Z</time>
 </trkpt>
 <trkpt lat="47.436436" lon="13.223953">
 <ele>545.36</ele>
 <time>2010-05-28T07:23:37Z</time>
 </trkpt>
 <trkpt lat="47.436550" lon="13.224445">
 <ele>546.25</ele>
 <time>2010-05-28T07:23:47Z</time>
 </trkpt>
 <trkpt lat="47.436615" lon="13.224741">
 <ele>546.77</ele>
 <time>2010-05-28T07:23:53Z</time>
 </trkpt>
 <trkpt lat="47.436626" lon="13.225093">
 <ele>547.30</ele>
 <time>2010-05-28T07:23:59Z</time>
 </trkpt>
 <trkpt lat="47.436600" lon="13.225172">
 <ele>547.40</ele>
 <time>2010-05-28T07:24:00Z</time>
 </trkpt>
 <trkpt lat="47.436409" lon="13.225580">
 <ele>548.02</ele>
 <time>2010-05-28T07:24:06Z</time>
 </trkpt>
 <trkpt lat="47.436283" lon="13.225846">
 <ele>548.94</ele>
 <time>2010-05-28T07:24:14Z</time>
 </trkpt>
 <trkpt lat="47.436153" lon="13.226100">
 <ele>549.72</ele>
 <time>2010-05-28T07:24:21Z</time>
 </trkpt>
 <trkpt lat="47.436062" lon="13.226353">
 <ele>550.41</ele>
 <time>2010-05-28T07:24:27Z</time>
 </trkpt>
 <trkpt lat="47.436047" lon="13.226400">
 <ele>550.41</ele>
 <time>2010-05-28T07:24:28Z</time>
 </trkpt>
 <trkpt lat="47.435917" lon="13.226814">
 <ele>551.10</ele>
 <time>2010-05-28T07:24:36Z</time>
 </trkpt>
 <trkpt lat="47.435772" lon="13.227054">
 <ele>551.69</ele>
 <time>2010-05-28T07:24:42Z</time>
 </trkpt>
 <trkpt lat="47.435486" lon="13.227463">
 <ele>553.43</ele>
 <time>2010-05-28T07:24:53Z</time>
 </trkpt>
 <trkpt lat="47.435314" lon="13.227704">
 <ele>554.02</ele>
 <time>2010-05-28T07:24:59Z</time>
 </trkpt>
 <trkpt lat="47.435219" lon="13.227959">
 <ele>554.76</ele>
 <time>2010-05-28T07:25:05Z</time>
 </trkpt>
 <trkpt lat="47.435108" lon="13.228396">
 <ele>555.10</ele>
 <time>2010-05-28T07:25:13Z</time>
 </trkpt>
 <trkpt lat="47.435089" lon="13.228575">
 <ele>555.35</ele>
 <time>2010-05-28T07:25:16Z</time>
 </trkpt>
 <trkpt lat="47.435051" lon="13.228983">
 <ele>555.98</ele>
 <time>2010-05-28T07:25:23Z</time>
 </trkpt>
 <trkpt lat="47.434994" lon="13.229183">
 <ele>556.61</ele>
 <time>2010-05-28T07:25:28Z</time>
 </trkpt>
 <trkpt lat="47.434731" lon="13.229600">
 <ele>557.86</ele>
 <time>2010-05-28T07:25:38Z</time>
 </trkpt>
 <trkpt lat="47.434410" lon="13.229853">
 <ele>558.41</ele>
 <time>2010-05-28T07:25:48Z</time>
 </trkpt>
 <trkpt lat="47.434090" lon="13.230032">
 <ele>559.97</ele>
 <time>2010-05-28T07:25:57Z</time>
 </trkpt>
 <trkpt lat="47.433960" lon="13.230158">
 <ele>560.54</ele>
 <time>2010-05-28T07:26:02Z</time>
 </trkpt>
 <trkpt lat="47.433842" lon="13.230422">
 <ele>560.99</ele>
 <time>2010-05-28T07:26:08Z</time>
 </trkpt>
 <trkpt lat="47.433743" lon="13.230752">
 <ele>561.35</ele>
 <time>2010-05-28T07:26:14Z</time>
 </trkpt>
 <trkpt lat="47.433643" lon="13.231233">
 <ele>561.83</ele>
 <time>2010-05-28T07:26:22Z</time>
 </trkpt>
 <trkpt lat="47.433533" lon="13.231868">
 <ele>562.90</ele>
 <time>2010-05-28T07:26:33Z</time>
 </trkpt>
 <trkpt lat="47.433407" lon="13.232581">
 <ele>563.54</ele>
 <time>2010-05-28T07:26:45Z</time>
 </trkpt>
 <trkpt lat="47.433224" lon="13.233405">
 <ele>564.98</ele>
 <time>2010-05-28T07:26:59Z</time>
 </trkpt>
 <trkpt lat="47.433052" lon="13.234107">
 <ele>565.76</ele>
 <time>2010-05-28T07:27:11Z</time>
 </trkpt>
 <trkpt lat="47.432934" lon="13.234831">
 <ele>566.84</ele>
 <time>2010-05-28T07:27:23Z</time>
 </trkpt>
 <trkpt lat="47.432858" lon="13.235363">
 <ele>567.50</ele>
 <time>2010-05-28T07:27:32Z</time>
 </trkpt>
 <trkpt lat="47.432793" lon="13.236111">
 <ele>568.31</ele>
 <time>2010-05-28T07:27:44Z</time>
 </trkpt>
 <trkpt lat="47.432724" lon="13.236891">
 <ele>569.34</ele>
 <time>2010-05-28T07:27:57Z</time>
 </trkpt>
 <trkpt lat="47.432663" lon="13.237623">
 <ele>570.16</ele>
 <time>2010-05-28T07:28:09Z</time>
 </trkpt>
 <trkpt lat="47.432556" lon="13.238316">
 <ele>570.70</ele>
 <time>2010-05-28T07:28:20Z</time>
 </trkpt>
 <trkpt lat="47.432392" lon="13.239039">
 <ele>570.97</ele>
 <time>2010-05-28T07:28:32Z</time>
 </trkpt>
 <trkpt lat="47.432259" lon="13.239535">
 <ele>571.87</ele>
 <time>2010-05-28T07:28:41Z</time>
 </trkpt>
 <trkpt lat="47.431976" lon="13.239960">
 <ele>573.36</ele>
 <time>2010-05-28T07:28:51Z</time>
 </trkpt>
 <trkpt lat="47.431534" lon="13.240501">
 <ele>574.96</ele>
 <time>2010-05-28T07:29:06Z</time>
 </trkpt>
 <trkpt lat="47.431213" lon="13.240923">
 <ele>575.87</ele>
 <time>2010-05-28T07:29:17Z</time>
 </trkpt>
 <trkpt lat="47.430981" lon="13.241404">
 <ele>576.64</ele>
 <time>2010-05-28T07:29:27Z</time>
 </trkpt>
 <trkpt lat="47.430805" lon="13.241915">
 <ele>577.19</ele>
 <time>2010-05-28T07:29:37Z</time>
 </trkpt>
 <trkpt lat="47.430790" lon="13.242568">
 <ele>577.91</ele>
 <time>2010-05-28T07:29:48Z</time>
 </trkpt>
 <trkpt lat="47.430767" lon="13.243247">
 <ele>578.53</ele>
 <time>2010-05-28T07:29:59Z</time>
 </trkpt>
 <trkpt lat="47.430744" lon="13.243995">
 <ele>579.13</ele>
 <time>2010-05-28T07:30:11Z</time>
 </trkpt>
 <trkpt lat="47.430714" lon="13.244695">
 <ele>579.39</ele>
 <time>2010-05-28T07:30:22Z</time>
 </trkpt>
 <trkpt lat="47.430668" lon="13.245473">
 <ele>580.51</ele>
 <time>2010-05-28T07:30:34Z</time>
 </trkpt>
 <trkpt lat="47.430641" lon="13.245958">
 <ele>581.48</ele>
 <time>2010-05-28T07:30:42Z</time>
 </trkpt>
 <trkpt lat="47.430725" lon="13.246592">
 <ele>582.59</ele>
 <time>2010-05-28T07:30:53Z</time>
 </trkpt>
 <trkpt lat="47.430840" lon="13.247036">
 <ele>583.42</ele>
 <time>2010-05-28T07:31:01Z</time>
 </trkpt>
 <trkpt lat="47.431023" lon="13.247579">
 <ele>584.06</ele>
 <time>2010-05-28T07:31:11Z</time>
 </trkpt>
 <trkpt lat="47.431240" lon="13.248200">
 <ele>584.91</ele>
 <time>2010-05-28T07:31:23Z</time>
 </trkpt>
 <trkpt lat="47.431454" lon="13.248784">
 <ele>585.40</ele>
 <time>2010-05-28T07:31:34Z</time>
 </trkpt>
 <trkpt lat="47.431553" lon="13.249382">
 <ele>586.08</ele>
 <time>2010-05-28T07:31:44Z</time>
 </trkpt>
 <trkpt lat="47.431580" lon="13.249945">
 <ele>586.47</ele>
 <time>2010-05-28T07:31:53Z</time>
 </trkpt>
 <trkpt lat="47.431622" lon="13.250621">
 <ele>586.88</ele>
 <time>2010-05-28T07:32:04Z</time>
 </trkpt>
 <trkpt lat="47.431625" lon="13.251232">
 <ele>587.49</ele>
 <time>2010-05-28T07:32:14Z</time>
 </trkpt>
 <trkpt lat="47.431530" lon="13.251766">
 <ele>588.30</ele>
 <time>2010-05-28T07:32:23Z</time>
 </trkpt>
 <trkpt lat="47.431412" lon="13.252340">
 <ele>588.83</ele>
 <time>2010-05-28T07:32:33Z</time>
 </trkpt>
 <trkpt lat="47.431259" lon="13.253029">
 <ele>589.89</ele>
 <time>2010-05-28T07:32:45Z</time>
 </trkpt>
 <trkpt lat="47.431019" lon="13.253704">
 <ele>591.20</ele>
 <time>2010-05-28T07:32:58Z</time>
 </trkpt>
 <trkpt lat="47.430786" lon="13.254358">
 <ele>591.91</ele>
 <time>2010-05-28T07:33:10Z</time>
 </trkpt>
 <trkpt lat="47.430672" lon="13.255014">
 <ele>592.62</ele>
 <time>2010-05-28T07:33:21Z</time>
 </trkpt>
 <trkpt lat="47.430588" lon="13.255620">
 <ele>593.61</ele>
 <time>2010-05-28T07:33:31Z</time>
 </trkpt>
 <trkpt lat="47.430546" lon="13.256271">
 <ele>594.57</ele>
 <time>2010-05-28T07:33:42Z</time>
 </trkpt>
 <trkpt lat="47.430511" lon="13.256863">
 <ele>595.34</ele>
 <time>2010-05-28T07:33:52Z</time>
 </trkpt>
 <trkpt lat="47.430504" lon="13.257405">
 <ele>595.97</ele>
 <time>2010-05-28T07:34:01Z</time>
 </trkpt>
 <trkpt lat="47.430492" lon="13.257899">
 <ele>596.60</ele>
 <time>2010-05-28T07:34:09Z</time>
 </trkpt>
 <trkpt lat="47.430466" lon="13.258715">
 <ele>597.54</ele>
 <time>2010-05-28T07:34:22Z</time>
 </trkpt>
 <trkpt lat="47.430416" lon="13.259348">
 <ele>598.13</ele>
 <time>2010-05-28T07:34:32Z</time>
 </trkpt>
 <trkpt lat="47.430294" lon="13.260067">
 <ele>599.21</ele>
 <time>2010-05-28T07:34:44Z</time>
 </trkpt>
 <trkpt lat="47.430195" lon="13.260666">
 <ele>600.29</ele>
 <time>2010-05-28T07:34:54Z</time>
 </trkpt>
 <trkpt lat="47.430096" lon="13.261249">
 <ele>601.55</ele>
 <time>2010-05-28T07:35:04Z</time>
 </trkpt>
 <trkpt lat="47.430038" lon="13.261761">
 <ele>602.97</ele>
 <time>2010-05-28T07:35:13Z</time>
 </trkpt>
 <trkpt lat="47.430061" lon="13.262197">
 <ele>603.57</ele>
 <time>2010-05-28T07:35:21Z</time>
 </trkpt>
 <trkpt lat="47.430176" lon="13.262794">
 <ele>603.96</ele>
 <time>2010-05-28T07:35:31Z</time>
 </trkpt>
 <trkpt lat="47.430302" lon="13.263471">
 <ele>604.74</ele>
 <time>2010-05-28T07:35:42Z</time>
 </trkpt>
 <trkpt lat="47.430397" lon="13.264011">
 <ele>605.20</ele>
 <time>2010-05-28T07:35:51Z</time>
 </trkpt>
 <trkpt lat="47.430466" lon="13.264682">
 <ele>607.08</ele>
 <time>2010-05-28T07:36:03Z</time>
 </trkpt>
 <trkpt lat="47.430504" lon="13.265144">
 <ele>608.41</ele>
 <time>2010-05-28T07:36:12Z</time>
 </trkpt>
 <trkpt lat="47.430542" lon="13.265564">
 <ele>609.76</ele>
 <time>2010-05-28T07:36:20Z</time>
 </trkpt>
 <trkpt lat="47.430527" lon="13.265895">
 <ele>611.60</ele>
 <time>2010-05-28T07:36:27Z</time>
 </trkpt>
 <trkpt lat="47.430412" lon="13.266275">
 <ele>613.26</ele>
 <time>2010-05-28T07:36:35Z</time>
 </trkpt>
 <trkpt lat="47.430248" lon="13.266605">
 <ele>614.78</ele>
 <time>2010-05-28T07:36:43Z</time>
 </trkpt>
 <trkpt lat="47.430058" lon="13.266986">
 <ele>617.28</ele>
 <time>2010-05-28T07:36:52Z</time>
 </trkpt>
 <trkpt lat="47.429939" lon="13.267318">
 <ele>617.84</ele>
 <time>2010-05-28T07:36:59Z</time>
 </trkpt>
 <trkpt lat="47.429874" lon="13.267830">
 <ele>617.60</ele>
 <time>2010-05-28T07:37:07Z</time>
 </trkpt>
 <trkpt lat="47.429924" lon="13.268291">
 <ele>617.66</ele>
 <time>2010-05-28T07:37:14Z</time>
 </trkpt>
 <trkpt lat="47.429958" lon="13.268534">
 <ele>617.80</ele>
 <time>2010-05-28T07:37:18Z</time>
 </trkpt>
 <trkpt lat="47.430038" lon="13.269088">
 <ele>618.02</ele>
 <time>2010-05-28T07:37:27Z</time>
 </trkpt>
 <trkpt lat="47.430126" lon="13.269639">
 <ele>618.82</ele>
 <time>2010-05-28T07:37:36Z</time>
 </trkpt>
 <trkpt lat="47.430122" lon="13.269661">
 <ele>618.77</ele>
 <time>2010-05-28T07:37:37Z</time>
 </trkpt>
 <trkpt lat="47.430107" lon="13.270298">
 <ele>619.28</ele>
 <time>2010-05-28T07:37:47Z</time>
 </trkpt>
 <trkpt lat="47.430038" lon="13.270720">
 <ele>619.88</ele>
 <time>2010-05-28T07:37:54Z</time>
 </trkpt>
 <trkpt lat="47.430012" lon="13.270838">
 <ele>619.98</ele>
 <time>2010-05-28T07:37:56Z</time>
 </trkpt>
 <trkpt lat="47.429893" lon="13.271505">
 <ele>620.89</ele>
 <time>2010-05-28T07:38:07Z</time>
 </trkpt>
 <trkpt lat="47.429863" lon="13.271875">
 <ele>621.31</ele>
 <time>2010-05-28T07:38:13Z</time>
 </trkpt>
 <trkpt lat="47.429848" lon="13.272234">
 <ele>621.66</ele>
 <time>2010-05-28T07:38:19Z</time>
 </trkpt>
 <trkpt lat="47.429863" lon="13.272906">
 <ele>622.14</ele>
 <time>2010-05-28T07:38:29Z</time>
 </trkpt>
 <trkpt lat="47.429855" lon="13.273426">
 <ele>622.41</ele>
 <time>2010-05-28T07:38:37Z</time>
 </trkpt>
 <trkpt lat="47.429836" lon="13.273746">
 <ele>622.88</ele>
 <time>2010-05-28T07:38:42Z</time>
 </trkpt>
 <trkpt lat="47.429821" lon="13.273998">
 <ele>623.29</ele>
 <time>2010-05-28T07:38:46Z</time>
 </trkpt>
 <trkpt lat="47.429852" lon="13.274507">
 <ele>624.21</ele>
 <time>2010-05-28T07:38:54Z</time>
 </trkpt>
 <trkpt lat="47.430016" lon="13.275087">
 <ele>624.81</ele>
 <time>2010-05-28T07:39:04Z</time>
 </trkpt>
 <trkpt lat="47.430061" lon="13.275247">
 <ele>625.17</ele>
 <time>2010-05-28T07:39:07Z</time>
 </trkpt>
 <trkpt lat="47.430061" lon="13.275491">
 <ele>625.37</ele>
 <time>2010-05-28T07:39:11Z</time>
 </trkpt>
 <trkpt lat="47.430061" lon="13.275722">
 <ele>625.90</ele>
 <time>2010-05-28T07:39:15Z</time>
 </trkpt>
 <trkpt lat="47.429890" lon="13.276248">
 <ele>626.91</ele>
 <time>2010-05-28T07:39:24Z</time>
 </trkpt>
 <trkpt lat="47.429565" lon="13.276619">
 <ele>627.24</ele>
 <time>2010-05-28T07:39:33Z</time>
 </trkpt>
 <trkpt lat="47.429237" lon="13.276899">
 <ele>627.96</ele>
 <time>2010-05-28T07:39:41Z</time>
 </trkpt>
 <trkpt lat="47.428928" lon="13.277183">
 <ele>628.99</ele>
 <time>2010-05-28T07:39:48Z</time>
 </trkpt>
 <trkpt lat="47.428844" lon="13.277261">
 <ele>629.42</ele>
 <time>2010-05-28T07:39:50Z</time>
 </trkpt>
 <trkpt lat="47.428730" lon="13.277364">
 <ele>629.90</ele>
 <time>2010-05-28T07:39:54Z</time>
 </trkpt>
 <trkpt lat="47.428673" lon="13.277610">
 <ele>629.85</ele>
 <time>2010-05-28T07:39:59Z</time>
 </trkpt>
 <trkpt lat="47.428539" lon="13.278148">
 <ele>630.96</ele>
 <time>2010-05-28T07:40:09Z</time>
 </trkpt>
 <trkpt lat="47.428463" lon="13.278464">
 <ele>632.00</ele>
 <time>2010-05-28T07:40:15Z</time>
 </trkpt>
 <trkpt lat="47.428276" lon="13.279043">
 <ele>632.89</ele>
 <time>2010-05-28T07:40:26Z</time>
 </trkpt>
 <trkpt lat="47.428082" lon="13.279502">
 <ele>633.81</ele>
 <time>2010-05-28T07:40:35Z</time>
 </trkpt>
 <trkpt lat="47.427929" lon="13.279920">
 <ele>634.88</ele>
 <time>2010-05-28T07:40:43Z</time>
 </trkpt>
 <trkpt lat="47.427860" lon="13.280128">
 <ele>635.39</ele>
 <time>2010-05-28T07:40:47Z</time>
 </trkpt>
 <trkpt lat="47.427670" lon="13.280473">
 <ele>636.28</ele>
 <time>2010-05-28T07:40:53Z</time>
 </trkpt>
 <trkpt lat="47.427567" lon="13.280619">
 <ele>636.90</ele>
 <time>2010-05-28T07:40:57Z</time>
 </trkpt>
 <trkpt lat="47.427479" lon="13.280739">
 <ele>637.43</ele>
 <time>2010-05-28T07:41:00Z</time>
 </trkpt>
 <trkpt lat="47.427162" lon="13.281001">
 <ele>638.63</ele>
 <time>2010-05-28T07:41:09Z</time>
 </trkpt>
 <trkpt lat="47.426994" lon="13.281090">
 <ele>639.06</ele>
 <time>2010-05-28T07:41:13Z</time>
 </trkpt>
 <trkpt lat="47.426754" lon="13.281174">
 <ele>639.67</ele>
 <time>2010-05-28T07:41:20Z</time>
 </trkpt>
 <trkpt lat="47.426441" lon="13.281312">
 <ele>640.25</ele>
 <time>2010-05-28T07:41:28Z</time>
 </trkpt>
 <trkpt lat="47.426228" lon="13.281487">
 <ele>640.96</ele>
 <time>2010-05-28T07:41:34Z</time>
 </trkpt>
 <trkpt lat="47.426159" lon="13.281764">
 <ele>641.23</ele>
 <time>2010-05-28T07:41:39Z</time>
 </trkpt>
 <trkpt lat="47.426125" lon="13.282227">
 <ele>640.80</ele>
 <time>2010-05-28T07:41:46Z</time>
 </trkpt>
 <trkpt lat="47.426125" lon="13.282289">
 <ele>640.79</ele>
 <time>2010-05-28T07:41:47Z</time>
 </trkpt>
 <trkpt lat="47.426102" lon="13.282749">
 <ele>642.18</ele>
 <time>2010-05-28T07:41:55Z</time>
 </trkpt>
 <trkpt lat="47.425949" lon="13.283309">
 <ele>644.20</ele>
 <time>2010-05-28T07:42:06Z</time>
 </trkpt>
 <trkpt lat="47.425777" lon="13.283881">
 <ele>645.35</ele>
 <time>2010-05-28T07:42:17Z</time>
 </trkpt>
 <trkpt lat="47.425571" lon="13.284521">
 <ele>645.76</ele>
 <time>2010-05-28T07:42:28Z</time>
 </trkpt>
 <trkpt lat="47.425365" lon="13.285182">
 <ele>646.14</ele>
 <time>2010-05-28T07:42:39Z</time>
 </trkpt>
 <trkpt lat="47.425125" lon="13.285961">
 <ele>647.67</ele>
 <time>2010-05-28T07:42:53Z</time>
 </trkpt>
 <trkpt lat="47.424957" lon="13.286458">
 <ele>648.64</ele>
 <time>2010-05-28T07:43:02Z</time>
 </trkpt>
 <trkpt lat="47.424789" lon="13.286995">
 <ele>650.16</ele>
 <time>2010-05-28T07:43:12Z</time>
 </trkpt>
 <trkpt lat="47.424744" lon="13.287278">
 <ele>650.49</ele>
 <time>2010-05-28T07:43:17Z</time>
 </trkpt>
 <trkpt lat="47.424782" lon="13.287830">
 <ele>651.68</ele>
 <time>2010-05-28T07:43:26Z</time>
 </trkpt>
 <trkpt lat="47.424961" lon="13.288582">
 <ele>652.02</ele>
 <time>2010-05-28T07:43:38Z</time>
 </trkpt>
 <trkpt lat="47.424995" lon="13.289236">
 <ele>652.60</ele>
 <time>2010-05-28T07:43:48Z</time>
 </trkpt>
 <trkpt lat="47.424927" lon="13.289792">
 <ele>652.88</ele>
 <time>2010-05-28T07:43:57Z</time>
 </trkpt>
 <trkpt lat="47.424805" lon="13.290448">
 <ele>653.80</ele>
 <time>2010-05-28T07:44:08Z</time>
 </trkpt>
 <trkpt lat="47.424622" lon="13.291190">
 <ele>655.49</ele>
 <time>2010-05-28T07:44:21Z</time>
 </trkpt>
 <trkpt lat="47.424389" lon="13.291575">
 <ele>656.42</ele>
 <time>2010-05-28T07:44:30Z</time>
 </trkpt>
 <trkpt lat="47.424149" lon="13.291978">
 <ele>657.55</ele>
 <time>2010-05-28T07:44:40Z</time>
 </trkpt>
 <trkpt lat="47.423908" lon="13.292478">
 <ele>659.37</ele>
 <time>2010-05-28T07:44:51Z</time>
 </trkpt>
 <trkpt lat="47.423828" lon="13.292675">
 <ele>659.98</ele>
 <time>2010-05-28T07:44:55Z</time>
 </trkpt>
 <trkpt lat="47.423683" lon="13.293133">
 <ele>660.34</ele>
 <time>2010-05-28T07:45:03Z</time>
 </trkpt>
 <trkpt lat="47.423611" lon="13.293463">
 <ele>660.95</ele>
 <time>2010-05-28T07:45:09Z</time>
 </trkpt>
 <trkpt lat="47.423477" lon="13.293700">
 <ele>661.99</ele>
 <time>2010-05-28T07:45:16Z</time>
 </trkpt>
 <trkpt lat="47.423317" lon="13.293965">
 <ele>663.14</ele>
 <time>2010-05-28T07:45:22Z</time>
 </trkpt>
 <trkpt lat="47.423244" lon="13.294282">
 <ele>663.74</ele>
 <time>2010-05-28T07:45:27Z</time>
 </trkpt>
 <trkpt lat="47.423233" lon="13.294526">
 <ele>663.93</ele>
 <time>2010-05-28T07:45:31Z</time>
 </trkpt>
 <trkpt lat="47.423225" lon="13.294649">
 <ele>663.96</ele>
 <time>2010-05-28T07:45:33Z</time>
 </trkpt>
 <trkpt lat="47.423172" lon="13.294957">
 <ele>663.84</ele>
 <time>2010-05-28T07:45:39Z</time>
 </trkpt>
 <trkpt lat="47.423084" lon="13.295177">
 <ele>664.65</ele>
 <time>2010-05-28T07:45:44Z</time>
 </trkpt>
 <trkpt lat="47.423069" lon="13.295211">
 <ele>664.85</ele>
 <time>2010-05-28T07:45:45Z</time>
 </trkpt>
 <trkpt lat="47.422832" lon="13.295387">
 <ele>665.31</ele>
 <time>2010-05-28T07:45:51Z</time>
 </trkpt>
 <trkpt lat="47.422367" lon="13.295366">
 <ele>666.11</ele>
 <time>2010-05-28T07:46:00Z</time>
 </trkpt>
 <trkpt lat="47.422291" lon="13.295324">
 <ele>666.10</ele>
 <time>2010-05-28T07:46:02Z</time>
 </trkpt>
 <trkpt lat="47.422070" lon="13.295206">
 <ele>666.61</ele>
 <time>2010-05-28T07:46:08Z</time>
 </trkpt>
 <trkpt lat="47.421944" lon="13.295139">
 <ele>667.38</ele>
 <time>2010-05-28T07:46:13Z</time>
 </trkpt>
 <trkpt lat="47.421776" lon="13.295215">
 <ele>667.71</ele>
 <time>2010-05-28T07:46:18Z</time>
 </trkpt>
 <trkpt lat="47.421646" lon="13.295452">
 <ele>667.89</ele>
 <time>2010-05-28T07:46:20Z</time>
 </trkpt>
 <trkpt lat="47.421497" lon="13.296271">
 <ele>668.50</ele>
 <time>2010-05-28T07:46:33Z</time>
 </trkpt>
 <trkpt lat="47.421398" lon="13.296894">
 <ele>668.77</ele>
 <time>2010-05-28T07:46:43Z</time>
 </trkpt>
 <trkpt lat="47.421291" lon="13.297571">
 <ele>670.24</ele>
 <time>2010-05-28T07:46:54Z</time>
 </trkpt>
 <trkpt lat="47.421192" lon="13.298072">
 <ele>670.76</ele>
 <time>2010-05-28T07:47:04Z</time>
 </trkpt>
 <trkpt lat="47.420982" lon="13.298557">
 <ele>671.13</ele>
 <time>2010-05-28T07:47:13Z</time>
 </trkpt>
 <trkpt lat="47.420731" lon="13.298903">
 <ele>671.82</ele>
 <time>2010-05-28T07:47:22Z</time>
 </trkpt>
 <trkpt lat="47.420292" lon="13.299451">
 <ele>672.91</ele>
 <time>2010-05-28T07:47:35Z</time>
 </trkpt>
 <trkpt lat="47.420219" lon="13.299543">
 <ele>673.12</ele>
 <time>2010-05-28T07:47:37Z</time>
 </trkpt>
 <trkpt lat="47.420055" lon="13.299766">
 <ele>673.51</ele>
 <time>2010-05-28T07:47:42Z</time>
 </trkpt>
 <trkpt lat="47.419918" lon="13.300042">
 <ele>673.87</ele>
 <time>2010-05-28T07:47:45Z</time>
 </trkpt>
 <trkpt lat="47.419834" lon="13.300614">
 <ele>674.50</ele>
 <time>2010-05-28T07:47:54Z</time>
 </trkpt>
 <trkpt lat="47.419777" lon="13.300998">
 <ele>675.01</ele>
 <time>2010-05-28T07:48:01Z</time>
 </trkpt>
 <trkpt lat="47.419754" lon="13.301057">
 <ele>675.27</ele>
 <time>2010-05-28T07:48:02Z</time>
 </trkpt>
 <trkpt lat="47.419510" lon="13.301628">
 <ele>676.79</ele>
 <time>2010-05-28T07:48:13Z</time>
 </trkpt>
 <trkpt lat="47.419281" lon="13.301890">
 <ele>677.63</ele>
 <time>2010-05-28T07:48:21Z</time>
 </trkpt>
 <trkpt lat="47.419003" lon="13.302209">
 <ele>678.97</ele>
 <time>2010-05-28T07:48:30Z</time>
 </trkpt>
 <trkpt lat="47.418972" lon="13.302246">
 <ele>679.19</ele>
 <time>2010-05-28T07:48:31Z</time>
 </trkpt>
 <trkpt lat="47.418854" lon="13.302444">
 <ele>679.34</ele>
 <time>2010-05-28T07:48:35Z</time>
 </trkpt>
 <trkpt lat="47.418800" lon="13.302542">
 <ele>679.37</ele>
 <time>2010-05-28T07:48:37Z</time>
 </trkpt>
 <trkpt lat="47.418644" lon="13.303018">
 <ele>680.40</ele>
 <time>2010-05-28T07:48:45Z</time>
 </trkpt>
 <trkpt lat="47.418613" lon="13.303319">
 <ele>680.90</ele>
 <time>2010-05-28T07:48:50Z</time>
 </trkpt>
 <trkpt lat="47.418560" lon="13.303529">
 <ele>681.69</ele>
 <time>2010-05-28T07:48:55Z</time>
 </trkpt>
 <trkpt lat="47.418304" lon="13.303984">
 <ele>682.48</ele>
 <time>2010-05-28T07:49:05Z</time>
 </trkpt>
 <trkpt lat="47.418022" lon="13.304486">
 <ele>683.47</ele>
 <time>2010-05-28T07:49:16Z</time>
 </trkpt>
 <trkpt lat="47.417740" lon="13.304871">
 <ele>684.95</ele>
 <time>2010-05-28T07:49:26Z</time>
 </trkpt>
 <trkpt lat="47.417435" lon="13.305246">
 <ele>685.94</ele>
 <time>2010-05-28T07:49:35Z</time>
 </trkpt>
 <trkpt lat="47.417049" lon="13.305469">
 <ele>686.65</ele>
 <time>2010-05-28T07:49:45Z</time>
 </trkpt>
 <trkpt lat="47.416626" lon="13.305714">
 <ele>687.62</ele>
 <time>2010-05-28T07:49:56Z</time>
 </trkpt>
 <trkpt lat="47.416389" lon="13.305888">
 <ele>688.04</ele>
 <time>2010-05-28T07:50:02Z</time>
 </trkpt>
 <trkpt lat="47.416218" lon="13.306232">
 <ele>688.62</ele>
 <time>2010-05-28T07:50:09Z</time>
 </trkpt>
 <trkpt lat="47.416050" lon="13.306817">
 <ele>689.31</ele>
 <time>2010-05-28T07:50:19Z</time>
 </trkpt>
 <trkpt lat="47.415852" lon="13.307509">
 <ele>690.20</ele>
 <time>2010-05-28T07:50:31Z</time>
 </trkpt>
 <trkpt lat="47.415630" lon="13.308127">
 <ele>690.98</ele>
 <time>2010-05-28T07:50:42Z</time>
 </trkpt>
 <trkpt lat="47.415443" lon="13.308514">
 <ele>691.77</ele>
 <time>2010-05-28T07:50:50Z</time>
 </trkpt>
 <trkpt lat="47.415131" lon="13.308966">
 <ele>693.44</ele>
 <time>2010-05-28T07:51:01Z</time>
 </trkpt>
 <trkpt lat="47.414883" lon="13.309253">
 <ele>694.61</ele>
 <time>2010-05-28T07:51:09Z</time>
 </trkpt>
 <trkpt lat="47.414558" lon="13.309625">
 <ele>696.38</ele>
 <time>2010-05-28T07:51:20Z</time>
 </trkpt>
 <trkpt lat="47.414413" lon="13.309888">
 <ele>697.48</ele>
 <time>2010-05-28T07:51:26Z</time>
 </trkpt>
 <trkpt lat="47.414257" lon="13.310255">
 <ele>697.92</ele>
 <time>2010-05-28T07:51:33Z</time>
 </trkpt>
 <trkpt lat="47.414200" lon="13.310954">
 <ele>698.43</ele>
 <time>2010-05-28T07:51:44Z</time>
 </trkpt>
 <trkpt lat="47.414188" lon="13.311425">
 <ele>699.62</ele>
 <time>2010-05-28T07:51:52Z</time>
 </trkpt>
 <trkpt lat="47.414185" lon="13.311542">
 <ele>700.05</ele>
 <time>2010-05-28T07:51:54Z</time>
 </trkpt>
 <trkpt lat="47.414265" lon="13.311963">
 <ele>701.08</ele>
 <time>2010-05-28T07:52:01Z</time>
 </trkpt>
 <trkpt lat="47.414436" lon="13.312275">
 <ele>701.55</ele>
 <time>2010-05-28T07:52:07Z</time>
 </trkpt>
 <trkpt lat="47.414734" lon="13.312761">
 <ele>701.60</ele>
 <time>2010-05-28T07:52:17Z</time>
 </trkpt>
 <trkpt lat="47.414761" lon="13.312826">
 <ele>701.70</ele>
 <time>2010-05-28T07:52:18Z</time>
 </trkpt>
 <trkpt lat="47.414894" lon="13.313155">
 <ele>701.56</ele>
 <time>2010-05-28T07:52:24Z</time>
 </trkpt>
 <trkpt lat="47.414841" lon="13.313445">
 <ele>701.93</ele>
 <time>2010-05-28T07:52:28Z</time>
 </trkpt>
 <trkpt lat="47.414772" lon="13.313673">
 <ele>702.36</ele>
 <time>2010-05-28T07:52:32Z</time>
 </trkpt>
 <trkpt lat="47.414494" lon="13.314135">
 <ele>703.52</ele>
 <time>2010-05-28T07:52:42Z</time>
 </trkpt>
 <trkpt lat="47.414433" lon="13.314384">
 <ele>704.17</ele>
 <time>2010-05-28T07:52:47Z</time>
 </trkpt>
 <trkpt lat="47.414379" lon="13.314787">
 <ele>704.98</ele>
 <time>2010-05-28T07:52:54Z</time>
 </trkpt>
 <trkpt lat="47.414402" lon="13.314886">
 <ele>705.08</ele>
 <time>2010-05-28T07:52:56Z</time>
 </trkpt>
 <trkpt lat="47.414600" lon="13.315437">
 <ele>705.62</ele>
 <time>2010-05-28T07:53:06Z</time>
 </trkpt>
 <trkpt lat="47.414715" lon="13.315984">
 <ele>705.70</ele>
 <time>2010-05-28T07:53:15Z</time>
 </trkpt>
 <trkpt lat="47.414822" lon="13.316709">
 <ele>706.19</ele>
 <time>2010-05-28T07:53:26Z</time>
 </trkpt>
 <trkpt lat="47.414913" lon="13.317268">
 <ele>707.09</ele>
 <time>2010-05-28T07:53:35Z</time>
 </trkpt>
 <trkpt lat="47.414948" lon="13.317378">
 <ele>707.25</ele>
 <time>2010-05-28T07:53:37Z</time>
 </trkpt>
 <trkpt lat="47.414993" lon="13.317545">
 <ele>707.74</ele>
 <time>2010-05-28T07:53:40Z</time>
 </trkpt>
 <trkpt lat="47.415035" lon="13.317704">
 <ele>708.18</ele>
 <time>2010-05-28T07:53:43Z</time>
 </trkpt>
 <trkpt lat="47.415203" lon="13.318006">
 <ele>708.64</ele>
 <time>2010-05-28T07:53:48Z</time>
 </trkpt>
 <trkpt lat="47.415260" lon="13.318069">
 <ele>708.89</ele>
 <time>2010-05-28T07:53:50Z</time>
 </trkpt>
 <trkpt lat="47.415359" lon="13.318175">
 <ele>709.38</ele>
 <time>2010-05-28T07:53:53Z</time>
 </trkpt>
 <trkpt lat="47.415634" lon="13.318474">
 <ele>710.78</ele>
 <time>2010-05-28T07:54:02Z</time>
 </trkpt>
 <trkpt lat="47.415886" lon="13.318790">
 <ele>710.95</ele>
 <time>2010-05-28T07:54:10Z</time>
 </trkpt>
 <trkpt lat="47.416088" lon="13.319317">
 <ele>710.67</ele>
 <time>2010-05-28T07:54:20Z</time>
 </trkpt>
 <trkpt lat="47.416294" lon="13.320041">
 <ele>710.81</ele>
 <time>2010-05-28T07:54:32Z</time>
 </trkpt>
 <trkpt lat="47.416504" lon="13.320765">
 <ele>711.01</ele>
 <time>2010-05-28T07:54:44Z</time>
 </trkpt>
 <trkpt lat="47.416695" lon="13.321415">
 <ele>711.28</ele>
 <time>2010-05-28T07:54:55Z</time>
 </trkpt>
 <trkpt lat="47.416836" lon="13.321879">
 <ele>712.48</ele>
 <time>2010-05-28T07:55:03Z</time>
 </trkpt>
 <trkpt lat="47.417042" lon="13.322502">
 <ele>713.00</ele>
 <time>2010-05-28T07:55:14Z</time>
 </trkpt>
 <trkpt lat="47.417274" lon="13.323123">
 <ele>714.23</ele>
 <time>2010-05-28T07:55:26Z</time>
 </trkpt>
 <trkpt lat="47.417458" lon="13.323563">
 <ele>714.87</ele>
 <time>2010-05-28T07:55:35Z</time>
 </trkpt>
 <trkpt lat="47.417690" lon="13.324075">
 <ele>715.85</ele>
 <time>2010-05-28T07:55:45Z</time>
 </trkpt>
 <trkpt lat="47.417927" lon="13.324588">
 <ele>716.41</ele>
 <time>2010-05-28T07:55:55Z</time>
 </trkpt>
 <trkpt lat="47.418221" lon="13.325225">
 <ele>717.13</ele>
 <time>2010-05-28T07:56:07Z</time>
 </trkpt>
 <trkpt lat="47.418449" lon="13.325734">
 <ele>717.49</ele>
 <time>2010-05-28T07:56:17Z</time>
 </trkpt>
 <trkpt lat="47.418732" lon="13.326371">
 <ele>718.39</ele>
 <time>2010-05-28T07:56:29Z</time>
 </trkpt>
 <trkpt lat="47.418987" lon="13.326948">
 <ele>719.08</ele>
 <time>2010-05-28T07:56:40Z</time>
 </trkpt>
 <trkpt lat="47.419384" lon="13.327594">
 <ele>720.09</ele>
 <time>2010-05-28T07:56:54Z</time>
 </trkpt>
 <trkpt lat="47.419662" lon="13.328039">
 <ele>721.42</ele>
 <time>2010-05-28T07:57:04Z</time>
 </trkpt>
 <trkpt lat="47.420097" lon="13.328626">
 <ele>723.24</ele>
 <time>2010-05-28T07:57:19Z</time>
 </trkpt>
 <trkpt lat="47.420433" lon="13.329081">
 <ele>724.58</ele>
 <time>2010-05-28T07:57:30Z</time>
 </trkpt>
 <trkpt lat="47.420795" lon="13.329586">
 <ele>725.72</ele>
 <time>2010-05-28T07:57:42Z</time>
 </trkpt>
 <trkpt lat="47.421036" lon="13.329921">
 <ele>726.23</ele>
 <time>2010-05-28T07:57:50Z</time>
 </trkpt>
 <trkpt lat="47.421398" lon="13.330473">
 <ele>727.25</ele>
 <time>2010-05-28T07:58:02Z</time>
 </trkpt>
 <trkpt lat="47.421597" lon="13.331033">
 <ele>728.25</ele>
 <time>2010-05-28T07:58:12Z</time>
 </trkpt>
 <trkpt lat="47.421726" lon="13.331571">
 <ele>729.19</ele>
 <time>2010-05-28T07:58:21Z</time>
 </trkpt>
 <trkpt lat="47.421822" lon="13.332240">
 <ele>730.27</ele>
 <time>2010-05-28T07:58:32Z</time>
 </trkpt>
 <trkpt lat="47.421825" lon="13.333094">
 <ele>731.47</ele>
 <time>2010-05-28T07:58:46Z</time>
 </trkpt>
 <trkpt lat="47.421852" lon="13.333692">
 <ele>732.44</ele>
 <time>2010-05-28T07:58:56Z</time>
 </trkpt>
 <trkpt lat="47.421947" lon="13.334346">
 <ele>733.68</ele>
 <time>2010-05-28T07:59:07Z</time>
 </trkpt>
 <trkpt lat="47.422119" lon="13.334960">
 <ele>734.33</ele>
 <time>2010-05-28T07:59:18Z</time>
 </trkpt>
 <trkpt lat="47.422337" lon="13.335620">
 <ele>735.55</ele>
 <time>2010-05-28T07:59:30Z</time>
 </trkpt>
 <trkpt lat="47.422554" lon="13.336283">
 <ele>736.45</ele>
 <time>2010-05-28T07:59:42Z</time>
 </trkpt>
 <trkpt lat="47.422691" lon="13.336939">
 <ele>737.63</ele>
 <time>2010-05-28T07:59:53Z</time>
 </trkpt>
 <trkpt lat="47.422760" lon="13.337564">
 <ele>738.27</ele>
 <time>2010-05-28T08:00:03Z</time>
 </trkpt>
 <trkpt lat="47.422749" lon="13.337999">
 <ele>739.10</ele>
 <time>2010-05-28T08:00:10Z</time>
 </trkpt>
 <trkpt lat="47.422623" lon="13.338634">
 <ele>740.14</ele>
 <time>2010-05-28T08:00:21Z</time>
 </trkpt>
 <trkpt lat="47.422447" lon="13.339236">
 <ele>740.93</ele>
 <time>2010-05-28T08:00:32Z</time>
 </trkpt>
 <trkpt lat="47.422207" lon="13.339772">
 <ele>741.87</ele>
 <time>2010-05-28T08:00:43Z</time>
 </trkpt>
 <trkpt lat="47.421917" lon="13.340327">
 <ele>743.51</ele>
 <time>2010-05-28T08:00:55Z</time>
 </trkpt>
 <trkpt lat="47.421757" lon="13.340883">
 <ele>743.82</ele>
 <time>2010-05-28T08:01:05Z</time>
 </trkpt>
 <trkpt lat="47.421661" lon="13.341420">
 <ele>743.48</ele>
 <time>2010-05-28T08:01:13Z</time>
 </trkpt>
 <trkpt lat="47.421570" lon="13.342139">
 <ele>742.67</ele>
 <time>2010-05-28T08:01:23Z</time>
 </trkpt>
 <trkpt lat="47.421646" lon="13.342692">
 <ele>741.58</ele>
 <time>2010-05-28T08:01:30Z</time>
 </trkpt>
 <trkpt lat="47.421730" lon="13.343259">
 <ele>740.54</ele>
 <time>2010-05-28T08:01:37Z</time>
 </trkpt>
 <trkpt lat="47.421787" lon="13.343783">
 <ele>740.52</ele>
 <time>2010-05-28T08:01:44Z</time>
 </trkpt>
 <trkpt lat="47.421837" lon="13.344364">
 <ele>741.10</ele>
 <time>2010-05-28T08:01:53Z</time>
 </trkpt>
 <trkpt lat="47.421844" lon="13.344975">
 <ele>742.86</ele>
 <time>2010-05-28T08:02:03Z</time>
 </trkpt>
 <trkpt lat="47.421738" lon="13.345524">
 <ele>744.05</ele>
 <time>2010-05-28T08:02:13Z</time>
 </trkpt>
 <trkpt lat="47.421673" lon="13.346024">
 <ele>745.43</ele>
 <time>2010-05-28T08:02:22Z</time>
 </trkpt>
 <trkpt lat="47.421673" lon="13.346380">
 <ele>745.85</ele>
 <time>2010-05-28T08:02:28Z</time>
 </trkpt>
 <trkpt lat="47.421677" lon="13.346986">
 <ele>746.01</ele>
 <time>2010-05-28T08:02:38Z</time>
 </trkpt>
 <trkpt lat="47.421700" lon="13.347106">
 <ele>746.15</ele>
 <time>2010-05-28T08:02:40Z</time>
 </trkpt>
 <trkpt lat="47.421745" lon="13.347341">
 <ele>746.26</ele>
 <time>2010-05-28T08:02:44Z</time>
 </trkpt>
 <trkpt lat="47.421757" lon="13.347725">
 <ele>745.92</ele>
 <time>2010-05-28T08:02:49Z</time>
 </trkpt>
 <trkpt lat="47.421547" lon="13.348096">
 <ele>746.94</ele>
 <time>2010-05-28T08:02:57Z</time>
 </trkpt>
 <trkpt lat="47.421509" lon="13.348156">
 <ele>747.17</ele>
 <time>2010-05-28T08:02:59Z</time>
 </trkpt>
 <trkpt lat="47.421352" lon="13.348402">
 <ele>747.31</ele>
 <time>2010-05-28T08:03:05Z</time>
 </trkpt>
 <trkpt lat="47.421188" lon="13.348808">
 <ele>747.79</ele>
 <time>2010-05-28T08:03:13Z</time>
 </trkpt>
 <trkpt lat="47.421062" lon="13.349273">
 <ele>748.11</ele>
 <time>2010-05-28T08:03:22Z</time>
 </trkpt>
 <trkpt lat="47.421085" lon="13.350246">
 <ele>748.53</ele>
 <time>2010-05-28T08:03:36Z</time>
 </trkpt>
 <trkpt lat="47.421089" lon="13.350863">
 <ele>749.29</ele>
 <time>2010-05-28T08:03:46Z</time>
 </trkpt>
 <trkpt lat="47.421089" lon="13.351721">
 <ele>750.33</ele>
 <time>2010-05-28T08:04:00Z</time>
 </trkpt>
 <trkpt lat="47.421078" lon="13.352511">
 <ele>751.58</ele>
 <time>2010-05-28T08:04:13Z</time>
 </trkpt>
 <trkpt lat="47.421059" lon="13.353291">
 <ele>752.75</ele>
 <time>2010-05-28T08:04:26Z</time>
 </trkpt>
 <trkpt lat="47.421043" lon="13.354004">
 <ele>753.57</ele>
 <time>2010-05-28T08:04:38Z</time>
 </trkpt>
 <trkpt lat="47.421028" lon="13.354661">
 <ele>755.13</ele>
 <time>2010-05-28T08:04:49Z</time>
 </trkpt>
 <trkpt lat="47.421032" lon="13.355439">
 <ele>756.40</ele>
 <time>2010-05-28T08:05:02Z</time>
 </trkpt>
 <trkpt lat="47.421036" lon="13.356150">
 <ele>757.20</ele>
 <time>2010-05-28T08:05:14Z</time>
 </trkpt>
 <trkpt lat="47.421040" lon="13.356986">
 <ele>758.65</ele>
 <time>2010-05-28T08:05:28Z</time>
 </trkpt>
 <trkpt lat="47.421047" lon="13.357831">
 <ele>760.19</ele>
 <time>2010-05-28T08:05:42Z</time>
 </trkpt>
 <trkpt lat="47.421043" lon="13.358557">
 <ele>761.05</ele>
 <time>2010-05-28T08:05:54Z</time>
 </trkpt>
 <trkpt lat="47.421040" lon="13.359289">
 <ele>761.84</ele>
 <time>2010-05-28T08:06:06Z</time>
 </trkpt>
 <trkpt lat="47.421028" lon="13.360086">
 <ele>763.22</ele>
 <time>2010-05-28T08:06:19Z</time>
 </trkpt>
 <trkpt lat="47.421036" lon="13.360986">
 <ele>764.41</ele>
 <time>2010-05-28T08:06:34Z</time>
 </trkpt>
 <trkpt lat="47.421043" lon="13.361689">
 <ele>765.29</ele>
 <time>2010-05-28T08:06:46Z</time>
 </trkpt>
 <trkpt lat="47.421059" lon="13.362571">
 <ele>766.55</ele>
 <time>2010-05-28T08:07:01Z</time>
 </trkpt>
 <trkpt lat="47.421070" lon="13.363413">
 <ele>767.80</ele>
 <time>2010-05-28T08:07:15Z</time>
 </trkpt>
 <trkpt lat="47.421070" lon="13.364134">
 <ele>768.68</ele>
 <time>2010-05-28T08:07:27Z</time>
 </trkpt>
 <trkpt lat="47.421070" lon="13.364853">
 <ele>769.84</ele>
 <time>2010-05-28T08:07:39Z</time>
 </trkpt>
 <trkpt lat="47.421062" lon="13.365514">
 <ele>770.79</ele>
 <time>2010-05-28T08:07:50Z</time>
 </trkpt>
 <trkpt lat="47.421040" lon="13.366188">
 <ele>771.94</ele>
 <time>2010-05-28T08:08:01Z</time>
 </trkpt>
 <trkpt lat="47.421009" lon="13.367001">
 <ele>772.69</ele>
 <time>2010-05-28T08:08:14Z</time>
 </trkpt>
 <trkpt lat="47.420879" lon="13.367616">
 <ele>773.03</ele>
 <time>2010-05-28T08:08:24Z</time>
 </trkpt>
 <trkpt lat="47.420719" lon="13.368299">
 <ele>773.28</ele>
 <time>2010-05-28T08:08:35Z</time>
 </trkpt>
 <trkpt lat="47.420551" lon="13.368947">
 <ele>773.16</ele>
 <time>2010-05-28T08:08:45Z</time>
 </trkpt>
 <trkpt lat="47.420334" lon="13.369659">
 <ele>773.71</ele>
 <time>2010-05-28T08:08:57Z</time>
 </trkpt>
 <trkpt lat="47.420177" lon="13.370164">
 <ele>774.24</ele>
 <time>2010-05-28T08:09:06Z</time>
 </trkpt>
 <trkpt lat="47.420040" lon="13.370603">
 <ele>775.56</ele>
 <time>2010-05-28T08:09:14Z</time>
 </trkpt>
 <trkpt lat="47.419888" lon="13.370992">
 <ele>776.33</ele>
 <time>2010-05-28T08:09:22Z</time>
 </trkpt>
 <trkpt lat="47.419834" lon="13.371096">
 <ele>776.65</ele>
 <time>2010-05-28T08:09:25Z</time>
 </trkpt>
 <trkpt lat="47.419685" lon="13.371397">
 <ele>776.67</ele>
 <time>2010-05-28T08:09:32Z</time>
 </trkpt>
 <trkpt lat="47.420067" lon="13.371145">
 <ele>800.00</ele>
 <time>2010-05-28T08:09:40Z</time>
 </trkpt>
 <trkpt lat="47.420013" lon="13.371313">
 <ele>800.00</ele>
 <time>2010-05-28T08:09:47Z</time>
 </trkpt>
 <trkpt lat="47.420007" lon="13.371628">
 <ele>800.00</ele>
 <time>2010-05-28T08:09:52Z</time>
 </trkpt>
 <trkpt lat="47.419966" lon="13.371960">
 <ele>817.35</ele>
 <time>2010-05-28T08:09:55Z</time>
 </trkpt>
 <trkpt lat="47.419950" lon="13.372392">
 <ele>800.00</ele>
 <time>2010-05-28T08:09:59Z</time>
 </trkpt>
 <trkpt lat="47.419965" lon="13.372673">
 <ele>800.00</ele>
 <time>2010-05-28T08:10:01Z</time>
 </trkpt>
 <trkpt lat="47.419970" lon="13.373021">
 <ele>800.00</ele>
 <time>2010-05-28T08:10:04Z</time>
 </trkpt>
 <trkpt lat="47.419922" lon="13.373603">
 <ele>817.25</ele>
 <time>2010-05-28T08:10:09Z</time>
 </trkpt>
 <trkpt lat="47.419896" lon="13.374117">
 <ele>800.00</ele>
 <time>2010-05-28T08:10:17Z</time>
 </trkpt>
 <trkpt lat="47.419755" lon="13.374486">
 <ele>800.00</ele>
 <time>2010-05-28T08:10:27Z</time>
 </trkpt>
 <trkpt lat="47.419614" lon="13.374855">
 <ele>811.81</ele>
 <time>2010-05-28T08:10:36Z</time>
 </trkpt>
 <trkpt lat="47.419475" lon="13.375390">
 <ele>800.00</ele>
 <time>2010-05-28T08:10:44Z</time>
 </trkpt>
 <trkpt lat="47.419380" lon="13.375840">
 <ele>800.00</ele>
 <time>2010-05-28T08:10:52Z</time>
 </trkpt>
 <trkpt lat="47.419286" lon="13.376340">
 <ele>802.89</ele>
 <time>2010-05-28T08:11:01Z</time>
 </trkpt>
 <trkpt lat="47.419165" lon="13.376543">
 <ele>800.00</ele>
 <time>2010-05-28T08:11:12Z</time>
 </trkpt>
 <trkpt lat="47.419047" lon="13.376944">
 <ele>800.00</ele>
 <time>2010-05-28T08:11:22Z</time>
 </trkpt>
 <trkpt lat="47.418929" lon="13.377362">
 <ele>800.00</ele>
 <time>2010-05-28T08:11:29Z</time>
 </trkpt>
 <trkpt lat="47.418878" lon="13.377695">
 <ele>800.00</ele>
 <time>2010-05-28T08:11:39Z</time>
 </trkpt>
 <trkpt lat="47.418760" lon="13.378096">
 <ele>804.35</ele>
 <time>2010-05-28T08:11:50Z</time>
 </trkpt>
 <trkpt lat="47.418754" lon="13.378445">
 <ele>800.00</ele>
 <time>2010-05-28T08:11:58Z</time>
 </trkpt>
 <trkpt lat="47.418668" lon="13.378779">
 <ele>800.00</ele>
 <time>2010-05-28T08:12:04Z</time>
 </trkpt>
 <trkpt lat="47.418529" lon="13.379263">
 <ele>811.77</ele>
 <time>2010-05-28T08:12:10Z</time>
 </trkpt>
 <trkpt lat="47.418514" lon="13.379794">
 <ele>805.56</ele>
 <time>2010-05-28T08:12:16Z</time>
 </trkpt>
 <trkpt lat="47.418287" lon="13.380447">
 <ele>808.64</ele>
 <time>2010-05-28T08:12:27Z</time>
 </trkpt>
 <trkpt lat="47.417956" lon="13.380872">
 <ele>800.00</ele>
 <time>2010-05-28T08:12:32Z</time>
 </trkpt>
 <trkpt lat="47.417862" lon="13.381582">
 <ele>790.90</ele>
 <time>2010-05-28T08:12:39Z</time>
 </trkpt>
 <trkpt lat="47.417904" lon="13.382266">
 <ele>790.80</ele>
 <time>2010-05-28T08:12:40Z</time>
 </trkpt>
 <trkpt lat="47.417865" lon="13.382449">
 <ele>800.00</ele>
 <time>2010-05-28T08:12:48Z</time>
 </trkpt>
 <trkpt lat="47.417833" lon="13.382583">
 <ele>800.00</ele>
 <time>2010-05-28T08:12:56Z</time>
 </trkpt>
 <trkpt lat="47.417792" lon="13.382816">
 <ele>800.00</ele>
 <time>2010-05-28T08:13:03Z</time>
 </trkpt>
 <trkpt lat="47.417693" lon="13.382968">
 <ele>800.00</ele>
 <time>2010-05-28T08:13:08Z</time>
 </trkpt>
 <trkpt lat="47.417595" lon="13.383187">
 <ele>800.00</ele>
 <time>2010-05-28T08:13:15Z</time>
 </trkpt>
 <trkpt lat="47.417496" lon="13.383355">
 <ele>800.45</ele>
 <time>2010-05-28T08:13:22Z</time>
 </trkpt>
 <trkpt lat="47.417432" lon="13.383656">
 <ele>800.25</ele>
 <time>2010-05-28T08:13:29Z</time>
 </trkpt>
 <trkpt lat="47.417217" lon="13.384282">
 <ele>794.51</ele>
 <time>2010-05-28T08:13:34Z</time>
 </trkpt>
 <trkpt lat="47.417263" lon="13.384621">
 <ele>795.30</ele>
 <time>2010-05-28T08:13:41Z</time>
 </trkpt>
 <trkpt lat="47.417305" lon="13.384915">
 <ele>795.95</ele>
 <time>2010-05-28T08:13:47Z</time>
 </trkpt>
 <trkpt lat="47.417412" lon="13.385467">
 <ele>796.62</ele>
 <time>2010-05-28T08:13:58Z</time>
 </trkpt>
 <trkpt lat="47.417545" lon="13.385854">
 <ele>797.20</ele>
 <time>2010-05-28T08:14:06Z</time>
 </trkpt>
 <trkpt lat="47.417622" lon="13.386123">
 <ele>798.01</ele>
 <time>2010-05-28T08:14:12Z</time>
 </trkpt>
 <trkpt lat="47.417645" lon="13.386388">
 <ele>799.21</ele>
 <time>2010-05-28T08:14:18Z</time>
 </trkpt>
 <trkpt lat="47.417686" lon="13.386597">
 <ele>800.36</ele>
 <time>2010-05-28T08:14:24Z</time>
 </trkpt>
 <trkpt lat="47.417713" lon="13.386662">
 <ele>800.65</ele>
 <time>2010-05-28T08:14:27Z</time>
 </trkpt>
 <trkpt lat="47.417698" lon="13.386829">
 <ele>801.73</ele>
 <time>2010-05-28T08:14:33Z</time>
 </trkpt>
 <trkpt lat="47.417671" lon="13.386885">
 <ele>802.37</ele>
 <time>2010-05-28T08:14:37Z</time>
 </trkpt>
 <trkpt lat="47.417774" lon="13.386988">
 <ele>803.04</ele>
 <time>2010-05-28T08:14:41Z</time>
 </trkpt>
 <trkpt lat="47.417805" lon="13.387019">
 <ele>803.11</ele>
 <time>2010-05-28T08:14:42Z</time>
 </trkpt>
 <trkpt lat="47.418030" lon="13.387309">
 <ele>803.03</ele>
 <time>2010-05-28T08:14:48Z</time>
 </trkpt>
 <trkpt lat="47.418110" lon="13.387585">
 <ele>802.79</ele>
 <time>2010-05-28T08:14:53Z</time>
 </trkpt>
 <trkpt lat="47.418175" lon="13.387859">
 <ele>803.03</ele>
 <time>2010-05-28T08:14:59Z</time>
 </trkpt>
 <trkpt lat="47.418217" lon="13.388000">
 <ele>803.19</ele>
 <time>2010-05-28T08:15:03Z</time>
 </trkpt>
 <trkpt lat="47.418240" lon="13.388172">
 <ele>802.91</ele>
 <time>2010-05-28T08:15:06Z</time>
 </trkpt>
 <trkpt lat="47.418312" lon="13.388566">
 <ele>802.53</ele>
 <time>2010-05-28T08:15:12Z</time>
 </trkpt>
 <trkpt lat="47.418308" lon="13.389067">
 <ele>802.66</ele>
 <time>2010-05-28T08:15:20Z</time>
 </trkpt>
 <trkpt lat="47.418285" lon="13.389399">
 <ele>803.46</ele>
 <time>2010-05-28T08:15:26Z</time>
 </trkpt>
 <trkpt lat="47.418152" lon="13.389749">
 <ele>803.91</ele>
 <time>2010-05-28T08:15:32Z</time>
 </trkpt>
 <trkpt lat="47.417980" lon="13.390186">
 <ele>804.69</ele>
 <time>2010-05-28T08:15:40Z</time>
 </trkpt>
 <trkpt lat="47.417828" lon="13.390515">
 <ele>805.32</ele>
 <time>2010-05-28T08:15:47Z</time>
 </trkpt>
 <trkpt lat="47.417721" lon="13.390869">
 <ele>805.89</ele>
 <time>2010-05-28T08:15:54Z</time>
 </trkpt>
 <trkpt lat="47.417686" lon="13.391225">
 <ele>806.66</ele>
 <time>2010-05-28T08:16:01Z</time>
 </trkpt>
 <trkpt lat="47.417667" lon="13.391483">
 <ele>807.17</ele>
 <time>2010-05-28T08:16:06Z</time>
 </trkpt>
 <trkpt lat="47.417645" lon="13.391825">
 <ele>807.60</ele>
 <time>2010-05-28T08:16:12Z</time>
 </trkpt>
 <trkpt lat="47.417633" lon="13.392123">
 <ele>807.96</ele>
 <time>2010-05-28T08:16:17Z</time>
 </trkpt>
 <trkpt lat="47.417652" lon="13.392473">
 <ele>808.23</ele>
 <time>2010-05-28T08:16:23Z</time>
 </trkpt>
 <trkpt lat="47.417740" lon="13.392797">
 <ele>808.55</ele>
 <time>2010-05-28T08:16:29Z</time>
 </trkpt>
 <trkpt lat="47.417889" lon="13.393138">
 <ele>809.14</ele>
 <time>2010-05-28T08:16:36Z</time>
 </trkpt>
 <trkpt lat="47.418072" lon="13.393533">
 <ele>809.93</ele>
 <time>2010-05-28T08:16:44Z</time>
 </trkpt>
 <trkpt lat="47.418221" lon="13.393786">
 <ele>810.13</ele>
 <time>2010-05-28T08:16:50Z</time>
 </trkpt>
 <trkpt lat="47.418346" lon="13.394162">
 <ele>811.56</ele>
 <time>2010-05-28T08:16:58Z</time>
 </trkpt>
 <trkpt lat="47.418480" lon="13.394516">
 <ele>811.99</ele>
 <time>2010-05-28T08:17:06Z</time>
 </trkpt>
 <trkpt lat="47.418591" lon="13.394730">
 <ele>812.37</ele>
 <time>2010-05-28T08:17:11Z</time>
 </trkpt>
 <trkpt lat="47.418800" lon="13.395064">
 <ele>813.03</ele>
 <time>2010-05-28T08:17:19Z</time>
 </trkpt>
 <trkpt lat="47.418980" lon="13.395323">
 <ele>813.90</ele>
 <time>2010-05-28T08:17:26Z</time>
 </trkpt>
 <trkpt lat="47.419113" lon="13.395512">
 <ele>814.11</ele>
 <time>2010-05-28T08:17:31Z</time>
 </trkpt>
 <trkpt lat="47.419292" lon="13.395744">
 <ele>814.12</ele>
 <time>2010-05-28T08:17:37Z</time>
 </trkpt>
 <trkpt lat="47.419415" lon="13.396043">
 <ele>814.27</ele>
 <time>2010-05-28T08:17:43Z</time>
 </trkpt>
 <trkpt lat="47.419506" lon="13.396477">
 <ele>814.41</ele>
 <time>2010-05-28T08:17:51Z</time>
 </trkpt>
 <trkpt lat="47.419533" lon="13.396786">
 <ele>815.45</ele>
 <time>2010-05-28T08:17:58Z</time>
 </trkpt>
 <trkpt lat="47.419575" lon="13.396997">
 <ele>815.78</ele>
 <time>2010-05-28T08:18:03Z</time>
 </trkpt>
 <trkpt lat="47.419601" lon="13.397298">
 <ele>815.94</ele>
 <time>2010-05-28T08:18:09Z</time>
 </trkpt>
 <trkpt lat="47.419205" lon="13.398450">
 <ele>816.06</ele>
 <time>2010-05-28T08:18:15Z</time>
 </trkpt>
 <trkpt lat="47.419369" lon="13.398725">
 <ele>816.91</ele>
 <time>2010-05-28T08:18:27Z</time>
 </trkpt>
 <trkpt lat="47.419479" lon="13.398904">
 <ele>817.79</ele>
 <time>2010-05-28T08:18:34Z</time>
 </trkpt>
 <trkpt lat="47.419498" lon="13.398940">
 <ele>819.07</ele>
 <time>2010-05-28T08:18:40Z</time>
 </trkpt>
 <trkpt lat="47.419556" lon="13.398882">
 <ele>818.99</ele>
 <time>2010-05-28T08:18:42Z</time>
 </trkpt>
 <trkpt lat="47.419590" lon="13.399089">
 <ele>819.10</ele>
 <time>2010-05-28T08:18:47Z</time>
 </trkpt>
 <trkpt lat="47.419727" lon="13.399391">
 <ele>818.92</ele>
 <time>2010-05-28T08:18:53Z</time>
 </trkpt>
 <trkpt lat="47.419926" lon="13.399871">
 <ele>819.75</ele>
 <time>2010-05-28T08:19:03Z</time>
 </trkpt>
 <trkpt lat="47.420025" lon="13.400132">
 <ele>820.80</ele>
 <time>2010-05-28T08:19:08Z</time>
 </trkpt>
 <trkpt lat="47.420128" lon="13.400656">
 <ele>821.40</ele>
 <time>2010-05-28T08:19:18Z</time>
 </trkpt>
 <trkpt lat="47.420254" lon="13.401192">
 <ele>822.15</ele>
 <time>2010-05-28T08:19:28Z</time>
 </trkpt>
 <trkpt lat="47.420433" lon="13.401858">
 <ele>823.51</ele>
 <time>2010-05-28T08:19:40Z</time>
 </trkpt>
 <trkpt lat="47.420570" lon="13.402590">
 <ele>824.77</ele>
 <time>2010-05-28T08:19:53Z</time>
 </trkpt>
 <trkpt lat="47.420692" lon="13.403129">
 <ele>825.90</ele>
 <time>2010-05-28T08:20:03Z</time>
 </trkpt>
 <trkpt lat="47.420883" lon="13.403553">
 <ele>826.45</ele>
 <time>2010-05-28T08:20:12Z</time>
 </trkpt>
 <trkpt lat="47.421146" lon="13.404137">
 <ele>827.48</ele>
 <time>2010-05-28T08:20:24Z</time>
 </trkpt>
 <trkpt lat="47.421383" lon="13.404541">
 <ele>828.42</ele>
 <time>2010-05-28T08:20:33Z</time>
 </trkpt>
 <trkpt lat="47.421604" lon="13.404962">
 <ele>829.32</ele>
 <time>2010-05-28T08:20:42Z</time>
 </trkpt>
 <trkpt lat="47.421852" lon="13.405522">
 <ele>829.71</ele>
 <time>2010-05-28T08:20:53Z</time>
 </trkpt>
 <trkpt lat="47.421917" lon="13.405681">
 <ele>830.10</ele>
 <time>2010-05-28T08:20:56Z</time>
 </trkpt>
 <trkpt lat="47.421955" lon="13.405784">
 <ele>830.43</ele>
 <time>2010-05-28T08:20:58Z</time>
 </trkpt>
 <trkpt lat="47.422020" lon="13.405946">
 <ele>830.59</ele>
 <time>2010-05-28T08:21:01Z</time>
 </trkpt>
 <trkpt lat="47.422207" lon="13.406428">
 <ele>831.42</ele>
 <time>2010-05-28T08:21:10Z</time>
 </trkpt>
 <trkpt lat="47.422318" lon="13.406742">
 <ele>831.88</ele>
 <time>2010-05-28T08:21:16Z</time>
 </trkpt>
 <trkpt lat="47.422482" lon="13.407221">
 <ele>832.70</ele>
 <time>2010-05-28T08:21:25Z</time>
 </trkpt>
 <trkpt lat="47.422623" lon="13.407639">
 <ele>833.20</ele>
 <time>2010-05-28T08:21:33Z</time>
 </trkpt>
 <trkpt lat="47.422848" lon="13.408213">
 <ele>834.08</ele>
 <time>2010-05-28T08:21:44Z</time>
 </trkpt>
 <trkpt lat="47.423126" lon="13.408912">
 <ele>834.65</ele>
 <time>2010-05-28T08:21:57Z</time>
 </trkpt>
 <trkpt lat="47.423344" lon="13.409443">
 <ele>835.59</ele>
 <time>2010-05-28T08:22:07Z</time>
 </trkpt>
 <trkpt lat="47.423573" lon="13.410099">
 <ele>836.29</ele>
 <time>2010-05-28T08:22:19Z</time>
 </trkpt>
 <trkpt lat="47.423664" lon="13.410411">
 <ele>837.41</ele>
 <time>2010-05-28T08:22:25Z</time>
 </trkpt>
 <trkpt lat="47.423809" lon="13.410927">
 <ele>838.54</ele>
 <time>2010-05-28T08:22:35Z</time>
 </trkpt>
 <trkpt lat="47.423954" lon="13.411426">
 <ele>839.75</ele>
 <time>2010-05-28T08:22:45Z</time>
 </trkpt>
 <trkpt lat="47.424023" lon="13.411716">
 <ele>840.41</ele>
 <time>2010-05-28T08:22:51Z</time>
 </trkpt>
 <trkpt lat="47.424065" lon="13.412031">
 <ele>841.20</ele>
 <time>2010-05-28T08:22:57Z</time>
 </trkpt>
 <trkpt lat="47.424110" lon="13.412356">
 <ele>841.81</ele>
 <time>2010-05-28T08:23:03Z</time>
 </trkpt>
 <trkpt lat="47.424168" lon="13.412739">
 <ele>842.50</ele>
 <time>2010-05-28T08:23:10Z</time>
 </trkpt>
 <trkpt lat="47.424252" lon="13.413348">
 <ele>843.36</ele>
 <time>2010-05-28T08:23:21Z</time>
 </trkpt>
 <trkpt lat="47.424320" lon="13.413848">
 <ele>844.28</ele>
 <time>2010-05-28T08:23:30Z</time>
 </trkpt>
 <trkpt lat="47.424446" lon="13.414437">
 <ele>845.80</ele>
 <time>2010-05-28T08:23:41Z</time>
 </trkpt>
 <trkpt lat="47.424545" lon="13.414861">
 <ele>846.62</ele>
 <time>2010-05-28T08:23:49Z</time>
 </trkpt>
 <trkpt lat="47.424725" lon="13.415310">
 <ele>847.42</ele>
 <time>2010-05-28T08:23:58Z</time>
 </trkpt>
 <trkpt lat="47.424934" lon="13.415742">
 <ele>848.19</ele>
 <time>2010-05-28T08:24:07Z</time>
 </trkpt>
 <trkpt lat="47.425171" lon="13.416159">
 <ele>848.64</ele>
 <time>2010-05-28T08:24:16Z</time>
 </trkpt>
 <trkpt lat="47.425491" lon="13.416583">
 <ele>849.36</ele>
 <time>2010-05-28T08:24:26Z</time>
 </trkpt>
 <trkpt lat="47.425743" lon="13.416901">
 <ele>849.70</ele>
 <time>2010-05-28T08:24:34Z</time>
 </trkpt>
 <trkpt lat="47.425880" lon="13.417158">
 <ele>849.93</ele>
 <time>2010-05-28T08:24:39Z</time>
 </trkpt>
 <trkpt lat="47.425999" lon="13.417638">
 <ele>850.46</ele>
 <time>2010-05-28T08:24:47Z</time>
 </trkpt>
 <trkpt lat="47.426075" lon="13.418127">
 <ele>850.92</ele>
 <time>2010-05-28T08:24:55Z</time>
 </trkpt>
 <trkpt lat="47.426121" lon="13.418737">
 <ele>852.05</ele>
 <time>2010-05-28T08:25:05Z</time>
 </trkpt>
 <trkpt lat="47.426159" lon="13.419406">
 <ele>853.08</ele>
 <time>2010-05-28T08:25:16Z</time>
 </trkpt>
 <trkpt lat="47.426231" lon="13.419994">
 <ele>854.13</ele>
 <time>2010-05-28T08:25:26Z</time>
 </trkpt>
 <trkpt lat="47.426296" lon="13.420579">
 <ele>855.57</ele>
 <time>2010-05-28T08:25:36Z</time>
 </trkpt>
 <trkpt lat="47.426311" lon="13.420813">
 <ele>855.72</ele>
 <time>2010-05-28T08:25:40Z</time>
 </trkpt>
 <trkpt lat="47.426346" lon="13.421273">
 <ele>856.65</ele>
 <time>2010-05-28T08:25:48Z</time>
 </trkpt>
 <trkpt lat="47.426353" lon="13.421388">
 <ele>856.97</ele>
 <time>2010-05-28T08:25:50Z</time>
 </trkpt>
 <trkpt lat="47.426369" lon="13.421564">
 <ele>857.40</ele>
 <time>2010-05-28T08:25:53Z</time>
 </trkpt>
 <trkpt lat="47.426392" lon="13.421921">
 <ele>857.78</ele>
 <time>2010-05-28T08:25:59Z</time>
 </trkpt>
 <trkpt lat="47.426411" lon="13.422165">
 <ele>857.98</ele>
 <time>2010-05-28T08:26:03Z</time>
 </trkpt>
 <trkpt lat="47.426495" lon="13.422573">
 <ele>858.31</ele>
 <time>2010-05-28T08:26:10Z</time>
 </trkpt>
 <trkpt lat="47.426632" lon="13.422977">
 <ele>859.07</ele>
 <time>2010-05-28T08:26:17Z</time>
 </trkpt>
 <trkpt lat="47.426670" lon="13.423165">
 <ele>859.38</ele>
 <time>2010-05-28T08:26:20Z</time>
 </trkpt>
 <trkpt lat="47.426743" lon="13.423521">
 <ele>860.14</ele>
 <time>2010-05-28T08:26:26Z</time>
 </trkpt>
 <trkpt lat="47.426861" lon="13.424088">
 <ele>861.43</ele>
 <time>2010-05-28T08:26:36Z</time>
 </trkpt>
 <trkpt lat="47.426956" lon="13.424557">
 <ele>862.45</ele>
 <time>2010-05-28T08:26:44Z</time>
 </trkpt>
 <trkpt lat="47.427032" lon="13.424908">
 <ele>862.71</ele>
 <time>2010-05-28T08:26:50Z</time>
 </trkpt>
 <trkpt lat="47.427097" lon="13.425545">
 <ele>864.12</ele>
 <time>2010-05-28T08:27:01Z</time>
 </trkpt>
 <trkpt lat="47.427147" lon="13.426021">
 <ele>864.93</ele>
 <time>2010-05-28T08:27:09Z</time>
 </trkpt>
 <trkpt lat="47.427216" lon="13.426663">
 <ele>866.42</ele>
 <time>2010-05-28T08:27:20Z</time>
 </trkpt>
 <trkpt lat="47.427292" lon="13.427172">
 <ele>867.05</ele>
 <time>2010-05-28T08:27:29Z</time>
 </trkpt>
 <trkpt lat="47.427418" lon="13.427665">
 <ele>868.17</ele>
 <time>2010-05-28T08:27:38Z</time>
 </trkpt>
 <trkpt lat="47.427601" lon="13.428251">
 <ele>869.26</ele>
 <time>2010-05-28T08:27:49Z</time>
 </trkpt>
 <trkpt lat="47.427792" lon="13.428833">
 <ele>870.53</ele>
 <time>2010-05-28T08:28:00Z</time>
 </trkpt>
 <trkpt lat="47.427967" lon="13.429367">
 <ele>871.26</ele>
 <time>2010-05-28T08:28:10Z</time>
 </trkpt>
 <trkpt lat="47.428123" lon="13.429999">
 <ele>872.60</ele>
 <time>2010-05-28T08:28:21Z</time>
 </trkpt>
 <trkpt lat="47.428246" lon="13.430496">
 <ele>873.51</ele>
 <time>2010-05-28T08:28:30Z</time>
 </trkpt>
 <trkpt lat="47.428303" lon="13.430862">
 <ele>874.08</ele>
 <time>2010-05-28T08:28:36Z</time>
 </trkpt>
 <trkpt lat="47.428368" lon="13.431458">
 <ele>875.16</ele>
 <time>2010-05-28T08:28:46Z</time>
 </trkpt>
 <trkpt lat="47.428436" lon="13.432106">
 <ele>876.32</ele>
 <time>2010-05-28T08:28:57Z</time>
 </trkpt>
 <trkpt lat="47.428490" lon="13.432643">
 <ele>877.14</ele>
 <time>2010-05-28T08:29:06Z</time>
 </trkpt>
 <trkpt lat="47.428547" lon="13.433368">
 <ele>878.35</ele>
 <time>2010-05-28T08:29:18Z</time>
 </trkpt>
 <trkpt lat="47.428596" lon="13.433960">
 <ele>879.14</ele>
 <time>2010-05-28T08:29:28Z</time>
 </trkpt>
 <trkpt lat="47.428616" lon="13.434620">
 <ele>880.08</ele>
 <time>2010-05-28T08:29:39Z</time>
 </trkpt>
 <trkpt lat="47.428600" lon="13.435240">
 <ele>881.10</ele>
 <time>2010-05-28T08:29:49Z</time>
 </trkpt>
 <trkpt lat="47.428585" lon="13.435848">
 <ele>882.28</ele>
 <time>2010-05-28T08:29:59Z</time>
 </trkpt>
 <trkpt lat="47.428574" lon="13.436333">
 <ele>883.08</ele>
 <time>2010-05-28T08:30:07Z</time>
 </trkpt>
 <trkpt lat="47.428558" lon="13.436956">
 <ele>884.20</ele>
 <time>2010-05-28T08:30:17Z</time>
 </trkpt>
 <trkpt lat="47.428539" lon="13.437747">
 <ele>885.41</ele>
 <time>2010-05-28T08:30:30Z</time>
 </trkpt>
 <trkpt lat="47.428520" lon="13.438423">
 <ele>886.44</ele>
 <time>2010-05-28T08:30:41Z</time>
 </trkpt>
 <trkpt lat="47.428505" lon="13.439031">
 <ele>887.79</ele>
 <time>2010-05-28T08:30:51Z</time>
 </trkpt>
 <trkpt lat="47.428501" lon="13.439581">
 <ele>888.73</ele>
 <time>2010-05-28T08:31:00Z</time>
 </trkpt>
 <trkpt lat="47.428581" lon="13.440174">
 <ele>889.59</ele>
 <time>2010-05-28T08:31:10Z</time>
 </trkpt>
 <trkpt lat="47.428734" lon="13.440792">
 <ele>890.50</ele>
 <time>2010-05-28T08:31:21Z</time>
 </trkpt>
 <trkpt lat="47.428940" lon="13.441380">
 <ele>891.84</ele>
 <time>2010-05-28T08:31:32Z</time>
 </trkpt>
 <trkpt lat="47.429108" lon="13.441866">
 <ele>892.41</ele>
 <time>2010-05-28T08:31:41Z</time>
 </trkpt>
 <trkpt lat="47.429153" lon="13.442091">
 <ele>892.86</ele>
 <time>2010-05-28T08:31:45Z</time>
 </trkpt>
 <trkpt lat="47.429230" lon="13.442536">
 <ele>893.64</ele>
 <time>2010-05-28T08:31:53Z</time>
 </trkpt>
 <trkpt lat="47.429230" lon="13.442946">
 <ele>894.19</ele>
 <time>2010-05-28T08:32:00Z</time>
 </trkpt>
 <trkpt lat="47.429085" lon="13.443381">
 <ele>895.36</ele>
 <time>2010-05-28T08:32:09Z</time>
 </trkpt>
 <trkpt lat="47.428978" lon="13.443835">
 <ele>896.37</ele>
 <time>2010-05-28T08:32:17Z</time>
 </trkpt>
 <trkpt lat="47.428955" lon="13.444289">
 <ele>897.25</ele>
 <time>2010-05-28T08:32:25Z</time>
 </trkpt>
 <trkpt lat="47.428993" lon="13.444892">
 <ele>898.38</ele>
 <time>2010-05-28T08:32:35Z</time>
 </trkpt>
 <trkpt lat="47.429054" lon="13.445602">
 <ele>899.31</ele>
 <time>2010-05-28T08:32:47Z</time>
 </trkpt>
 <trkpt lat="47.429111" lon="13.446294">
 <ele>901.08</ele>
 <time>2010-05-28T08:32:59Z</time>
 </trkpt>
 <trkpt lat="47.429173" lon="13.446924">
 <ele>902.16</ele>
 <time>2010-05-28T08:33:10Z</time>
 </trkpt>
 <trkpt lat="47.429291" lon="13.447416">
 <ele>903.46</ele>
 <time>2010-05-28T08:33:19Z</time>
 </trkpt>
 <trkpt lat="47.429455" lon="13.447878">
 <ele>904.49</ele>
 <time>2010-05-28T08:33:28Z</time>
 </trkpt>
 <trkpt lat="47.429665" lon="13.448382">
 <ele>905.14</ele>
 <time>2010-05-28T08:33:38Z</time>
 </trkpt>
 <trkpt lat="47.429897" lon="13.448945">
 <ele>906.44</ele>
 <time>2010-05-28T08:33:49Z</time>
 </trkpt>
 <trkpt lat="47.430035" lon="13.449305">
 <ele>907.23</ele>
 <time>2010-05-28T08:33:56Z</time>
 </trkpt>
 <trkpt lat="47.430134" lon="13.449738">
 <ele>908.28</ele>
 <time>2010-05-28T08:34:04Z</time>
 </trkpt>
 <trkpt lat="47.430218" lon="13.450285">
 <ele>909.41</ele>
 <time>2010-05-28T08:34:14Z</time>
 </trkpt>
 <trkpt lat="47.430351" lon="13.450926">
 <ele>910.95</ele>
 <time>2010-05-28T08:34:26Z</time>
 </trkpt>
 <trkpt lat="47.430443" lon="13.451246">
 <ele>911.43</ele>
 <time>2010-05-28T08:34:32Z</time>
 </trkpt>
 <trkpt lat="47.430553" lon="13.451630">
 <ele>911.83</ele>
 <time>2010-05-28T08:34:39Z</time>
 </trkpt>
 <trkpt lat="47.430672" lon="13.452043">
 <ele>913.21</ele>
 <time>2010-05-28T08:34:47Z</time>
 </trkpt>
 <trkpt lat="47.430786" lon="13.452510">
 <ele>913.79</ele>
 <time>2010-05-28T08:34:56Z</time>
 </trkpt>
 <trkpt lat="47.430901" lon="13.453071">
 <ele>915.58</ele>
 <time>2010-05-28T08:35:07Z</time>
 </trkpt>
 <trkpt lat="47.430992" lon="13.453536">
 <ele>916.25</ele>
 <time>2010-05-28T08:35:16Z</time>
 </trkpt>
 <trkpt lat="47.431099" lon="13.454007">
 <ele>917.32</ele>
 <time>2010-05-28T08:35:25Z</time>
 </trkpt>
 <trkpt lat="47.431274" lon="13.454559">
 <ele>918.65</ele>
 <time>2010-05-28T08:35:36Z</time>
 </trkpt>
 <trkpt lat="47.431419" lon="13.455116">
 <ele>919.33</ele>
 <time>2010-05-28T08:35:47Z</time>
 </trkpt>
 <trkpt lat="47.431480" lon="13.455550">
 <ele>920.45</ele>
 <time>2010-05-28T08:35:55Z</time>
 </trkpt>
 <trkpt lat="47.431564" lon="13.456128">
 <ele>921.77</ele>
 <time>2010-05-28T08:36:06Z</time>
 </trkpt>
 <trkpt lat="47.431664" lon="13.456802">
 <ele>923.83</ele>
 <time>2010-05-28T08:36:19Z</time>
 </trkpt>
 <trkpt lat="47.431740" lon="13.457299">
 <ele>925.79</ele>
 <time>2010-05-28T08:36:29Z</time>
 </trkpt>
 <trkpt lat="47.431923" lon="13.457659">
 <ele>926.94</ele>
 <time>2010-05-28T08:36:38Z</time>
 </trkpt>
 <trkpt lat="47.432152" lon="13.458009">
 <ele>928.56</ele>
 <time>2010-05-28T08:36:47Z</time>
 </trkpt>
 <trkpt lat="47.432457" lon="13.458468">
 <ele>929.27</ele>
 <time>2010-05-28T08:36:59Z</time>
 </trkpt>
 <trkpt lat="47.432678" lon="13.458827">
 <ele>930.59</ele>
 <time>2010-05-28T08:37:08Z</time>
 </trkpt>
 <trkpt lat="47.432865" lon="13.459405">
 <ele>931.88</ele>
 <time>2010-05-28T08:37:20Z</time>
 </trkpt>
 <trkpt lat="47.433048" lon="13.460003">
 <ele>933.36</ele>
 <time>2010-05-28T08:37:32Z</time>
 </trkpt>
 <trkpt lat="47.433228" lon="13.460584">
 <ele>934.87</ele>
 <time>2010-05-28T08:37:44Z</time>
 </trkpt>
 <trkpt lat="47.433311" lon="13.461040">
 <ele>936.23</ele>
 <time>2010-05-28T08:37:53Z</time>
 </trkpt>
 <trkpt lat="47.433342" lon="13.461496">
 <ele>938.31</ele>
 <time>2010-05-28T08:38:02Z</time>
 </trkpt>
 <trkpt lat="47.433361" lon="13.461873">
 <ele>939.39</ele>
 <time>2010-05-28T08:38:09Z</time>
 </trkpt>
 <trkpt lat="47.433506" lon="13.462289">
 <ele>940.75</ele>
 <time>2010-05-28T08:38:17Z</time>
 </trkpt>
 <trkpt lat="47.433678" lon="13.462674">
 <ele>941.35</ele>
 <time>2010-05-28T08:38:25Z</time>
 </trkpt>
 <trkpt lat="47.433865" lon="13.463185">
 <ele>941.80</ele>
 <time>2010-05-28T08:38:35Z</time>
 </trkpt>
 <trkpt lat="47.433998" lon="13.463582">
 <ele>942.45</ele>
 <time>2010-05-28T08:38:43Z</time>
 </trkpt>
 <trkpt lat="47.434048" lon="13.463989">
 <ele>942.86</ele>
 <time>2010-05-28T08:38:50Z</time>
 </trkpt>
 <trkpt lat="47.434101" lon="13.464500">
 <ele>944.33</ele>
 <time>2010-05-28T08:38:59Z</time>
 </trkpt>
 <trkpt lat="47.434151" lon="13.464873">
 <ele>945.08</ele>
 <time>2010-05-28T08:39:06Z</time>
 </trkpt>
 <trkpt lat="47.434361" lon="13.465173">
 <ele>945.75</ele>
 <time>2010-05-28T08:39:14Z</time>
 </trkpt>
 <trkpt lat="47.434616" lon="13.465505">
 <ele>947.05</ele>
 <time>2010-05-28T08:39:23Z</time>
 </trkpt>
 <trkpt lat="47.434757" lon="13.465769">
 <ele>947.17</ele>
 <time>2010-05-28T08:39:29Z</time>
 </trkpt>
 <trkpt lat="47.434872" lon="13.466173">
 <ele>948.49</ele>
 <time>2010-05-28T08:39:37Z</time>
 </trkpt>
 <trkpt lat="47.434948" lon="13.466580">
 <ele>949.55</ele>
 <time>2010-05-28T08:39:45Z</time>
 </trkpt>
 <trkpt lat="47.435150" lon="13.466949">
 <ele>950.17</ele>
 <time>2010-05-28T08:39:54Z</time>
 </trkpt>
 <trkpt lat="47.435345" lon="13.467286">
 <ele>951.00</ele>
 <time>2010-05-28T08:40:03Z</time>
 </trkpt>
 <trkpt lat="47.435490" lon="13.467692">
 <ele>952.58</ele>
 <time>2010-05-28T08:40:12Z</time>
 </trkpt>
 <trkpt lat="47.435555" lon="13.468197">
 <ele>953.86</ele>
 <time>2010-05-28T08:40:22Z</time>
 </trkpt>
 <trkpt lat="47.435593" lon="13.468490">
 <ele>954.87</ele>
 <time>2010-05-28T08:40:29Z</time>
 </trkpt>
 <trkpt lat="47.435608" lon="13.468620">
 <ele>955.13</ele>
 <time>2010-05-28T08:40:35Z</time>
 </trkpt>
 <trkpt lat="47.435608" lon="13.468620">
 <ele>955.25</ele>
 <time>2010-05-28T08:40:36Z</time>
 </trkpt>
 <trkpt lat="47.435612" lon="13.468639">
 <ele>955.67</ele>
 <time>2010-05-28T08:40:47Z</time>
 </trkpt>
 <trkpt lat="47.435616" lon="13.468666">
 <ele>955.77</ele>
 <time>2010-05-28T08:41:49Z</time>
 </trkpt>
 <trkpt lat="47.435646" lon="13.468907">
 <ele>956.25</ele>
 <time>2010-05-28T08:41:57Z</time>
 </trkpt>
 <trkpt lat="47.435661" lon="13.469310">
 <ele>956.87</ele>
 <time>2010-05-28T08:42:07Z</time>
 </trkpt>
 <trkpt lat="47.435661" lon="13.469616">
 <ele>957.62</ele>
 <time>2010-05-28T08:42:14Z</time>
 </trkpt>
 <trkpt lat="47.435635" lon="13.470091">
 <ele>958.93</ele>
 <time>2010-05-28T08:42:25Z</time>
 </trkpt>
 <trkpt lat="47.435581" lon="13.470523">
 <ele>960.08</ele>
 <time>2010-05-28T08:42:35Z</time>
 </trkpt>
 <trkpt lat="47.435505" lon="13.470797">
 <ele>961.54</ele>
 <time>2010-05-28T08:42:42Z</time>
 </trkpt>
 <trkpt lat="47.435356" lon="13.471157">
 <ele>962.62</ele>
 <time>2010-05-28T08:42:52Z</time>
 </trkpt>
 <trkpt lat="47.435196" lon="13.471556">
 <ele>964.17</ele>
 <time>2010-05-28T08:43:03Z</time>
 </trkpt>
 <trkpt lat="47.435081" lon="13.471893">
 <ele>964.96</ele>
 <time>2010-05-28T08:43:12Z</time>
 </trkpt>
 <trkpt lat="47.435081" lon="13.472298">
 <ele>966.16</ele>
 <time>2010-05-28T08:43:22Z</time>
 </trkpt>
 <trkpt lat="47.435081" lon="13.472627">
 <ele>966.95</ele>
 <time>2010-05-28T08:43:30Z</time>
 </trkpt>
 <trkpt lat="47.435066" lon="13.473046">
 <ele>968.16</ele>
 <time>2010-05-28T08:43:40Z</time>
 </trkpt>
 <trkpt lat="47.435005" lon="13.473422">
 <ele>969.15</ele>
 <time>2010-05-28T08:43:49Z</time>
 </trkpt>
 <trkpt lat="47.434906" lon="13.473845">
 <ele>970.22</ele>
 <time>2010-05-28T08:43:59Z</time>
 </trkpt>
 <trkpt lat="47.434837" lon="13.474132">
 <ele>970.87</ele>
 <time>2010-05-28T08:44:06Z</time>
 </trkpt>
 <trkpt lat="47.434792" lon="13.474457">
 <ele>971.97</ele>
 <time>2010-05-28T08:44:14Z</time>
 </trkpt>
 <trkpt lat="47.434780" lon="13.474862">
 <ele>972.60</ele>
 <time>2010-05-28T08:44:23Z</time>
 </trkpt>
 <trkpt lat="47.434780" lon="13.475265">
 <ele>973.67</ele>
 <time>2010-05-28T08:44:32Z</time>
 </trkpt>
 <trkpt lat="47.434757" lon="13.475665">
 <ele>974.03</ele>
 <time>2010-05-28T08:44:41Z</time>
 </trkpt>
 <trkpt lat="47.434696" lon="13.476050">
 <ele>975.66</ele>
 <time>2010-05-28T08:44:50Z</time>
 </trkpt>
 <trkpt lat="47.434612" lon="13.476482">
 <ele>976.64</ele>
 <time>2010-05-28T08:45:00Z</time>
 </trkpt>
 <trkpt lat="47.434528" lon="13.476913">
 <ele>977.93</ele>
 <time>2010-05-28T08:45:10Z</time>
 </trkpt>
 <trkpt lat="47.434429" lon="13.477438">
 <ele>979.52</ele>
 <time>2010-05-28T08:45:22Z</time>
 </trkpt>
 <trkpt lat="47.434334" lon="13.477936">
 <ele>980.91</ele>
 <time>2010-05-28T08:45:34Z</time>
 </trkpt>
 <trkpt lat="47.434261" lon="13.478468">
 <ele>982.69</ele>
 <time>2010-05-28T08:45:47Z</time>
 </trkpt>
 <trkpt lat="47.434250" lon="13.478842">
 <ele>983.60</ele>
 <time>2010-05-28T08:45:56Z</time>
 </trkpt>
 <trkpt lat="47.434238" lon="13.479286">
 <ele>984.51</ele>
 <time>2010-05-28T08:46:06Z</time>
 </trkpt>
 <trkpt lat="47.434227" lon="13.479626">
 <ele>985.91</ele>
 <time>2010-05-28T08:46:14Z</time>
 </trkpt>
 <trkpt lat="47.434170" lon="13.479993">
 <ele>987.07</ele>
 <time>2010-05-28T08:46:23Z</time>
 </trkpt>
 <trkpt lat="47.434101" lon="13.480276">
 <ele>988.23</ele>
 <time>2010-05-28T08:46:30Z</time>
 </trkpt>
 <trkpt lat="47.434032" lon="13.480578">
 <ele>989.78</ele>
 <time>2010-05-28T08:46:38Z</time>
 </trkpt>
 <trkpt lat="47.433956" lon="13.480909">
 <ele>991.55</ele>
 <time>2010-05-28T08:46:47Z</time>
 </trkpt>
 <trkpt lat="47.433895" lon="13.481274">
 <ele>993.59</ele>
 <time>2010-05-28T08:46:57Z</time>
 </trkpt>
 <trkpt lat="47.433872" lon="13.481568">
 <ele>994.64</ele>
 <time>2010-05-28T08:47:05Z</time>
 </trkpt>
 <trkpt lat="47.433826" lon="13.481870">
 <ele>996.25</ele>
 <time>2010-05-28T08:47:13Z</time>
 </trkpt>
 <trkpt lat="47.433792" lon="13.482082">
 <ele>997.58</ele>
 <time>2010-05-28T08:47:19Z</time>
 </trkpt>
 <trkpt lat="47.433743" lon="13.482377">
 <ele>999.04</ele>
 <time>2010-05-28T08:47:27Z</time>
 </trkpt>
 <trkpt lat="47.433678" lon="13.482799">
 <ele>1001.46</ele>
 <time>2010-05-28T08:47:39Z</time>
 </trkpt>
 <trkpt lat="47.433620" lon="13.483142">
 <ele>1003.34</ele>
 <time>2010-05-28T08:47:50Z</time>
 </trkpt>
 <trkpt lat="47.433563" lon="13.483488">
 <ele>1005.15</ele>
 <time>2010-05-28T08:48:01Z</time>
 </trkpt>
 <trkpt lat="47.433506" lon="13.483742">
 <ele>1006.36</ele>
 <time>2010-05-28T08:48:09Z</time>
 </trkpt>
 <trkpt lat="47.433434" lon="13.484068">
 <ele>1007.83</ele>
 <time>2010-05-28T08:48:19Z</time>
 </trkpt>
 <trkpt lat="47.433334" lon="13.484373">
 <ele>1009.00</ele>
 <time>2010-05-28T08:48:29Z</time>
 </trkpt>
 <trkpt lat="47.433235" lon="13.484673">
 <ele>1010.29</ele>
 <time>2010-05-28T08:48:39Z</time>
 </trkpt>
 <trkpt lat="47.433155" lon="13.485060">
 <ele>1012.16</ele>
 <time>2010-05-28T08:48:51Z</time>
 </trkpt>
 <trkpt lat="47.433083" lon="13.485521">
 <ele>1014.40</ele>
 <time>2010-05-28T08:49:05Z</time>
 </trkpt>
 <trkpt lat="47.433075" lon="13.485899">
 <ele>1015.73</ele>
 <time>2010-05-28T08:49:16Z</time>
 </trkpt>
 <trkpt lat="47.433067" lon="13.486261">
 <ele>1017.54</ele>
 <time>2010-05-28T08:49:27Z</time>
 </trkpt>
 <trkpt lat="47.433060" lon="13.486659">
 <ele>1019.48</ele>
 <time>2010-05-28T08:49:39Z</time>
 </trkpt>
 <trkpt lat="47.433048" lon="13.487137">
 <ele>1021.28</ele>
 <time>2010-05-28T08:49:53Z</time>
 </trkpt>
 <trkpt lat="47.433033" lon="13.487528">
 <ele>1023.42</ele>
 <time>2010-05-28T08:50:04Z</time>
 </trkpt>
 <trkpt lat="47.433002" lon="13.487834">
 <ele>1025.07</ele>
 <time>2010-05-28T08:50:13Z</time>
 </trkpt>
 <trkpt lat="47.432972" lon="13.488168">
 <ele>1026.87</ele>
 <time>2010-05-28T08:50:23Z</time>
 </trkpt>
 <trkpt lat="47.432945" lon="13.488463">
 <ele>1028.59</ele>
 <time>2010-05-28T08:50:32Z</time>
 </trkpt>
 <trkpt lat="47.432922" lon="13.488690">
 <ele>1029.86</ele>
 <time>2010-05-28T08:50:39Z</time>
 </trkpt>
 <trkpt lat="47.432892" lon="13.489024">
 <ele>1031.53</ele>
 <time>2010-05-28T08:50:49Z</time>
 </trkpt>
 <trkpt lat="47.432861" lon="13.489321">
 <ele>1033.09</ele>
 <time>2010-05-28T08:50:58Z</time>
 </trkpt>
 <trkpt lat="47.432835" lon="13.489612">
 <ele>1034.80</ele>
 <time>2010-05-28T08:51:07Z</time>
 </trkpt>
 <trkpt lat="47.432804" lon="13.489941">
 <ele>1036.40</ele>
 <time>2010-05-28T08:51:17Z</time>
 </trkpt>
 <trkpt lat="47.432781" lon="13.490185">
 <ele>1037.69</ele>
 <time>2010-05-28T08:51:24Z</time>
 </trkpt>
 <trkpt lat="47.432766" lon="13.490502">
 <ele>1039.59</ele>
 <time>2010-05-28T08:51:33Z</time>
 </trkpt>
 <trkpt lat="47.432747" lon="13.490857">
 <ele>1041.17</ele>
 <time>2010-05-28T08:51:43Z</time>
 </trkpt>
 <trkpt lat="47.432728" lon="13.491236">
 <ele>1042.66</ele>
 <time>2010-05-28T08:51:53Z</time>
 </trkpt>
 <trkpt lat="47.432713" lon="13.491534">
 <ele>1043.64</ele>
 <time>2010-05-28T08:52:01Z</time>
 </trkpt>
 <trkpt lat="47.432705" lon="13.491941">
 <ele>1044.75</ele>
 <time>2010-05-28T08:52:11Z</time>
 </trkpt>
 <trkpt lat="47.432713" lon="13.492306">
 <ele>1045.32</ele>
 <time>2010-05-28T08:52:19Z</time>
 </trkpt>
 <trkpt lat="47.432747" lon="13.492723">
 <ele>1045.37</ele>
 <time>2010-05-28T08:52:27Z</time>
 </trkpt>
 <trkpt lat="47.432812" lon="13.493155">
 <ele>1045.27</ele>
 <time>2010-05-28T08:52:34Z</time>
 </trkpt>
 <trkpt lat="47.432850" lon="13.493404">
 <ele>1045.31</ele>
 <time>2010-05-28T08:52:38Z</time>
 </trkpt>
 <trkpt lat="47.432953" lon="13.494087">
 <ele>1044.46</ele>
 <time>2010-05-28T08:52:48Z</time>
 </trkpt>
 <trkpt lat="47.433037" lon="13.494653">
 <ele>1044.43</ele>
 <time>2010-05-28T08:52:56Z</time>
 </trkpt>
 <trkpt lat="47.433121" lon="13.495212">
 <ele>1045.64</ele>
 <time>2010-05-28T08:53:05Z</time>
 </trkpt>
 <trkpt lat="47.433212" lon="13.495828">
 <ele>1047.07</ele>
 <time>2010-05-28T08:53:16Z</time>
 </trkpt>
 <trkpt lat="47.433277" lon="13.496247">
 <ele>1048.50</ele>
 <time>2010-05-28T08:53:24Z</time>
 </trkpt>
 <trkpt lat="47.433331" lon="13.496603">
 <ele>1049.51</ele>
 <time>2010-05-28T08:53:31Z</time>
 </trkpt>
 <trkpt lat="47.433399" lon="13.497063">
 <ele>1050.37</ele>
 <time>2010-05-28T08:53:40Z</time>
 </trkpt>
 <trkpt lat="47.433479" lon="13.497606">
 <ele>1051.97</ele>
 <time>2010-05-28T08:53:51Z</time>
 </trkpt>
 <trkpt lat="47.433544" lon="13.498029">
 <ele>1053.22</ele>
 <time>2010-05-28T08:54:00Z</time>
 </trkpt>
 <trkpt lat="47.433613" lon="13.498471">
 <ele>1054.35</ele>
 <time>2010-05-28T08:54:09Z</time>
 </trkpt>
 <trkpt lat="47.433674" lon="13.498892">
 <ele>1055.49</ele>
 <time>2010-05-28T08:54:18Z</time>
 </trkpt>
 <trkpt lat="47.433754" lon="13.499413">
 <ele>1056.78</ele>
 <time>2010-05-28T08:54:29Z</time>
 </trkpt>
 <trkpt lat="47.433819" lon="13.499856">
 <ele>1057.49</ele>
 <time>2010-05-28T08:54:38Z</time>
 </trkpt>
 <trkpt lat="47.433876" lon="13.500375">
 <ele>1057.66</ele>
 <time>2010-05-28T08:54:47Z</time>
 </trkpt>
 <trkpt lat="47.433907" lon="13.500886">
 <ele>1056.98</ele>
 <time>2010-05-28T08:54:54Z</time>
 </trkpt>
 <trkpt lat="47.433937" lon="13.501375">
 <ele>1055.93</ele>
 <time>2010-05-28T08:55:00Z</time>
 </trkpt>
 <trkpt lat="47.433975" lon="13.502204">
 <ele>1054.01</ele>
 <time>2010-05-28T08:55:09Z</time>
 </trkpt>
 <trkpt lat="47.433998" lon="13.503347">
 <ele>1052.78</ele>
 <time>2010-05-28T08:55:21Z</time>
 </trkpt>
 <trkpt lat="47.433990" lon="13.504000">
 <ele>1053.41</ele>
 <time>2010-05-28T08:55:29Z</time>
 </trkpt>
 <trkpt lat="47.433952" lon="13.504648">
 <ele>1053.46</ele>
 <time>2010-05-28T08:55:37Z</time>
 </trkpt>
 <trkpt lat="47.433895" lon="13.505488">
 <ele>1053.23</ele>
 <time>2010-05-28T08:55:47Z</time>
 </trkpt>
 <trkpt lat="47.433788" lon="13.506158">
 <ele>1054.08</ele>
 <time>2010-05-28T08:55:56Z</time>
 </trkpt>
 <trkpt lat="47.433670" lon="13.506907">
 <ele>1054.55</ele>
 <time>2010-05-28T08:56:06Z</time>
 </trkpt>
 <trkpt lat="47.433506" lon="13.507831">
 <ele>1054.13</ele>
 <time>2010-05-28T08:56:18Z</time>
 </trkpt>
 <trkpt lat="47.433311" lon="13.508673">
 <ele>1052.74</ele>
 <time>2010-05-28T08:56:28Z</time>
 </trkpt>
 <trkpt lat="47.433159" lon="13.509401">
 <ele>1052.65</ele>
 <time>2010-05-28T08:56:37Z</time>
 </trkpt>
 <trkpt lat="47.433075" lon="13.509910">
 <ele>1053.26</ele>
 <time>2010-05-28T08:56:44Z</time>
 </trkpt>
 <trkpt lat="47.433014" lon="13.510503">
 <ele>1054.66</ele>
 <time>2010-05-28T08:56:53Z</time>
 </trkpt>
 <trkpt lat="47.433006" lon="13.510696">
 <ele>1054.83</ele>
 <time>2010-05-28T08:56:56Z</time>
 </trkpt>
 <trkpt lat="47.433002" lon="13.510825">
 <ele>1054.96</ele>
 <time>2010-05-28T08:56:58Z</time>
 </trkpt>
 <trkpt lat="47.432980" lon="13.511495">
 <ele>1055.16</ele>
 <time>2010-05-28T08:57:08Z</time>
 </trkpt>
 <trkpt lat="47.433010" lon="13.512055">
 <ele>1054.72</ele>
 <time>2010-05-28T08:57:16Z</time>
 </trkpt>
 <trkpt lat="47.433041" lon="13.512677">
 <ele>1053.72</ele>
 <time>2010-05-28T08:57:24Z</time>
 </trkpt>
 <trkpt lat="47.433079" lon="13.513515">
 <ele>1051.60</ele>
 <time>2010-05-28T08:57:33Z</time>
 </trkpt>
 <trkpt lat="47.433189" lon="13.514431">
 <ele>1048.94</ele>
 <time>2010-05-28T08:57:42Z</time>
 </trkpt>
 <trkpt lat="47.433231" lon="13.515391">
 <ele>1047.25</ele>
 <time>2010-05-28T08:57:51Z</time>
 </trkpt>
 <trkpt lat="47.433250" lon="13.516435">
 <ele>1044.34</ele>
 <time>2010-05-28T08:58:01Z</time>
 </trkpt>
 <trkpt lat="47.433273" lon="13.517508">
 <ele>1041.71</ele>
 <time>2010-05-28T08:58:11Z</time>
 </trkpt>
 <trkpt lat="47.433273" lon="13.518183">
 <ele>1040.23</ele>
 <time>2010-05-28T08:58:17Z</time>
 </trkpt>
 <trkpt lat="47.433262" lon="13.518640">
 <ele>1039.02</ele>
 <time>2010-05-28T08:58:21Z</time>
 </trkpt>
 <trkpt lat="47.433247" lon="13.519395">
 <ele>1037.54</ele>
 <time>2010-05-28T08:58:28Z</time>
 </trkpt>
 <trkpt lat="47.433235" lon="13.520240">
 <ele>1036.84</ele>
 <time>2010-05-28T08:58:37Z</time>
 </trkpt>
 <trkpt lat="47.433235" lon="13.521017">
 <ele>1036.38</ele>
 <time>2010-05-28T08:58:46Z</time>
 </trkpt>
 <trkpt lat="47.433247" lon="13.521656">
 <ele>1036.00</ele>
 <time>2010-05-28T08:58:54Z</time>
 </trkpt>
 <trkpt lat="47.433250" lon="13.521769">
 <ele>1036.16</ele>
 <time>2010-05-28T08:58:56Z</time>
 </trkpt>
 <trkpt lat="47.433258" lon="13.521896">
 <ele>1035.56</ele>
 <time>2010-05-28T08:59:01Z</time>
 </trkpt>
 <trkpt lat="47.433258" lon="13.522153">
 <ele>1035.47</ele>
 <time>2010-05-28T08:59:03Z</time>
 </trkpt>
 <trkpt lat="47.433376" lon="13.522085">
 <ele>1035.69</ele>
 <time>2010-05-28T08:59:06Z</time>
 </trkpt>
 <trkpt lat="47.433407" lon="13.522067">
 <ele>1036.75</ele>
 <time>2010-05-28T08:59:14Z</time>
 </trkpt>
 <trkpt lat="47.434029" lon="13.521851">
 <ele>1037.31</ele>
 <time>2010-05-28T08:59:21Z</time>
 </trkpt>
 <trkpt lat="47.434353" lon="13.521768">
 <ele>1038.00</ele>
 <time>2010-05-28T08:59:29Z</time>
 </trkpt>
 <trkpt lat="47.434662" lon="13.521730">
 <ele>1038.30</ele>
 <time>2010-05-28T08:59:37Z</time>
 </trkpt>
 <trkpt lat="47.434700" lon="13.521733">
 <ele>1038.26</ele>
 <time>2010-05-28T08:59:38Z</time>
 </trkpt>
 <trkpt lat="47.435101" lon="13.521825">
 <ele>1039.01</ele>
 <time>2010-05-28T08:59:48Z</time>
 </trkpt>
 <trkpt lat="47.435326" lon="13.521900">
 <ele>1039.78</ele>
 <time>2010-05-28T08:59:54Z</time>
 </trkpt>
 <trkpt lat="47.435631" lon="13.522006">
 <ele>1040.08</ele>
 <time>2010-05-28T09:00:01Z</time>
 </trkpt>
 <trkpt lat="47.435890" lon="13.522098">
 <ele>1041.84</ele>
 <time>2010-05-28T09:00:08Z</time>
 </trkpt>
 <trkpt lat="47.436047" lon="13.522153">
 <ele>1042.94</ele>
 <time>2010-05-28T09:00:15Z</time>
 </trkpt>
 <trkpt lat="47.436462" lon="13.522242">
 <ele>1042.84</ele>
 <time>2010-05-28T09:00:23Z</time>
 </trkpt>
 <trkpt lat="47.436897" lon="13.522310">
 <ele>1043.10</ele>
 <time>2010-05-28T09:00:33Z</time>
 </trkpt>
 <trkpt lat="47.437286" lon="13.522524">
 <ele>1044.08</ele>
 <time>2010-05-28T09:00:43Z</time>
 </trkpt>
 <trkpt lat="47.437683" lon="13.522715">
 <ele>1044.95</ele>
 <time>2010-05-28T09:00:53Z</time>
 </trkpt>
 <trkpt lat="47.437969" lon="13.522799">
 <ele>1045.57</ele>
 <time>2010-05-28T09:01:00Z</time>
 </trkpt>
 <trkpt lat="47.438438" lon="13.522817">
 <ele>1046.45</ele>
 <time>2010-05-28T09:01:12Z</time>
 </trkpt>
 <trkpt lat="47.438675" lon="13.522785">
 <ele>1047.43</ele>
 <time>2010-05-28T09:01:18Z</time>
 </trkpt>
 <trkpt lat="47.438751" lon="13.522775">
 <ele>1048.46</ele>
 <time>2010-05-28T09:01:24Z</time>
 </trkpt>
 <trkpt lat="47.439079" lon="13.522492">
 <ele>1048.52</ele>
 <time>2010-05-28T09:01:31Z</time>
 </trkpt>
 <trkpt lat="47.439358" lon="13.522381">
 <ele>1048.90</ele>
 <time>2010-05-28T09:01:38Z</time>
 </trkpt>
 <trkpt lat="47.439751" lon="13.522146">
 <ele>1049.72</ele>
 <time>2010-05-28T09:01:49Z</time>
 </trkpt>
 <trkpt lat="47.440147" lon="13.521825">
 <ele>1051.40</ele>
 <time>2010-05-28T09:02:01Z</time>
 </trkpt>
 <trkpt lat="47.440468" lon="13.521628">
 <ele>1052.49</ele>
 <time>2010-05-28T09:02:10Z</time>
 </trkpt>
 <trkpt lat="47.440758" lon="13.521385">
 <ele>1053.07</ele>
 <time>2010-05-28T09:02:19Z</time>
 </trkpt>
 <trkpt lat="47.441025" lon="13.520945">
 <ele>1053.70</ele>
 <time>2010-05-28T09:02:29Z</time>
 </trkpt>
 <trkpt lat="47.441277" lon="13.520499">
 <ele>1055.26</ele>
 <time>2010-05-28T09:02:39Z</time>
 </trkpt>
 <trkpt lat="47.441566" lon="13.520155">
 <ele>1055.94</ele>
 <time>2010-05-28T09:02:49Z</time>
 </trkpt>
 <trkpt lat="47.441811" lon="13.519967">
 <ele>1056.51</ele>
 <time>2010-05-28T09:02:56Z</time>
 </trkpt>
 <trkpt lat="47.442139" lon="13.519797">
 <ele>1057.29</ele>
 <time>2010-05-28T09:03:05Z</time>
 </trkpt>
 <trkpt lat="47.442497" lon="13.519659">
 <ele>1058.20</ele>
 <time>2010-05-28T09:03:15Z</time>
 </trkpt>
 <trkpt lat="47.442841" lon="13.519527">
 <ele>1059.44</ele>
 <time>2010-05-28T09:03:25Z</time>
 </trkpt>
 <trkpt lat="47.443008" lon="13.519462">
 <ele>1059.76</ele>
 <time>2010-05-28T09:03:31Z</time>
 </trkpt>
 <trkpt lat="47.443172" lon="13.519363">
 <ele>1060.20</ele>
 <time>2010-05-28T09:03:39Z</time>
 </trkpt>
 <trkpt lat="47.443192" lon="13.519349">
 <ele>1060.31</ele>
 <time>2010-05-28T09:03:43Z</time>
 </trkpt>
 <trkpt lat="47.443192" lon="13.519349">
 <ele>1060.49</ele>
 <time>2010-05-28T09:03:48Z</time>
 </trkpt>
 <trkpt lat="47.443211" lon="13.519336">
 <ele>1060.62</ele>
 <time>2010-05-28T09:03:51Z</time>
 </trkpt>
 <trkpt lat="47.443195" lon="13.519347">
 <ele>1060.70</ele>
 <time>2010-05-28T09:06:30Z</time>
 </trkpt>
 <trkpt lat="47.443207" lon="13.519341">
 <ele>1060.73</ele>
 <time>2010-05-28T09:06:31Z</time>
 </trkpt>
 <trkpt lat="47.443306" lon="13.519276">
 <ele>1061.20</ele>
 <time>2010-05-28T09:06:38Z</time>
 </trkpt>
 <trkpt lat="47.443401" lon="13.519216">
 <ele>1061.42</ele>
 <time>2010-05-28T09:06:44Z</time>
 </trkpt>
 <trkpt lat="47.443459" lon="13.519191">
 <ele>1062.25</ele>
 <time>2010-05-28T09:06:49Z</time>
 </trkpt>
 <trkpt lat="47.443542" lon="13.519153">
 <ele>1062.02</ele>
 <time>2010-05-28T09:06:55Z</time>
 </trkpt>
 <trkpt lat="47.443542" lon="13.519153">
 <ele>1061.94</ele>
 <time>2010-05-28T09:06:56Z</time>
 </trkpt>
 <trkpt lat="47.444275" lon="13.518202">
 <ele>1071.59</ele>
 <time>2010-05-28T09:07:54Z</time>
 </trkpt>
 <trkpt lat="47.444557" lon="13.518047">
 <ele>1071.39</ele>
 <time>2010-05-28T09:07:56Z</time>
 </trkpt>
 <trkpt lat="47.444717" lon="13.517957">
 <ele>1070.68</ele>
 <time>2010-05-28T09:08:01Z</time>
 </trkpt>
 <trkpt lat="47.445026" lon="13.517787">
 <ele>1069.41</ele>
 <time>2010-05-28T09:08:08Z</time>
 </trkpt>
 <trkpt lat="47.445354" lon="13.517604">
 <ele>1068.66</ele>
 <time>2010-05-28T09:08:15Z</time>
 </trkpt>
 <trkpt lat="47.445446" lon="13.517553">
 <ele>1068.73</ele>
 <time>2010-05-28T09:08:17Z</time>
 </trkpt>
 <trkpt lat="47.445908" lon="13.517300">
 <ele>1068.84</ele>
 <time>2010-05-28T09:08:28Z</time>
 </trkpt>
 <trkpt lat="47.446178" lon="13.517193">
 <ele>1069.70</ele>
 <time>2010-05-28T09:08:35Z</time>
 </trkpt>
 <trkpt lat="47.446468" lon="13.517078">
 <ele>1070.11</ele>
 <time>2010-05-28T09:08:43Z</time>
 </trkpt>
 <trkpt lat="47.446877" lon="13.517005">
 <ele>1071.35</ele>
 <time>2010-05-28T09:08:54Z</time>
 </trkpt>
 <trkpt lat="47.447163" lon="13.516986">
 <ele>1072.61</ele>
 <time>2010-05-28T09:09:02Z</time>
 </trkpt>
 <trkpt lat="47.447582" lon="13.516956">
 <ele>1073.46</ele>
 <time>2010-05-28T09:09:14Z</time>
 </trkpt>
 <trkpt lat="47.447922" lon="13.516914">
 <ele>1074.50</ele>
 <time>2010-05-28T09:09:24Z</time>
 </trkpt>
 <trkpt lat="47.448154" lon="13.516849">
 <ele>1075.73</ele>
 <time>2010-05-28T09:09:31Z</time>
 </trkpt>
 <trkpt lat="47.448326" lon="13.516802">
 <ele>1075.69</ele>
 <time>2010-05-28T09:09:36Z</time>
 </trkpt>
 <trkpt lat="47.448559" lon="13.516738">
 <ele>1076.57</ele>
 <time>2010-05-28T09:09:43Z</time>
 </trkpt>
 <trkpt lat="47.448811" lon="13.516670">
 <ele>1077.33</ele>
 <time>2010-05-28T09:09:51Z</time>
 </trkpt>
 <trkpt lat="47.449139" lon="13.516580">
 <ele>1078.55</ele>
 <time>2010-05-28T09:10:01Z</time>
 </trkpt>
 <trkpt lat="47.449318" lon="13.516531">
 <ele>1078.60</ele>
 <time>2010-05-28T09:10:07Z</time>
 </trkpt>
 <trkpt lat="47.449493" lon="13.516483">
 <ele>1079.31</ele>
 <time>2010-05-28T09:10:13Z</time>
 </trkpt>
 <trkpt lat="47.449608" lon="13.516452">
 <ele>1079.58</ele>
 <time>2010-05-28T09:10:17Z</time>
 </trkpt>
 <trkpt lat="47.449608" lon="13.516452">
 <ele>1079.59</ele>
 <time>2010-05-28T09:10:19Z</time>
 </trkpt>
 <trkpt lat="47.449680" lon="13.516432">
 <ele>1079.67</ele>
 <time>2010-05-28T09:11:24Z</time>
 </trkpt>
 <trkpt lat="47.449829" lon="13.516391">
 <ele>1079.90</ele>
 <time>2010-05-28T09:11:30Z</time>
 </trkpt>
 <trkpt lat="47.449989" lon="13.516354">
 <ele>1080.11</ele>
 <time>2010-05-28T09:11:35Z</time>
 </trkpt>
 <trkpt lat="47.450191" lon="13.516311">
 <ele>1080.82</ele>
 <time>2010-05-28T09:11:42Z</time>
 </trkpt>
 <trkpt lat="47.450485" lon="13.516249">
 <ele>1082.05</ele>
 <time>2010-05-28T09:11:51Z</time>
 </trkpt>
 <trkpt lat="47.450668" lon="13.516210">
 <ele>1083.37</ele>
 <time>2010-05-28T09:11:57Z</time>
 </trkpt>
 <trkpt lat="47.450932" lon="13.516154">
 <ele>1084.70</ele>
 <time>2010-05-28T09:12:05Z</time>
 </trkpt>
 <trkpt lat="47.451298" lon="13.516076">
 <ele>1086.36</ele>
 <time>2010-05-28T09:12:17Z</time>
 </trkpt>
 <trkpt lat="47.451626" lon="13.516005">
 <ele>1087.94</ele>
 <time>2010-05-28T09:12:27Z</time>
 </trkpt>
 <trkpt lat="47.451866" lon="13.515943">
 <ele>1088.85</ele>
 <time>2010-05-28T09:12:34Z</time>
 </trkpt>
 <trkpt lat="47.452114" lon="13.515861">
 <ele>1090.00</ele>
 <time>2010-05-28T09:12:42Z</time>
 </trkpt>
 <trkpt lat="47.452442" lon="13.515752">
 <ele>1091.59</ele>
 <time>2010-05-28T09:12:53Z</time>
 </trkpt>
 <trkpt lat="47.452644" lon="13.515684">
 <ele>1092.54</ele>
 <time>2010-05-28T09:13:00Z</time>
 </trkpt>
 <trkpt lat="47.452881" lon="13.515605">
 <ele>1093.75</ele>
 <time>2010-05-28T09:13:08Z</time>
 </trkpt>
 <trkpt lat="47.453125" lon="13.515523">
 <ele>1095.17</ele>
 <time>2010-05-28T09:13:16Z</time>
 </trkpt>
 <trkpt lat="47.453461" lon="13.515411">
 <ele>1095.60</ele>
 <time>2010-05-28T09:13:26Z</time>
 </trkpt>
 <trkpt lat="47.453762" lon="13.515311">
 <ele>1097.08</ele>
 <time>2010-05-28T09:13:35Z</time>
 </trkpt>
 <trkpt lat="47.454044" lon="13.515217">
 <ele>1098.22</ele>
 <time>2010-05-28T09:13:44Z</time>
 </trkpt>
 <trkpt lat="47.454269" lon="13.515142">
 <ele>1099.33</ele>
 <time>2010-05-28T09:13:51Z</time>
 </trkpt>
 <trkpt lat="47.454525" lon="13.515056">
 <ele>1100.35</ele>
 <time>2010-05-28T09:13:59Z</time>
 </trkpt>
 <trkpt lat="47.454742" lon="13.514984">
 <ele>1101.27</ele>
 <time>2010-05-28T09:14:06Z</time>
 </trkpt>
 <trkpt lat="47.454979" lon="13.514905">
 <ele>1101.57</ele>
 <time>2010-05-28T09:14:14Z</time>
 </trkpt>
 <trkpt lat="47.455200" lon="13.514932">
 <ele>1103.02</ele>
 <time>2010-05-28T09:14:21Z</time>
 </trkpt>
 <trkpt lat="47.455486" lon="13.515038">
 <ele>1103.81</ele>
 <time>2010-05-28T09:14:30Z</time>
 </trkpt>
 <trkpt lat="47.455673" lon="13.515108">
 <ele>1104.75</ele>
 <time>2010-05-28T09:14:36Z</time>
 </trkpt>
 <trkpt lat="47.455868" lon="13.515180">
 <ele>1105.74</ele>
 <time>2010-05-28T09:14:43Z</time>
 </trkpt>
 <trkpt lat="47.456001" lon="13.515237">
 <ele>1106.75</ele>
 <time>2010-05-28T09:14:48Z</time>
 </trkpt>
 <trkpt lat="47.456161" lon="13.515342">
 <ele>1107.38</ele>
 <time>2010-05-28T09:14:54Z</time>
 </trkpt>
 <trkpt lat="47.456329" lon="13.515454">
 <ele>1108.33</ele>
 <time>2010-05-28T09:15:01Z</time>
 </trkpt>
 <trkpt lat="47.456436" lon="13.515524">
 <ele>1108.99</ele>
 <time>2010-05-28T09:15:08Z</time>
 </trkpt>
 <trkpt lat="47.456436" lon="13.515524">
 <ele>1108.97</ele>
 <time>2010-05-28T09:15:09Z</time>
 </trkpt>
 <trkpt lat="47.456436" lon="13.515524">
 <ele>1109.03</ele>
 <time>2010-05-28T09:15:13Z</time>
 </trkpt>
 <trkpt lat="47.456497" lon="13.515566">
 <ele>1109.57</ele>
 <time>2010-05-28T09:15:20Z</time>
 </trkpt>
 <trkpt lat="47.456814" lon="13.515587">
 <ele>1110.15</ele>
 <time>2010-05-28T09:15:27Z</time>
 </trkpt>
 <trkpt lat="47.456932" lon="13.515671">
 <ele>1110.47</ele>
 <time>2010-05-28T09:15:32Z</time>
 </trkpt>
 <trkpt lat="47.457081" lon="13.515776">
 <ele>1112.26</ele>
 <time>2010-05-28T09:15:39Z</time>
 </trkpt>
 <trkpt lat="47.457226" lon="13.515876">
 <ele>1113.49</ele>
 <time>2010-05-28T09:15:46Z</time>
 </trkpt>
 <trkpt lat="47.457359" lon="13.515969">
 <ele>1114.80</ele>
 <time>2010-05-28T09:15:53Z</time>
 </trkpt>
 <trkpt lat="47.457417" lon="13.516011">
 <ele>1115.48</ele>
 <time>2010-05-28T09:15:57Z</time>
 </trkpt>
 <trkpt lat="47.457546" lon="13.516101">
 <ele>1116.82</ele>
 <time>2010-05-28T09:16:04Z</time>
 </trkpt>
 <trkpt lat="47.457603" lon="13.516141">
 <ele>1117.52</ele>
 <time>2010-05-28T09:16:08Z</time>
 </trkpt>
 <trkpt lat="47.457718" lon="13.516220">
 <ele>1119.16</ele>
 <time>2010-05-28T09:16:15Z</time>
 </trkpt>
 <trkpt lat="47.457764" lon="13.516252">
 <ele>1120.31</ele>
 <time>2010-05-28T09:16:20Z</time>
 </trkpt>
 <trkpt lat="47.457787" lon="13.516244">
 <ele>1120.95</ele>
 <time>2010-05-28T09:16:22Z</time>
 </trkpt>
 <trkpt lat="47.457863" lon="13.516219">
 <ele>1122.07</ele>
 <time>2010-05-28T09:16:29Z</time>
 </trkpt>
 <trkpt lat="47.457966" lon="13.516185">
 <ele>1124.21</ele>
 <time>2010-05-28T09:16:38Z</time>
 </trkpt>
 <trkpt lat="47.458065" lon="13.516151">
 <ele>1125.80</ele>
 <time>2010-05-28T09:16:45Z</time>
 </trkpt>
 <trkpt lat="47.458160" lon="13.516120">
 <ele>1127.29</ele>
 <time>2010-05-28T09:16:51Z</time>
 </trkpt>
 <trkpt lat="47.458229" lon="13.516101">
 <ele>1128.13</ele>
 <time>2010-05-28T09:16:55Z</time>
 </trkpt>
 <trkpt lat="47.458286" lon="13.516084">
 <ele>1129.77</ele>
 <time>2010-05-28T09:17:02Z</time>
 </trkpt>
 <trkpt lat="47.458385" lon="13.516055">
 <ele>1131.15</ele>
 <time>2010-05-28T09:17:10Z</time>
 </trkpt>
 <trkpt lat="47.458523" lon="13.516069">
 <ele>1132.58</ele>
 <time>2010-05-28T09:17:18Z</time>
 </trkpt>
 <trkpt lat="47.458626" lon="13.516115">
 <ele>1133.96</ele>
 <time>2010-05-28T09:17:25Z</time>
 </trkpt>
 <trkpt lat="47.458733" lon="13.516162">
 <ele>1135.00</ele>
 <time>2010-05-28T09:17:33Z</time>
 </trkpt>
 <trkpt lat="47.458839" lon="13.516209">
 <ele>1136.61</ele>
 <time>2010-05-28T09:17:42Z</time>
 </trkpt>
 <trkpt lat="47.458912" lon="13.516242">
 <ele>1137.72</ele>
 <time>2010-05-28T09:17:48Z</time>
 </trkpt>
 <trkpt lat="47.458981" lon="13.516272">
 <ele>1138.47</ele>
 <time>2010-05-28T09:17:54Z</time>
 </trkpt>
 <trkpt lat="47.459045" lon="13.516301">
 <ele>1139.98</ele>
 <time>2010-05-28T09:18:02Z</time>
 </trkpt>
 <trkpt lat="47.459091" lon="13.516322">
 <ele>1141.47</ele>
 <time>2010-05-28T09:18:09Z</time>
 </trkpt>
 <trkpt lat="47.459221" lon="13.516394">
 <ele>1142.66</ele>
 <time>2010-05-28T09:18:16Z</time>
 </trkpt>
 <trkpt lat="47.459309" lon="13.516467">
 <ele>1143.97</ele>
 <time>2010-05-28T09:18:23Z</time>
 </trkpt>
 <trkpt lat="47.459415" lon="13.516556">
 <ele>1145.51</ele>
 <time>2010-05-28T09:18:32Z</time>
 </trkpt>
 <trkpt lat="47.459545" lon="13.516664">
 <ele>1148.18</ele>
 <time>2010-05-28T09:18:42Z</time>
 </trkpt>
 <trkpt lat="47.459656" lon="13.516754">
 <ele>1149.83</ele>
 <time>2010-05-28T09:18:51Z</time>
 </trkpt>
 <trkpt lat="47.459717" lon="13.516805">
 <ele>1151.02</ele>
 <time>2010-05-28T09:18:56Z</time>
 </trkpt>
 <trkpt lat="47.459805" lon="13.516878">
 <ele>1152.63</ele>
 <time>2010-05-28T09:19:04Z</time>
 </trkpt>
 <trkpt lat="47.459858" lon="13.516921">
 <ele>1153.68</ele>
 <time>2010-05-28T09:19:09Z</time>
 </trkpt>
 <trkpt lat="47.459923" lon="13.516976">
 <ele>1155.02</ele>
 <time>2010-05-28T09:19:16Z</time>
 </trkpt>
 <trkpt lat="47.460033" lon="13.516990">
 <ele>1156.88</ele>
 <time>2010-05-28T09:19:24Z</time>
 </trkpt>
 <trkpt lat="47.460114" lon="13.516996">
 <ele>1158.56</ele>
 <time>2010-05-28T09:19:31Z</time>
 </trkpt>
 <trkpt lat="47.460175" lon="13.517001">
 <ele>1159.33</ele>
 <time>2010-05-28T09:19:36Z</time>
 </trkpt>
 <trkpt lat="47.460197" lon="13.517003">
 <ele>1160.12</ele>
 <time>2010-05-28T09:19:39Z</time>
 </trkpt>
 <trkpt lat="47.460320" lon="13.517013">
 <ele>1161.70</ele>
 <time>2010-05-28T09:19:47Z</time>
 </trkpt>
 <trkpt lat="47.460407" lon="13.517020">
 <ele>1163.54</ele>
 <time>2010-05-28T09:19:55Z</time>
 </trkpt>
 <trkpt lat="47.460468" lon="13.517024">
 <ele>1163.94</ele>
 <time>2010-05-28T09:20:00Z</time>
 </trkpt>
 <trkpt lat="47.460506" lon="13.517012">
 <ele>1164.65</ele>
 <time>2010-05-28T09:20:04Z</time>
 </trkpt>
 <trkpt lat="47.460598" lon="13.516984">
 <ele>1165.93</ele>
 <time>2010-05-28T09:20:12Z</time>
 </trkpt>
 <trkpt lat="47.460655" lon="13.516966">
 <ele>1167.17</ele>
 <time>2010-05-28T09:20:18Z</time>
 </trkpt>
 <trkpt lat="47.460747" lon="13.516939">
 <ele>1168.81</ele>
 <time>2010-05-28T09:20:26Z</time>
 </trkpt>
 <trkpt lat="47.460876" lon="13.516898">
 <ele>1171.42</ele>
 <time>2010-05-28T09:20:36Z</time>
 </trkpt>
 <trkpt lat="47.460892" lon="13.516894">
 <ele>1171.65</ele>
 <time>2010-05-28T09:20:37Z</time>
 </trkpt>
 <trkpt lat="47.460949" lon="13.516986">
 <ele>1172.70</ele>
 <time>2010-05-28T09:20:43Z</time>
 </trkpt>
 <trkpt lat="47.460945" lon="13.516967">
 <ele>1172.56</ele>
 <time>2010-05-28T09:20:46Z</time>
 </trkpt>
 <trkpt lat="47.460976" lon="13.516917">
 <ele>1172.13</ele>
 <time>2010-05-28T09:21:15Z</time>
 </trkpt>
 <trkpt lat="47.460979" lon="13.516907">
 <ele>1172.18</ele>
 <time>2010-05-28T09:21:16Z</time>
 </trkpt>
 <trkpt lat="47.461002" lon="13.516863">
 <ele>1172.81</ele>
 <time>2010-05-28T09:21:22Z</time>
 </trkpt>
 <trkpt lat="47.461086" lon="13.516704">
 <ele>1174.48</ele>
 <time>2010-05-28T09:21:37Z</time>
 </trkpt>
 <trkpt lat="47.461109" lon="13.516652">
 <ele>1175.76</ele>
 <time>2010-05-28T09:21:48Z</time>
 </trkpt>
 <trkpt lat="47.461178" lon="13.516497">
 <ele>1177.63</ele>
 <time>2010-05-28T09:21:58Z</time>
 </trkpt>
 <trkpt lat="47.461220" lon="13.516403">
 <ele>1179.24</ele>
 <time>2010-05-28T09:22:08Z</time>
 </trkpt>
 <trkpt lat="47.461254" lon="13.516316">
 <ele>1180.57</ele>
 <time>2010-05-28T09:22:15Z</time>
 </trkpt>
 <trkpt lat="47.461304" lon="13.516201">
 <ele>1182.23</ele>
 <time>2010-05-28T09:22:26Z</time>
 </trkpt>
 <trkpt lat="47.461357" lon="13.516082">
 <ele>1183.60</ele>
 <time>2010-05-28T09:22:35Z</time>
 </trkpt>
 <trkpt lat="47.461411" lon="13.515961">
 <ele>1185.08</ele>
 <time>2010-05-28T09:22:44Z</time>
 </trkpt>
 <trkpt lat="47.461456" lon="13.515848">
 <ele>1186.83</ele>
 <time>2010-05-28T09:22:53Z</time>
 </trkpt>
 <trkpt lat="47.461514" lon="13.515733">
 <ele>1188.51</ele>
 <time>2010-05-28T09:23:03Z</time>
 </trkpt>
 <trkpt lat="47.461552" lon="13.515678">
 <ele>1189.36</ele>
 <time>2010-05-28T09:23:09Z</time>
 </trkpt>
 <trkpt lat="47.461613" lon="13.515590">
 <ele>1191.25</ele>
 <time>2010-05-28T09:23:19Z</time>
 </trkpt>
 <trkpt lat="47.461639" lon="13.515554">
 <ele>1191.95</ele>
 <time>2010-05-28T09:23:23Z</time>
 </trkpt>
 <trkpt lat="47.461658" lon="13.515528">
 <ele>1192.35</ele>
 <time>2010-05-28T09:23:27Z</time>
 </trkpt>
 <trkpt lat="47.461658" lon="13.515528">
 <ele>1192.67</ele>
 <time>2010-05-28T09:23:31Z</time>
 </trkpt>
 <trkpt lat="47.461731" lon="13.515424">
 <ele>1193.90</ele>
 <time>2010-05-28T09:23:41Z</time>
 </trkpt>
 <trkpt lat="47.461803" lon="13.515319">
 <ele>1195.61</ele>
 <time>2010-05-28T09:23:51Z</time>
 </trkpt>
 <trkpt lat="47.461884" lon="13.515204">
 <ele>1196.94</ele>
 <time>2010-05-28T09:24:01Z</time>
 </trkpt>
 <trkpt lat="47.461941" lon="13.515122">
 <ele>1197.79</ele>
 <time>2010-05-28T09:24:11Z</time>
 </trkpt>
 <trkpt lat="47.461987" lon="13.515055">
 <ele>1198.46</ele>
 <time>2010-05-28T09:24:21Z</time>
 </trkpt>
 <trkpt lat="47.461994" lon="13.515045">
 <ele>1198.89</ele>
 <time>2010-05-28T09:24:26Z</time>
 </trkpt>
 <trkpt lat="47.461994" lon="13.515045">
 <ele>1199.13</ele>
 <time>2010-05-28T09:24:33Z</time>
 </trkpt>
 <trkpt lat="47.462048" lon="13.514971">
 <ele>1199.08</ele>
 <time>2010-05-28T09:24:40Z</time>
 </trkpt>
 <trkpt lat="47.462059" lon="13.514951">
 <ele>1199.22</ele>
 <time>2010-05-28T09:25:50Z</time>
 </trkpt>
 <trkpt lat="47.462109" lon="13.514880">
 <ele>1199.33</ele>
 <time>2010-05-28T09:25:53Z</time>
 </trkpt>
 <trkpt lat="47.462158" lon="13.514599">
 <ele>1199.69</ele>
 <time>2010-05-28T09:25:59Z</time>
 </trkpt>
 <trkpt lat="47.462177" lon="13.514370">
 <ele>1200.76</ele>
 <time>2010-05-28T09:26:07Z</time>
 </trkpt>
 <trkpt lat="47.462193" lon="13.514161">
 <ele>1201.43</ele>
 <time>2010-05-28T09:26:14Z</time>
 </trkpt>
 <trkpt lat="47.462208" lon="13.513976">
 <ele>1202.30</ele>
 <time>2010-05-28T09:26:21Z</time>
 </trkpt>
 <trkpt lat="47.462223" lon="13.513760">
 <ele>1202.84</ele>
 <time>2010-05-28T09:26:29Z</time>
 </trkpt>
 <trkpt lat="47.462238" lon="13.513568">
 <ele>1204.10</ele>
 <time>2010-05-28T09:26:36Z</time>
 </trkpt>
 <trkpt lat="47.462254" lon="13.513353">
 <ele>1204.67</ele>
 <time>2010-05-28T09:26:42Z</time>
 </trkpt>
 <trkpt lat="47.462273" lon="13.513133">
 <ele>1205.70</ele>
 <time>2010-05-28T09:26:48Z</time>
 </trkpt>
 <trkpt lat="47.462280" lon="13.513003">
 <ele>1206.28</ele>
 <time>2010-05-28T09:26:54Z</time>
 </trkpt>
 <trkpt lat="47.462296" lon="13.512890">
 <ele>1206.60</ele>
 <time>2010-05-28T09:26:59Z</time>
 </trkpt>
 <trkpt lat="47.462326" lon="13.512770">
 <ele>1206.78</ele>
 <time>2010-05-28T09:27:05Z</time>
 </trkpt>
 <trkpt lat="47.462372" lon="13.512590">
 <ele>1206.22</ele>
 <time>2010-05-28T09:27:12Z</time>
 </trkpt>
 <trkpt lat="47.462418" lon="13.512424">
 <ele>1206.63</ele>
 <time>2010-05-28T09:27:18Z</time>
 </trkpt>
 <trkpt lat="47.462486" lon="13.512151">
 <ele>1206.02</ele>
 <time>2010-05-28T09:27:25Z</time>
 </trkpt>
 <trkpt lat="47.462505" lon="13.512089">
 <ele>1205.69</ele>
 <time>2010-05-28T09:27:31Z</time>
 </trkpt>
 <trkpt lat="47.462505" lon="13.512089">
 <ele>1205.29</ele>
 <time>2010-05-28T09:27:36Z</time>
 </trkpt>
 <trkpt lat="47.462505" lon="13.512089">
 <ele>1204.85</ele>
 <time>2010-05-28T09:27:40Z</time>
 </trkpt>
 <trkpt lat="47.461662" lon="13.510879">
 <ele>1204.72</ele>
 <time>2010-05-28T09:27:45Z</time>
 </trkpt>
 <trkpt lat="47.461624" lon="13.510768">
 <ele>1204.72</ele>
 <time>2010-05-28T09:27:51Z</time>
 </trkpt>
 <trkpt lat="47.461620" lon="13.510750">
 <ele>1204.84</ele>
 <time>2010-05-28T09:27:53Z</time>
 </trkpt>
 <trkpt lat="47.461613" lon="13.510694">
 <ele>1204.59</ele>
 <time>2010-05-28T09:27:57Z</time>
 </trkpt>
 <trkpt lat="47.461567" lon="13.510562">
 <ele>1204.47</ele>
 <time>2010-05-28T09:28:01Z</time>
 </trkpt>
 <trkpt lat="47.461403" lon="13.510287">
 <ele>1204.17</ele>
 <time>2010-05-28T09:28:08Z</time>
 </trkpt>
 <trkpt lat="47.461143" lon="13.510014">
 <ele>1202.78</ele>
 <time>2010-05-28T09:28:15Z</time>
 </trkpt>
 <trkpt lat="47.460983" lon="13.509655">
 <ele>1201.39</ele>
 <time>2010-05-28T09:28:21Z</time>
 </trkpt>
 <trkpt lat="47.460911" lon="13.509372">
 <ele>1201.46</ele>
 <time>2010-05-28T09:28:25Z</time>
 </trkpt>
 <trkpt lat="47.460739" lon="13.509093">
 <ele>1200.36</ele>
 <time>2010-05-28T09:28:30Z</time>
 </trkpt>
 <trkpt lat="47.460514" lon="13.508852">
 <ele>1198.83</ele>
 <time>2010-05-28T09:28:36Z</time>
 </trkpt>
 <trkpt lat="47.460297" lon="13.508683">
 <ele>1198.33</ele>
 <time>2010-05-28T09:28:41Z</time>
 </trkpt>
 <trkpt lat="47.459972" lon="13.508453">
 <ele>1197.24</ele>
 <time>2010-05-28T09:28:48Z</time>
 </trkpt>
 <trkpt lat="47.459839" lon="13.508352">
 <ele>1196.82</ele>
 <time>2010-05-28T09:28:51Z</time>
 </trkpt>
 <trkpt lat="47.459408" lon="13.508160">
 <ele>1194.64</ele>
 <time>2010-05-28T09:28:59Z</time>
 </trkpt>
 <trkpt lat="47.459324" lon="13.508115">
 <ele>1194.18</ele>
 <time>2010-05-28T09:29:01Z</time>
 </trkpt>
 <trkpt lat="47.459187" lon="13.507892">
 <ele>1193.82</ele>
 <time>2010-05-28T09:29:06Z</time>
 </trkpt>
 <trkpt lat="47.459106" lon="13.507632">
 <ele>1195.21</ele>
 <time>2010-05-28T09:29:12Z</time>
 </trkpt>
 <trkpt lat="47.458900" lon="13.507286">
 <ele>1195.50</ele>
 <time>2010-05-28T09:29:20Z</time>
 </trkpt>
 <trkpt lat="47.458668" lon="13.506907">
 <ele>1195.64</ele>
 <time>2010-05-28T09:29:28Z</time>
 </trkpt>
 <trkpt lat="47.458496" lon="13.506653">
 <ele>1196.20</ele>
 <time>2010-05-28T09:29:34Z</time>
 </trkpt>
 <trkpt lat="47.458244" lon="13.506354">
 <ele>1196.72</ele>
 <time>2010-05-28T09:29:42Z</time>
 </trkpt>
 <trkpt lat="47.458206" lon="13.506331">
 <ele>1196.67</ele>
 <time>2010-05-28T09:29:43Z</time>
 </trkpt>
 <trkpt lat="47.458084" lon="13.506282">
 <ele>1196.84</ele>
 <time>2010-05-28T09:29:46Z</time>
 </trkpt>
 <trkpt lat="47.457932" lon="13.506078">
 <ele>1196.80</ele>
 <time>2010-05-28T09:29:51Z</time>
 </trkpt>
 <trkpt lat="47.457878" lon="13.505857">
 <ele>1197.31</ele>
 <time>2010-05-28T09:29:55Z</time>
 </trkpt>
 <trkpt lat="47.457771" lon="13.505588">
 <ele>1197.52</ele>
 <time>2010-05-28T09:30:00Z</time>
 </trkpt>
 <trkpt lat="47.457664" lon="13.505406">
 <ele>1197.60</ele>
 <time>2010-05-28T09:30:04Z</time>
 </trkpt>
 <trkpt lat="47.457569" lon="13.505289">
 <ele>1197.90</ele>
 <time>2010-05-28T09:30:07Z</time>
 </trkpt>
 <trkpt lat="47.457405" lon="13.504971">
 <ele>1198.14</ele>
 <time>2010-05-28T09:30:14Z</time>
 </trkpt>
 <trkpt lat="47.457184" lon="13.504562">
 <ele>1198.00</ele>
 <time>2010-05-28T09:30:22Z</time>
 </trkpt>
 <trkpt lat="47.457092" lon="13.504417">
 <ele>1197.88</ele>
 <time>2010-05-28T09:30:25Z</time>
 </trkpt>
 <trkpt lat="47.456875" lon="13.504055">
 <ele>1197.63</ele>
 <time>2010-05-28T09:30:32Z</time>
 </trkpt>
 <trkpt lat="47.456722" lon="13.503626">
 <ele>1197.80</ele>
 <time>2010-05-28T09:30:39Z</time>
 </trkpt>
 <trkpt lat="47.456692" lon="13.503489">
 <ele>1197.46</ele>
 <time>2010-05-28T09:30:41Z</time>
 </trkpt>
 <trkpt lat="47.456520" lon="13.502932">
 <ele>1196.99</ele>
 <time>2010-05-28T09:30:49Z</time>
 </trkpt>
 <trkpt lat="47.456375" lon="13.502599">
 <ele>1196.83</ele>
 <time>2010-05-28T09:30:54Z</time>
 </trkpt>
 <trkpt lat="47.456188" lon="13.502291">
 <ele>1195.83</ele>
 <time>2010-05-28T09:30:59Z</time>
 </trkpt>
 <trkpt lat="47.455982" lon="13.501940">
 <ele>1194.87</ele>
 <time>2010-05-28T09:31:05Z</time>
 </trkpt>
 <trkpt lat="47.455681" lon="13.501535">
 <ele>1193.94</ele>
 <time>2010-05-28T09:31:13Z</time>
 </trkpt>
 <trkpt lat="47.455601" lon="13.501465">
 <ele>1193.52</ele>
 <time>2010-05-28T09:31:15Z</time>
 </trkpt>
 <trkpt lat="47.455376" lon="13.501428">
 <ele>1193.23</ele>
 <time>2010-05-28T09:31:20Z</time>
 </trkpt>
 <trkpt lat="47.455116" lon="13.501535">
 <ele>1192.72</ele>
 <time>2010-05-28T09:31:26Z</time>
 </trkpt>
 <trkpt lat="47.454941" lon="13.501743">
 <ele>1192.53</ele>
 <time>2010-05-28T09:31:31Z</time>
 </trkpt>
 <trkpt lat="47.454800" lon="13.502048">
 <ele>1192.24</ele>
 <time>2010-05-28T09:31:36Z</time>
 </trkpt>
 <trkpt lat="47.454620" lon="13.502278">
 <ele>1192.31</ele>
 <time>2010-05-28T09:31:42Z</time>
 </trkpt>
 <trkpt lat="47.454494" lon="13.502365">
 <ele>1192.52</ele>
 <time>2010-05-28T09:31:46Z</time>
 </trkpt>
 <trkpt lat="47.454285" lon="13.502455">
 <ele>1191.80</ele>
 <time>2010-05-28T09:31:51Z</time>
 </trkpt>
 <trkpt lat="47.454197" lon="13.502511">
 <ele>1191.30</ele>
 <time>2010-05-28T09:31:53Z</time>
 </trkpt>
 <trkpt lat="47.453869" lon="13.502702">
 <ele>1191.07</ele>
 <time>2010-05-28T09:32:01Z</time>
 </trkpt>
 <trkpt lat="47.453693" lon="13.502802">
 <ele>1190.84</ele>
 <time>2010-05-28T09:32:05Z</time>
 </trkpt>
 <trkpt lat="47.453590" lon="13.502699">
 <ele>1190.84</ele>
 <time>2010-05-28T09:32:09Z</time>
 </trkpt>
 <trkpt lat="47.453625" lon="13.502544">
 <ele>1190.79</ele>
 <time>2010-05-28T09:32:12Z</time>
 </trkpt>
 <trkpt lat="47.453709" lon="13.502322">
 <ele>1190.72</ele>
 <time>2010-05-28T09:32:16Z</time>
 </trkpt>
 <trkpt lat="47.453732" lon="13.501974">
 <ele>1190.13</ele>
 <time>2010-05-28T09:32:21Z</time>
 </trkpt>
 <trkpt lat="47.453686" lon="13.501836">
 <ele>1189.79</ele>
 <time>2010-05-28T09:32:23Z</time>
 </trkpt>
 <trkpt lat="47.453526" lon="13.501307">
 <ele>1188.88</ele>
 <time>2010-05-28T09:32:31Z</time>
 </trkpt>
 <trkpt lat="47.453514" lon="13.501247">
 <ele>1188.87</ele>
 <time>2010-05-28T09:32:32Z</time>
 </trkpt>
 <trkpt lat="47.453510" lon="13.501108">
 <ele>1188.71</ele>
 <time>2010-05-28T09:32:34Z</time>
 </trkpt>
 <trkpt lat="47.453480" lon="13.500617">
 <ele>1188.44</ele>
 <time>2010-05-28T09:32:41Z</time>
 </trkpt>
 <trkpt lat="47.453392" lon="13.500150">
 <ele>1187.99</ele>
 <time>2010-05-28T09:32:48Z</time>
 </trkpt>
 <trkpt lat="47.453377" lon="13.500088">
 <ele>1187.99</ele>
 <time>2010-05-28T09:32:49Z</time>
 </trkpt>
 <trkpt lat="47.453281" lon="13.499708">
 <ele>1187.96</ele>
 <time>2010-05-28T09:32:55Z</time>
 </trkpt>
 <trkpt lat="47.453178" lon="13.499379">
 <ele>1187.55</ele>
 <time>2010-05-28T09:33:00Z</time>
 </trkpt>
 <trkpt lat="47.453133" lon="13.499075">
 <ele>1187.29</ele>
 <time>2010-05-28T09:33:05Z</time>
 </trkpt>
 <trkpt lat="47.453159" lon="13.498718">
 <ele>1186.97</ele>
 <time>2010-05-28T09:33:11Z</time>
 </trkpt>
 <trkpt lat="47.453144" lon="13.498597">
 <ele>1186.94</ele>
 <time>2010-05-28T09:33:13Z</time>
 </trkpt>
 <trkpt lat="47.453098" lon="13.498386">
 <ele>1186.80</ele>
 <time>2010-05-28T09:33:16Z</time>
 </trkpt>
 <trkpt lat="47.453014" lon="13.497897">
 <ele>1186.26</ele>
 <time>2010-05-28T09:33:22Z</time>
 </trkpt>
 <trkpt lat="47.452972" lon="13.497580">
 <ele>1186.09</ele>
 <time>2010-05-28T09:33:27Z</time>
 </trkpt>
 <trkpt lat="47.452847" lon="13.497327">
 <ele>1186.15</ele>
 <time>2010-05-28T09:33:31Z</time>
 </trkpt>
 <trkpt lat="47.452682" lon="13.497098">
 <ele>1185.51</ele>
 <time>2010-05-28T09:33:35Z</time>
 </trkpt>
 <trkpt lat="47.452335" lon="13.496752">
 <ele>1184.38</ele>
 <time>2010-05-28T09:33:42Z</time>
 </trkpt>
 <trkpt lat="47.452091" lon="13.496380">
 <ele>1183.99</ele>
 <time>2010-05-28T09:33:48Z</time>
 </trkpt>
 <trkpt lat="47.451923" lon="13.496112">
 <ele>1183.41</ele>
 <time>2010-05-28T09:33:52Z</time>
 </trkpt>
 <trkpt lat="47.451641" lon="13.495718">
 <ele>1182.87</ele>
 <time>2010-05-28T09:33:59Z</time>
 </trkpt>
 <trkpt lat="47.451565" lon="13.495613">
 <ele>1182.63</ele>
 <time>2010-05-28T09:34:01Z</time>
 </trkpt>
 <trkpt lat="47.451504" lon="13.495495">
 <ele>1182.25</ele>
 <time>2010-05-28T09:34:03Z</time>
 </trkpt>
 <trkpt lat="47.451458" lon="13.495281">
 <ele>1181.92</ele>
 <time>2010-05-28T09:34:06Z</time>
 </trkpt>
 <trkpt lat="47.451405" lon="13.494742">
 <ele>1181.61</ele>
 <time>2010-05-28T09:34:13Z</time>
 </trkpt>
 <trkpt lat="47.451313" lon="13.494442">
 <ele>1181.17</ele>
 <time>2010-05-28T09:34:18Z</time>
 </trkpt>
 <trkpt lat="47.451187" lon="13.494220">
 <ele>1181.18</ele>
 <time>2010-05-28T09:34:24Z</time>
 </trkpt>
 <trkpt lat="47.451199" lon="13.494201">
 <ele>1181.40</ele>
 <time>2010-05-28T09:34:27Z</time>
 </trkpt>
 <trkpt lat="47.451241" lon="13.494136">
 <ele>1181.07</ele>
 <time>2010-05-28T09:34:36Z</time>
 </trkpt>
 <trkpt lat="47.451252" lon="13.494118">
 <ele>1181.26</ele>
 <time>2010-05-28T09:34:51Z</time>
 </trkpt>
 <trkpt lat="47.451256" lon="13.494111">
 <ele>1181.23</ele>
 <time>2010-05-28T09:34:53Z</time>
 </trkpt>
 <trkpt lat="47.451221" lon="13.494145">
 <ele>1181.07</ele>
 <time>2010-05-28T09:36:30Z</time>
 </trkpt>
 <trkpt lat="47.451218" lon="13.494143">
 <ele>1181.03</ele>
 <time>2010-05-28T09:36:31Z</time>
 </trkpt>
 <trkpt lat="47.451214" lon="13.494140">
 <ele>1181.18</ele>
 <time>2010-05-28T09:36:33Z</time>
 </trkpt>
 <trkpt lat="47.451122" lon="13.494138">
 <ele>1180.99</ele>
 <time>2010-05-28T09:36:40Z</time>
 </trkpt>
 <trkpt lat="47.451019" lon="13.494040">
 <ele>1181.08</ele>
 <time>2010-05-28T09:36:45Z</time>
 </trkpt>
 <trkpt lat="47.450756" lon="13.493851">
 <ele>1180.47</ele>
 <time>2010-05-28T09:36:53Z</time>
 </trkpt>
 <trkpt lat="47.450417" lon="13.493774">
 <ele>1179.98</ele>
 <time>2010-05-28T09:37:00Z</time>
 </trkpt>
 <trkpt lat="47.450012" lon="13.493718">
 <ele>1178.65</ele>
 <time>2010-05-28T09:37:08Z</time>
 </trkpt>
 <trkpt lat="47.449623" lon="13.493676">
 <ele>1177.28</ele>
 <time>2010-05-28T09:37:16Z</time>
 </trkpt>
 <trkpt lat="47.449429" lon="13.493560">
 <ele>1176.74</ele>
 <time>2010-05-28T09:37:21Z</time>
 </trkpt>
 <trkpt lat="47.449211" lon="13.493196">
 <ele>1176.54</ele>
 <time>2010-05-28T09:37:28Z</time>
 </trkpt>
 <trkpt lat="47.449001" lon="13.492821">
 <ele>1175.43</ele>
 <time>2010-05-28T09:37:34Z</time>
 </trkpt>
 <trkpt lat="47.448944" lon="13.492683">
 <ele>1174.87</ele>
 <time>2010-05-28T09:37:36Z</time>
 </trkpt>
 <trkpt lat="47.448872" lon="13.492282">
 <ele>1174.31</ele>
 <time>2010-05-28T09:37:41Z</time>
 </trkpt>
 <trkpt lat="47.448792" lon="13.491881">
 <ele>1173.31</ele>
 <time>2010-05-28T09:37:46Z</time>
 </trkpt>
 <trkpt lat="47.448723" lon="13.491581">
 <ele>1172.73</ele>
 <time>2010-05-28T09:37:50Z</time>
 </trkpt>
 <trkpt lat="47.448639" lon="13.491134">
 <ele>1170.05</ele>
 <time>2010-05-28T09:37:57Z</time>
 </trkpt>
 <trkpt lat="47.448616" lon="13.490833">
 <ele>1168.08</ele>
 <time>2010-05-28T09:38:02Z</time>
 </trkpt>
 <trkpt lat="47.448547" lon="13.490606">
 <ele>1166.32</ele>
 <time>2010-05-28T09:38:07Z</time>
 </trkpt>
 <trkpt lat="47.448429" lon="13.490413">
 <ele>1164.55</ele>
 <time>2010-05-28T09:38:12Z</time>
 </trkpt>
 <trkpt lat="47.448296" lon="13.490283">
 <ele>1162.21</ele>
 <time>2010-05-28T09:38:17Z</time>
 </trkpt>
 <trkpt lat="47.448238" lon="13.490090">
 <ele>1160.19</ele>
 <time>2010-05-28T09:38:21Z</time>
 </trkpt>
 <trkpt lat="47.448257" lon="13.489777">
 <ele>1158.51</ele>
 <time>2010-05-28T09:38:26Z</time>
 </trkpt>
 <trkpt lat="47.448292" lon="13.489447">
 <ele>1155.89</ele>
 <time>2010-05-28T09:38:32Z</time>
 </trkpt>
 <trkpt lat="47.448315" lon="13.489142">
 <ele>1152.51</ele>
 <time>2010-05-28T09:38:39Z</time>
 </trkpt>
 <trkpt lat="47.448353" lon="13.488844">
 <ele>1149.34</ele>
 <time>2010-05-28T09:38:46Z</time>
 </trkpt>
 <trkpt lat="47.448357" lon="13.488519">
 <ele>1146.77</ele>
 <time>2010-05-28T09:38:52Z</time>
 </trkpt>
 <trkpt lat="47.448307" lon="13.488232">
 <ele>1143.76</ele>
 <time>2010-05-28T09:38:58Z</time>
 </trkpt>
 <trkpt lat="47.448219" lon="13.487941">
 <ele>1141.06</ele>
 <time>2010-05-28T09:39:04Z</time>
 </trkpt>
 <trkpt lat="47.448177" lon="13.487637">
 <ele>1138.16</ele>
 <time>2010-05-28T09:39:10Z</time>
 </trkpt>
 <trkpt lat="47.448189" lon="13.487314">
 <ele>1135.48</ele>
 <time>2010-05-28T09:39:16Z</time>
 </trkpt>
 <trkpt lat="47.448235" lon="13.487018">
 <ele>1132.85</ele>
 <time>2010-05-28T09:39:22Z</time>
 </trkpt>
 <trkpt lat="47.448360" lon="13.486587">
 <ele>1128.66</ele>
 <time>2010-05-28T09:39:31Z</time>
 </trkpt>
 <trkpt lat="47.448456" lon="13.486267">
 <ele>1125.71</ele>
 <time>2010-05-28T09:39:38Z</time>
 </trkpt>
 <trkpt lat="47.448498" lon="13.485974">
 <ele>1123.80</ele>
 <time>2010-05-28T09:39:44Z</time>
 </trkpt>
 <trkpt lat="47.448486" lon="13.485771">
 <ele>1121.70</ele>
 <time>2010-05-28T09:39:49Z</time>
 </trkpt>
 <trkpt lat="47.448380" lon="13.485494">
 <ele>1119.21</ele>
 <time>2010-05-28T09:39:57Z</time>
 </trkpt>
 <trkpt lat="47.448364" lon="13.485396">
 <ele>1118.14</ele>
 <time>2010-05-28T09:40:00Z</time>
 </trkpt>
 <trkpt lat="47.448452" lon="13.485329">
 <ele>1116.91</ele>
 <time>2010-05-28T09:40:05Z</time>
 </trkpt>
 <trkpt lat="47.448486" lon="13.485350">
 <ele>1116.39</ele>
 <time>2010-05-28T09:40:07Z</time>
 </trkpt>
 <trkpt lat="47.448547" lon="13.485430">
 <ele>1115.61</ele>
 <time>2010-05-28T09:40:13Z</time>
 </trkpt>
 <trkpt lat="47.448627" lon="13.485530">
 <ele>1114.45</ele>
 <time>2010-05-28T09:40:19Z</time>
 </trkpt>
 <trkpt lat="47.448792" lon="13.485676">
 <ele>1112.83</ele>
 <time>2010-05-28T09:40:25Z</time>
 </trkpt>
 <trkpt lat="47.448921" lon="13.485903">
 <ele>1110.90</ele>
 <time>2010-05-28T09:40:31Z</time>
 </trkpt>
 <trkpt lat="47.449005" lon="13.486179">
 <ele>1108.58</ele>
 <time>2010-05-28T09:40:37Z</time>
 </trkpt>
 <trkpt lat="47.449112" lon="13.486605">
 <ele>1104.61</ele>
 <time>2010-05-28T09:40:46Z</time>
 </trkpt>
 <trkpt lat="47.449215" lon="13.486893">
 <ele>1102.39</ele>
 <time>2010-05-28T09:40:53Z</time>
 </trkpt>
 <trkpt lat="47.449322" lon="13.487057">
 <ele>1101.11</ele>
 <time>2010-05-28T09:40:58Z</time>
 </trkpt>
 <trkpt lat="47.449520" lon="13.487171">
 <ele>1098.89</ele>
 <time>2010-05-28T09:41:04Z</time>
 </trkpt>
 <trkpt lat="47.449638" lon="13.487178">
 <ele>1097.79</ele>
 <time>2010-05-28T09:41:09Z</time>
 </trkpt>
 <trkpt lat="47.449657" lon="13.487185">
 <ele>1097.56</ele>
 <time>2010-05-28T09:41:12Z</time>
 </trkpt>
 <trkpt lat="47.449738" lon="13.487379">
 <ele>1096.27</ele>
 <time>2010-05-28T09:41:19Z</time>
 </trkpt>
 <trkpt lat="47.449799" lon="13.487650">
 <ele>1094.09</ele>
 <time>2010-05-28T09:41:25Z</time>
 </trkpt>
 <trkpt lat="47.449917" lon="13.487752">
 <ele>1092.85</ele>
 <time>2010-05-28T09:41:29Z</time>
 </trkpt>
 <trkpt lat="47.450069" lon="13.487755">
 <ele>1090.98</ele>
 <time>2010-05-28T09:41:34Z</time>
 </trkpt>
 <trkpt lat="47.450211" lon="13.487727">
 <ele>1089.84</ele>
 <time>2010-05-28T09:41:38Z</time>
 </trkpt>
 <trkpt lat="47.450500" lon="13.487725">
 <ele>1088.15</ele>
 <time>2010-05-28T09:41:45Z</time>
 </trkpt>
 <trkpt lat="47.450676" lon="13.487735">
 <ele>1086.29</ele>
 <time>2010-05-28T09:41:50Z</time>
 </trkpt>
 <trkpt lat="47.450836" lon="13.487803">
 <ele>1083.88</ele>
 <time>2010-05-28T09:41:55Z</time>
 </trkpt>
 <trkpt lat="47.451023" lon="13.487871">
 <ele>1080.91</ele>
 <time>2010-05-28T09:42:01Z</time>
 </trkpt>
 <trkpt lat="47.451214" lon="13.487999">
 <ele>1077.86</ele>
 <time>2010-05-28T09:42:07Z</time>
 </trkpt>
 <trkpt lat="47.451351" lon="13.488080">
 <ele>1076.28</ele>
 <time>2010-05-28T09:42:12Z</time>
 </trkpt>
 <trkpt lat="47.451523" lon="13.488183">
 <ele>1073.97</ele>
 <time>2010-05-28T09:42:18Z</time>
 </trkpt>
 <trkpt lat="47.451710" lon="13.488327">
 <ele>1071.57</ele>
 <time>2010-05-28T09:42:24Z</time>
 </trkpt>
 <trkpt lat="47.451855" lon="13.488529">
 <ele>1068.74</ele>
 <time>2010-05-28T09:42:30Z</time>
 </trkpt>
 <trkpt lat="47.451920" lon="13.488713">
 <ele>1066.72</ele>
 <time>2010-05-28T09:42:35Z</time>
 </trkpt>
 <trkpt lat="47.451950" lon="13.488916">
 <ele>1064.81</ele>
 <time>2010-05-28T09:42:39Z</time>
 </trkpt>
 <trkpt lat="47.451962" lon="13.489142">
 <ele>1062.17</ele>
 <time>2010-05-28T09:42:44Z</time>
 </trkpt>
 <trkpt lat="47.451973" lon="13.489175">
 <ele>1061.74</ele>
 <time>2010-05-28T09:42:45Z</time>
 </trkpt>
 <trkpt lat="47.452065" lon="13.489204">
 <ele>1061.02</ele>
 <time>2010-05-28T09:42:49Z</time>
 </trkpt>
 <trkpt lat="47.452087" lon="13.489191">
 <ele>1061.15</ele>
 <time>2010-05-28T09:42:50Z</time>
 </trkpt>
 <trkpt lat="47.452248" lon="13.489029">
 <ele>1060.57</ele>
 <time>2010-05-28T09:42:56Z</time>
 </trkpt>
 <trkpt lat="47.452393" lon="13.488891">
 <ele>1059.88</ele>
 <time>2010-05-28T09:43:02Z</time>
 </trkpt>
 <trkpt lat="47.452618" lon="13.488819">
 <ele>1057.92</ele>
 <time>2010-05-28T09:43:08Z</time>
 </trkpt>
 <trkpt lat="47.452904" lon="13.488735">
 <ele>1055.37</ele>
 <time>2010-05-28T09:43:16Z</time>
 </trkpt>
 <trkpt lat="47.453136" lon="13.488680">
 <ele>1052.89</ele>
 <time>2010-05-28T09:43:23Z</time>
 </trkpt>
 <trkpt lat="47.453354" lon="13.488674">
 <ele>1050.81</ele>
 <time>2010-05-28T09:43:29Z</time>
 </trkpt>
 <trkpt lat="47.453541" lon="13.488669">
 <ele>1048.56</ele>
 <time>2010-05-28T09:43:34Z</time>
 </trkpt>
 <trkpt lat="47.453815" lon="13.488628">
 <ele>1045.96</ele>
 <time>2010-05-28T09:43:42Z</time>
 </trkpt>
 <trkpt lat="47.454018" lon="13.488635">
 <ele>1043.32</ele>
 <time>2010-05-28T09:43:49Z</time>
 </trkpt>
 <trkpt lat="47.454094" lon="13.488669">
 <ele>1042.59</ele>
 <time>2010-05-28T09:43:53Z</time>
 </trkpt>
 <trkpt lat="47.454182" lon="13.488589">
 <ele>1041.35</ele>
 <time>2010-05-28T09:43:58Z</time>
 </trkpt>
 <trkpt lat="47.454193" lon="13.488430">
 <ele>1039.83</ele>
 <time>2010-05-28T09:44:03Z</time>
 </trkpt>
 <trkpt lat="47.454178" lon="13.488339">
 <ele>1038.92</ele>
 <time>2010-05-28T09:44:05Z</time>
 </trkpt>
 <trkpt lat="47.454140" lon="13.487938">
 <ele>1034.76</ele>
 <time>2010-05-28T09:44:12Z</time>
 </trkpt>
 <trkpt lat="47.454086" lon="13.487621">
 <ele>1031.62</ele>
 <time>2010-05-28T09:44:19Z</time>
 </trkpt>
 <trkpt lat="47.454060" lon="13.487446">
 <ele>1029.15</ele>
 <time>2010-05-28T09:44:25Z</time>
 </trkpt>
 <trkpt lat="47.454063" lon="13.487441">
 <ele>1028.63</ele>
 <time>2010-05-28T09:44:27Z</time>
 </trkpt>
 <trkpt lat="47.454044" lon="13.487431">
 <ele>1028.58</ele>
 <time>2010-05-28T09:44:33Z</time>
 </trkpt>
 <trkpt lat="47.454048" lon="13.487408">
 <ele>1028.29</ele>
 <time>2010-05-28T09:44:39Z</time>
 </trkpt>
 <trkpt lat="47.454048" lon="13.487407">
 <ele>1028.29</ele>
 <time>2010-05-28T09:44:40Z</time>
 </trkpt>
 <trkpt lat="47.454048" lon="13.487276">
 <ele>1028.05</ele>
 <time>2010-05-28T09:44:45Z</time>
 </trkpt>
 <trkpt lat="47.454067" lon="13.487125">
 <ele>1027.41</ele>
 <time>2010-05-28T09:44:51Z</time>
 </trkpt>
 <trkpt lat="47.454067" lon="13.487123">
 <ele>1027.39</ele>
 <time>2010-05-28T09:44:52Z</time>
 </trkpt>
 <trkpt lat="47.454082" lon="13.487030">
 <ele>1026.99</ele>
 <time>2010-05-28T09:45:05Z</time>
 </trkpt>
 <trkpt lat="47.453999" lon="13.486876">
 <ele>1026.30</ele>
 <time>2010-05-28T09:45:11Z</time>
 </trkpt>
 <trkpt lat="47.453854" lon="13.486670">
 <ele>1025.75</ele>
 <time>2010-05-28T09:45:17Z</time>
 </trkpt>
 <trkpt lat="47.453655" lon="13.486349">
 <ele>1026.00</ele>
 <time>2010-05-28T09:45:24Z</time>
 </trkpt>
 <trkpt lat="47.453560" lon="13.486221">
 <ele>1026.08</ele>
 <time>2010-05-28T09:45:27Z</time>
 </trkpt>
 <trkpt lat="47.453259" lon="13.485883">
 <ele>1027.36</ele>
 <time>2010-05-28T09:45:36Z</time>
 </trkpt>
 <trkpt lat="47.452984" lon="13.485510">
 <ele>1028.33</ele>
 <time>2010-05-28T09:45:45Z</time>
 </trkpt>
 <trkpt lat="47.452824" lon="13.485192">
 <ele>1029.29</ele>
 <time>2010-05-28T09:45:52Z</time>
 </trkpt>
 <trkpt lat="47.452747" lon="13.484968">
 <ele>1029.52</ele>
 <time>2010-05-28T09:45:56Z</time>
 </trkpt>
 <trkpt lat="47.452541" lon="13.484611">
 <ele>1030.44</ele>
 <time>2010-05-28T09:46:04Z</time>
 </trkpt>
 <trkpt lat="47.452446" lon="13.484477">
 <ele>1030.83</ele>
 <time>2010-05-28T09:46:09Z</time>
 </trkpt>
 <trkpt lat="47.452305" lon="13.484301">
 <ele>1030.67</ele>
 <time>2010-05-28T09:46:14Z</time>
 </trkpt>
 <trkpt lat="47.452080" lon="13.483980">
 <ele>1030.77</ele>
 <time>2010-05-28T09:46:21Z</time>
 </trkpt>
 <trkpt lat="47.451851" lon="13.483496">
 <ele>1030.10</ele>
 <time>2010-05-28T09:46:29Z</time>
 </trkpt>
 <trkpt lat="47.451611" lon="13.482986">
 <ele>1029.51</ele>
 <time>2010-05-28T09:46:37Z</time>
 </trkpt>
 <trkpt lat="47.451351" lon="13.482441">
 <ele>1028.12</ele>
 <time>2010-05-28T09:46:45Z</time>
 </trkpt>
 <trkpt lat="47.451115" lon="13.482062">
 <ele>1027.63</ele>
 <time>2010-05-28T09:46:51Z</time>
 </trkpt>
 <trkpt lat="47.450878" lon="13.481786">
 <ele>1026.44</ele>
 <time>2010-05-28T09:46:56Z</time>
 </trkpt>
 <trkpt lat="47.450756" lon="13.481455">
 <ele>1025.75</ele>
 <time>2010-05-28T09:47:00Z</time>
 </trkpt>
 <trkpt lat="47.450745" lon="13.481357">
 <ele>1025.61</ele>
 <time>2010-05-28T09:47:01Z</time>
 </trkpt>
 <trkpt lat="47.450672" lon="13.480407">
 <ele>1025.30</ele>
 <time>2010-05-28T09:47:11Z</time>
 </trkpt>
 <trkpt lat="47.450603" lon="13.479700">
 <ele>1025.11</ele>
 <time>2010-05-28T09:47:19Z</time>
 </trkpt>
 <trkpt lat="47.450481" lon="13.478997">
 <ele>1025.74</ele>
 <time>2010-05-28T09:47:28Z</time>
 </trkpt>
 <trkpt lat="47.450474" lon="13.478845">
 <ele>1025.95</ele>
 <time>2010-05-28T09:47:30Z</time>
 </trkpt>
 <trkpt lat="47.450546" lon="13.478484">
 <ele>1026.04</ele>
 <time>2010-05-28T09:47:35Z</time>
 </trkpt>
 <trkpt lat="47.450581" lon="13.478427">
 <ele>1026.04</ele>
 <time>2010-05-28T09:47:36Z</time>
 </trkpt>
 <trkpt lat="47.450897" lon="13.478081">
 <ele>1026.01</ele>
 <time>2010-05-28T09:47:44Z</time>
 </trkpt>
 <trkpt lat="47.451122" lon="13.477812">
 <ele>1026.58</ele>
 <time>2010-05-28T09:47:51Z</time>
 </trkpt>
 <trkpt lat="47.451160" lon="13.477660">
 <ele>1026.67</ele>
 <time>2010-05-28T09:47:54Z</time>
 </trkpt>
 <trkpt lat="47.451157" lon="13.477197">
 <ele>1025.05</ele>
 <time>2010-05-28T09:48:00Z</time>
 </trkpt>
 <trkpt lat="47.451160" lon="13.476651">
 <ele>1022.85</ele>
 <time>2010-05-28T09:48:05Z</time>
 </trkpt>
 <trkpt lat="47.451160" lon="13.476530">
 <ele>1021.99</ele>
 <time>2010-05-28T09:48:06Z</time>
 </trkpt>
 <trkpt lat="47.451088" lon="13.476061">
 <ele>1019.35</ele>
 <time>2010-05-28T09:48:10Z</time>
 </trkpt>
 <trkpt lat="47.451050" lon="13.475949">
 <ele>1018.93</ele>
 <time>2010-05-28T09:48:11Z</time>
 </trkpt>
 <trkpt lat="47.450722" lon="13.475205">
 <ele>1013.70</ele>
 <time>2010-05-28T09:48:18Z</time>
 </trkpt>
 <trkpt lat="47.450623" lon="13.475036">
 <ele>1012.40</ele>
 <time>2010-05-28T09:48:20Z</time>
 </trkpt>
 <trkpt lat="47.450287" lon="13.474741">
 <ele>1008.40</ele>
 <time>2010-05-28T09:48:25Z</time>
 </trkpt>
 <trkpt lat="47.449715" lon="13.474545">
 <ele>1002.27</ele>
 <time>2010-05-28T09:48:31Z</time>
 </trkpt>
 <trkpt lat="47.449432" lon="13.474495">
 <ele>998.69</ele>
 <time>2010-05-28T09:48:34Z</time>
 </trkpt>
 <trkpt lat="47.449081" lon="13.474570">
 <ele>995.21</ele>
 <time>2010-05-28T09:48:38Z</time>
 </trkpt>
 <trkpt lat="47.448727" lon="13.474667">
 <ele>992.93</ele>
 <time>2010-05-28T09:48:42Z</time>
 </trkpt>
 <trkpt lat="47.448650" lon="13.474666">
 <ele>992.62</ele>
 <time>2010-05-28T09:48:43Z</time>
 </trkpt>
 <trkpt lat="47.448502" lon="13.474645">
 <ele>992.09</ele>
 <time>2010-05-28T09:48:45Z</time>
 </trkpt>
 <trkpt lat="47.448280" lon="13.474575">
 <ele>990.86</ele>
 <time>2010-05-28T09:48:48Z</time>
 </trkpt>
 <trkpt lat="47.448055" lon="13.474577">
 <ele>990.06</ele>
 <time>2010-05-28T09:48:51Z</time>
 </trkpt>
 <trkpt lat="47.447750" lon="13.474497">
 <ele>988.31</ele>
 <time>2010-05-28T09:48:55Z</time>
 </trkpt>
 <trkpt lat="47.447407" lon="13.474184">
 <ele>985.85</ele>
 <time>2010-05-28T09:49:00Z</time>
 </trkpt>
 <trkpt lat="47.446850" lon="13.473681">
 <ele>983.81</ele>
 <time>2010-05-28T09:49:08Z</time>
 </trkpt>
 <trkpt lat="47.446362" lon="13.473275">
 <ele>981.22</ele>
 <time>2010-05-28T09:49:15Z</time>
 </trkpt>
 <trkpt lat="47.446102" lon="13.473051">
 <ele>980.73</ele>
 <time>2010-05-28T09:49:19Z</time>
 </trkpt>
 <trkpt lat="47.445908" lon="13.472695">
 <ele>979.87</ele>
 <time>2010-05-28T09:49:24Z</time>
 </trkpt>
 <trkpt lat="47.445881" lon="13.472609">
 <ele>979.64</ele>
 <time>2010-05-28T09:49:25Z</time>
 </trkpt>
 <trkpt lat="47.445793" lon="13.472236">
 <ele>978.57</ele>
 <time>2010-05-28T09:49:29Z</time>
 </trkpt>
 <trkpt lat="47.445614" lon="13.471865">
 <ele>977.99</ele>
 <time>2010-05-28T09:49:34Z</time>
 </trkpt>
 <trkpt lat="47.445461" lon="13.471719">
 <ele>977.47</ele>
 <time>2010-05-28T09:49:37Z</time>
 </trkpt>
 <trkpt lat="47.444965" lon="13.471435">
 <ele>976.49</ele>
 <time>2010-05-28T09:49:45Z</time>
 </trkpt>
 <trkpt lat="47.444458" lon="13.471313">
 <ele>974.93</ele>
 <time>2010-05-28T09:49:52Z</time>
 </trkpt>
 <trkpt lat="47.444012" lon="13.471319">
 <ele>973.34</ele>
 <time>2010-05-28T09:49:58Z</time>
 </trkpt>
 <trkpt lat="47.443794" lon="13.471297">
 <ele>972.43</ele>
 <time>2010-05-28T09:50:01Z</time>
 </trkpt>
 <trkpt lat="47.443245" lon="13.471043">
 <ele>970.92</ele>
 <time>2010-05-28T09:50:09Z</time>
 </trkpt>
 <trkpt lat="47.442810" lon="13.470832">
 <ele>970.59</ele>
 <time>2010-05-28T09:50:16Z</time>
 </trkpt>
 <trkpt lat="47.442379" lon="13.470597">
 <ele>969.78</ele>
 <time>2010-05-28T09:50:23Z</time>
 </trkpt>
 <trkpt lat="47.441982" lon="13.470293">
 <ele>968.07</ele>
 <time>2010-05-28T09:50:29Z</time>
 </trkpt>
 <trkpt lat="47.441498" lon="13.469886">
 <ele>966.19</ele>
 <time>2010-05-28T09:50:36Z</time>
 </trkpt>
 <trkpt lat="47.441235" lon="13.469598">
 <ele>964.53</ele>
 <time>2010-05-28T09:50:40Z</time>
 </trkpt>
 <trkpt lat="47.440842" lon="13.469208">
 <ele>963.35</ele>
 <time>2010-05-28T09:50:46Z</time>
 </trkpt>
 <trkpt lat="47.440701" lon="13.469131">
 <ele>963.22</ele>
 <time>2010-05-28T09:50:48Z</time>
 </trkpt>
 <trkpt lat="47.440369" lon="13.469083">
 <ele>963.09</ele>
 <time>2010-05-28T09:50:53Z</time>
 </trkpt>
 <trkpt lat="47.439842" lon="13.469119">
 <ele>962.44</ele>
 <time>2010-05-28T09:51:01Z</time>
 </trkpt>
 <trkpt lat="47.439514" lon="13.468991">
 <ele>961.59</ele>
 <time>2010-05-28T09:51:06Z</time>
 </trkpt>
 <trkpt lat="47.438847" lon="13.468673">
 <ele>959.38</ele>
 <time>2010-05-28T09:51:16Z</time>
 </trkpt>
 <trkpt lat="47.438324" lon="13.468516">
 <ele>959.13</ele>
 <time>2010-05-28T09:51:24Z</time>
 </trkpt>
 <trkpt lat="47.438072" lon="13.468522">
 <ele>958.36</ele>
 <time>2010-05-28T09:51:28Z</time>
 </trkpt>
 <trkpt lat="47.437824" lon="13.468431">
 <ele>957.07</ele>
 <time>2010-05-28T09:51:32Z</time>
 </trkpt>
 <trkpt lat="47.437344" lon="13.468165">
 <ele>956.40</ele>
 <time>2010-05-28T09:51:39Z</time>
 </trkpt>
 <trkpt lat="47.436989" lon="13.468034">
 <ele>954.65</ele>
 <time>2010-05-28T09:51:44Z</time>
 </trkpt>
 <trkpt lat="47.436638" lon="13.467914">
 <ele>953.66</ele>
 <time>2010-05-28T09:51:49Z</time>
 </trkpt>
 <trkpt lat="47.435524" lon="13.467960">
 <ele>951.73</ele>
 <time>2010-05-28T09:51:56Z</time>
 </trkpt>
 <trkpt lat="47.435520" lon="13.467920">
 <ele>951.75</ele>
 <time>2010-05-28T09:51:57Z</time>
 </trkpt>
 <trkpt lat="47.435497" lon="13.467760">
 <ele>951.73</ele>
 <time>2010-05-28T09:52:01Z</time>
 </trkpt>
 <trkpt lat="47.435440" lon="13.467516">
 <ele>951.23</ele>
 <time>2010-05-28T09:52:07Z</time>
 </trkpt>
 <trkpt lat="47.435425" lon="13.467467">
 <ele>951.11</ele>
 <time>2010-05-28T09:52:08Z</time>
 </trkpt>
 <trkpt lat="47.435303" lon="13.467214">
 <ele>950.81</ele>
 <time>2010-05-28T09:52:12Z</time>
 </trkpt>
 <trkpt lat="47.435051" lon="13.466770">
 <ele>949.11</ele>
 <time>2010-05-28T09:52:19Z</time>
 </trkpt>
 <trkpt lat="47.434952" lon="13.466594">
 <ele>948.59</ele>
 <time>2010-05-28T09:52:22Z</time>
 </trkpt>
 <trkpt lat="47.434849" lon="13.466086">
 <ele>947.17</ele>
 <time>2010-05-28T09:52:27Z</time>
 </trkpt>
 <trkpt lat="47.434734" lon="13.465701">
 <ele>946.79</ele>
 <time>2010-05-28T09:52:31Z</time>
 </trkpt>
 <trkpt lat="47.434418" lon="13.465244">
 <ele>945.45</ele>
 <time>2010-05-28T09:52:37Z</time>
 </trkpt>
 <trkpt lat="47.434151" lon="13.464882">
 <ele>943.84</ele>
 <time>2010-05-28T09:52:42Z</time>
 </trkpt>
 <trkpt lat="47.434109" lon="13.464561">
 <ele>942.71</ele>
 <time>2010-05-28T09:52:45Z</time>
 </trkpt>
 <trkpt lat="47.433971" lon="13.463507">
 <ele>940.77</ele>
 <time>2010-05-28T09:52:55Z</time>
 </trkpt>
 <trkpt lat="47.433784" lon="13.462939">
 <ele>940.41</ele>
 <time>2010-05-28T09:53:01Z</time>
 </trkpt>
 <trkpt lat="47.433495" lon="13.462261">
 <ele>939.11</ele>
 <time>2010-05-28T09:53:09Z</time>
 </trkpt>
 <trkpt lat="47.433422" lon="13.462092">
 <ele>938.73</ele>
 <time>2010-05-28T09:53:11Z</time>
 </trkpt>
 <trkpt lat="47.433338" lon="13.461443">
 <ele>937.00</ele>
 <time>2010-05-28T09:53:17Z</time>
 </trkpt>
 <trkpt lat="47.433304" lon="13.460987">
 <ele>935.16</ele>
 <time>2010-05-28T09:53:21Z</time>
 </trkpt>
 <trkpt lat="47.433270" lon="13.460759">
 <ele>934.60</ele>
 <time>2010-05-28T09:53:23Z</time>
 </trkpt>
 <trkpt lat="47.432880" lon="13.459447">
 <ele>931.27</ele>
 <time>2010-05-28T09:53:35Z</time>
 </trkpt>
 <trkpt lat="47.432560" lon="13.458621">
 <ele>929.59</ele>
 <time>2010-05-28T09:53:43Z</time>
 </trkpt>
 <trkpt lat="47.432274" lon="13.458194">
 <ele>928.94</ele>
 <time>2010-05-28T09:53:48Z</time>
 </trkpt>
 <trkpt lat="47.431927" lon="13.457659">
 <ele>926.41</ele>
 <time>2010-05-28T09:53:54Z</time>
 </trkpt>
 <trkpt lat="47.431709" lon="13.457113">
 <ele>924.10</ele>
 <time>2010-05-28T09:53:59Z</time>
 </trkpt>
 <trkpt lat="47.431595" lon="13.456318">
 <ele>920.76</ele>
 <time>2010-05-28T09:54:05Z</time>
 </trkpt>
 <trkpt lat="47.431438" lon="13.455261">
 <ele>919.34</ele>
 <time>2010-05-28T09:54:13Z</time>
 </trkpt>
 <trkpt lat="47.431210" lon="13.454363">
 <ele>917.49</ele>
 <time>2010-05-28T09:54:20Z</time>
 </trkpt>
 <trkpt lat="47.430977" lon="13.453458">
 <ele>915.05</ele>
 <time>2010-05-28T09:54:27Z</time>
 </trkpt>
 <trkpt lat="47.430847" lon="13.452813">
 <ele>913.24</ele>
 <time>2010-05-28T09:54:32Z</time>
 </trkpt>
 <trkpt lat="47.430607" lon="13.451819">
 <ele>911.21</ele>
 <time>2010-05-28T09:54:40Z</time>
 </trkpt>
 <trkpt lat="47.430363" lon="13.450963">
 <ele>909.54</ele>
 <time>2010-05-28T09:54:47Z</time>
 </trkpt>
 <trkpt lat="47.430225" lon="13.450337">
 <ele>907.78</ele>
 <time>2010-05-28T09:54:52Z</time>
 </trkpt>
 <trkpt lat="47.430107" lon="13.449569">
 <ele>905.93</ele>
 <time>2010-05-28T09:54:58Z</time>
 </trkpt>
 <trkpt lat="47.429882" lon="13.448913">
 <ele>904.64</ele>
 <time>2010-05-28T09:55:04Z</time>
 </trkpt>
 <trkpt lat="47.429543" lon="13.448085">
 <ele>902.53</ele>
 <time>2010-05-28T09:55:12Z</time>
 </trkpt>
 <trkpt lat="47.429241" lon="13.447246">
 <ele>900.43</ele>
 <time>2010-05-28T09:55:20Z</time>
 </trkpt>
 <trkpt lat="47.429127" lon="13.446453">
 <ele>899.02</ele>
 <time>2010-05-28T09:55:27Z</time>
 </trkpt>
 <trkpt lat="47.429058" lon="13.445658">
 <ele>897.79</ele>
 <time>2010-05-28T09:55:34Z</time>
 </trkpt>
 <trkpt lat="47.428986" lon="13.444769">
 <ele>896.73</ele>
 <time>2010-05-28T09:55:42Z</time>
 </trkpt>
 <trkpt lat="47.428959" lon="13.444313">
 <ele>895.40</ele>
 <time>2010-05-28T09:55:46Z</time>
 </trkpt>
 <trkpt lat="47.428978" lon="13.443836">
 <ele>894.36</ele>
 <time>2010-05-28T09:55:50Z</time>
 </trkpt>
 <trkpt lat="47.429207" lon="13.443054">
 <ele>893.41</ele>
 <time>2010-05-28T09:55:57Z</time>
 </trkpt>
 <trkpt lat="47.429226" lon="13.442470">
 <ele>892.14</ele>
 <time>2010-05-28T09:56:02Z</time>
 </trkpt>
 <trkpt lat="47.429207" lon="13.442359">
 <ele>891.97</ele>
 <time>2010-05-28T09:56:03Z</time>
 </trkpt>
 <trkpt lat="47.429070" lon="13.441722">
 <ele>890.88</ele>
 <time>2010-05-28T09:56:09Z</time>
 </trkpt>
 <trkpt lat="47.428780" lon="13.440956">
 <ele>889.14</ele>
 <time>2010-05-28T09:56:17Z</time>
 </trkpt>
 <trkpt lat="47.428589" lon="13.440228">
 <ele>887.52</ele>
 <time>2010-05-28T09:56:24Z</time>
 </trkpt>
 <trkpt lat="47.428497" lon="13.439564">
 <ele>886.73</ele>
 <time>2010-05-28T09:56:30Z</time>
 </trkpt>
 <trkpt lat="47.428513" lon="13.438793">
 <ele>885.83</ele>
 <time>2010-05-28T09:56:37Z</time>
 </trkpt>
 <trkpt lat="47.428539" lon="13.437715">
 <ele>883.70</ele>
 <time>2010-05-28T09:56:47Z</time>
 </trkpt>
 <trkpt lat="47.428570" lon="13.436502">
 <ele>881.75</ele>
 <time>2010-05-28T09:56:59Z</time>
 </trkpt>
 <trkpt lat="47.428593" lon="13.435492">
 <ele>880.01</ele>
 <time>2010-05-28T09:57:09Z</time>
 </trkpt>
 <trkpt lat="47.428623" lon="13.434285">
 <ele>878.22</ele>
 <time>2010-05-28T09:57:21Z</time>
 </trkpt>
 <trkpt lat="47.428539" lon="13.433280">
 <ele>876.21</ele>
 <time>2010-05-28T09:57:31Z</time>
 </trkpt>
 <trkpt lat="47.428444" lon="13.432187">
 <ele>874.67</ele>
 <time>2010-05-28T09:57:42Z</time>
 </trkpt>
 <trkpt lat="47.428326" lon="13.431080">
 <ele>872.70</ele>
 <time>2010-05-28T09:57:53Z</time>
 </trkpt>
 <trkpt lat="47.428169" lon="13.430196">
 <ele>871.22</ele>
 <time>2010-05-28T09:58:02Z</time>
 </trkpt>
 <trkpt lat="47.427925" lon="13.429227">
 <ele>870.11</ele>
 <time>2010-05-28T09:58:12Z</time>
 </trkpt>
 <trkpt lat="47.427528" lon="13.428034">
 <ele>867.47</ele>
 <time>2010-05-28T09:58:25Z</time>
 </trkpt>
 <trkpt lat="47.427303" lon="13.427220">
 <ele>866.07</ele>
 <time>2010-05-28T09:58:33Z</time>
 </trkpt>
 <trkpt lat="47.427200" lon="13.426531">
 <ele>864.69</ele>
 <time>2010-05-28T09:58:39Z</time>
 </trkpt>
 <trkpt lat="47.427101" lon="13.425583">
 <ele>862.73</ele>
 <time>2010-05-28T09:58:47Z</time>
 </trkpt>
 <trkpt lat="47.427006" lon="13.424789">
 <ele>861.32</ele>
 <time>2010-05-28T09:58:54Z</time>
 </trkpt>
 <trkpt lat="47.426800" lon="13.423791">
 <ele>859.42</ele>
 <time>2010-05-28T09:59:03Z</time>
 </trkpt>
 <trkpt lat="47.426525" lon="13.422668">
 <ele>856.90</ele>
 <time>2010-05-28T09:59:13Z</time>
 </trkpt>
 <trkpt lat="47.426395" lon="13.421974">
 <ele>855.32</ele>
 <time>2010-05-28T09:59:19Z</time>
 </trkpt>
 <trkpt lat="47.426331" lon="13.421057">
 <ele>854.87</ele>
 <time>2010-05-28T09:59:27Z</time>
 </trkpt>
 <trkpt lat="47.426235" lon="13.420015">
 <ele>852.22</ele>
 <time>2010-05-28T09:59:36Z</time>
 </trkpt>
 <trkpt lat="47.426128" lon="13.419079">
 <ele>850.40</ele>
 <time>2010-05-28T09:59:44Z</time>
 </trkpt>
 <trkpt lat="47.426048" lon="13.417949">
 <ele>848.67</ele>
 <time>2010-05-28T09:59:54Z</time>
 </trkpt>
 <trkpt lat="47.425964" lon="13.417424">
 <ele>848.68</ele>
 <time>2010-05-28T09:59:59Z</time>
 </trkpt>
 <trkpt lat="47.425793" lon="13.416959">
 <ele>847.83</ele>
 <time>2010-05-28T10:00:04Z</time>
 </trkpt>
 <trkpt lat="47.425377" lon="13.416441">
 <ele>846.60</ele>
 <time>2010-05-28T10:00:12Z</time>
 </trkpt>
 <trkpt lat="47.424988" lon="13.415859">
 <ele>845.57</ele>
 <time>2010-05-28T10:00:20Z</time>
 </trkpt>
 <trkpt lat="47.424660" lon="13.415181">
 <ele>844.35</ele>
 <time>2010-05-28T10:00:28Z</time>
 </trkpt>
 <trkpt lat="47.424454" lon="13.414482">
 <ele>843.34</ele>
 <time>2010-05-28T10:00:35Z</time>
 </trkpt>
 <trkpt lat="47.424286" lon="13.413599">
 <ele>841.10</ele>
 <time>2010-05-28T10:00:43Z</time>
 </trkpt>
 <trkpt lat="47.424114" lon="13.412387">
 <ele>839.16</ele>
 <time>2010-05-28T10:00:54Z</time>
 </trkpt>
 <trkpt lat="47.423946" lon="13.411400">
 <ele>837.54</ele>
 <time>2010-05-28T10:01:03Z</time>
 </trkpt>
 <trkpt lat="47.423641" lon="13.410332">
 <ele>833.59</ele>
 <time>2010-05-28T10:01:13Z</time>
 </trkpt>
 <trkpt lat="47.423302" lon="13.409337">
 <ele>831.95</ele>
 <time>2010-05-28T10:01:23Z</time>
 </trkpt>
 <trkpt lat="47.422890" lon="13.408322">
 <ele>830.60</ele>
 <time>2010-05-28T10:01:34Z</time>
 </trkpt>
 <trkpt lat="47.422554" lon="13.407437">
 <ele>829.34</ele>
 <time>2010-05-28T10:01:44Z</time>
 </trkpt>
 <trkpt lat="47.422207" lon="13.406430">
 <ele>828.12</ele>
 <time>2010-05-28T10:01:55Z</time>
 </trkpt>
 <trkpt lat="47.422031" lon="13.405977">
 <ele>827.17</ele>
 <time>2010-05-28T10:02:00Z</time>
 </trkpt>
 <trkpt lat="47.421619" lon="13.404997">
 <ele>825.94</ele>
 <time>2010-05-28T10:02:11Z</time>
 </trkpt>
 <trkpt lat="47.421211" lon="13.404248">
 <ele>824.65</ele>
 <time>2010-05-28T10:02:20Z</time>
 </trkpt>
 <trkpt lat="47.421120" lon="13.404078">
 <ele>824.29</ele>
 <time>2010-05-28T10:02:22Z</time>
 </trkpt>
 <trkpt lat="47.420788" lon="13.403343">
 <ele>822.81</ele>
 <time>2010-05-28T10:02:30Z</time>
 </trkpt>
 <trkpt lat="47.420601" lon="13.402738">
 <ele>821.39</ele>
 <time>2010-05-28T10:02:36Z</time>
 </trkpt>
 <trkpt lat="47.420437" lon="13.401881">
 <ele>820.59</ele>
 <time>2010-05-28T10:02:44Z</time>
 </trkpt>
 <trkpt lat="47.420166" lon="13.400858">
 <ele>818.52</ele>
 <time>2010-05-28T10:02:54Z</time>
 </trkpt>
 <trkpt lat="47.419964" lon="13.399969">
 <ele>816.98</ele>
 <time>2010-05-28T10:03:03Z</time>
 </trkpt>
 <trkpt lat="47.419685" lon="13.399287">
 <ele>815.69</ele>
 <time>2010-05-28T10:03:11Z</time>
 </trkpt>
 <trkpt lat="47.419411" lon="13.398793">
 <ele>815.87</ele>
 <time>2010-05-28T10:03:18Z</time>
 </trkpt>
 <trkpt lat="47.419113" lon="13.398364">
 <ele>816.15</ele>
 <time>2010-05-28T10:03:26Z</time>
 </trkpt>
 <trkpt lat="47.418880" lon="13.398136">
 <ele>817.46</ele>
 <time>2010-05-28T10:03:33Z</time>
 </trkpt>
 <trkpt lat="47.418659" lon="13.397919">
 <ele>819.42</ele>
 <time>2010-05-28T10:03:41Z</time>
 </trkpt>
 <trkpt lat="47.418438" lon="13.397702">
 <ele>821.41</ele>
 <time>2010-05-28T10:03:50Z</time>
 </trkpt>
 <trkpt lat="47.418232" lon="13.397491">
 <ele>823.27</ele>
 <time>2010-05-28T10:03:59Z</time>
 </trkpt>
 <trkpt lat="47.418060" lon="13.397279">
 <ele>825.62</ele>
 <time>2010-05-28T10:04:08Z</time>
 </trkpt>
 <trkpt lat="47.417892" lon="13.396946">
 <ele>828.48</ele>
 <time>2010-05-28T10:04:19Z</time>
 </trkpt>
 <trkpt lat="47.417805" lon="13.396633">
 <ele>830.58</ele>
 <time>2010-05-28T10:04:28Z</time>
 </trkpt>
 <trkpt lat="47.417728" lon="13.396320">
 <ele>832.53</ele>
 <time>2010-05-28T10:04:38Z</time>
 </trkpt>
 <trkpt lat="47.417660" lon="13.396020">
 <ele>834.41</ele>
 <time>2010-05-28T10:04:48Z</time>
 </trkpt>
 <trkpt lat="47.417576" lon="13.395766">
 <ele>836.49</ele>
 <time>2010-05-28T10:04:57Z</time>
 </trkpt>
 <trkpt lat="47.417477" lon="13.395592">
 <ele>838.12</ele>
 <time>2010-05-28T10:05:05Z</time>
 </trkpt>
 <trkpt lat="47.417362" lon="13.395394">
 <ele>839.38</ele>
 <time>2010-05-28T10:05:14Z</time>
 </trkpt>
 <trkpt lat="47.417252" lon="13.395198">
 <ele>841.29</ele>
 <time>2010-05-28T10:05:23Z</time>
 </trkpt>
 <trkpt lat="47.417107" lon="13.394949">
 <ele>843.26</ele>
 <time>2010-05-28T10:05:34Z</time>
 </trkpt>
 <trkpt lat="47.416988" lon="13.394726">
 <ele>844.61</ele>
 <time>2010-05-28T10:05:43Z</time>
 </trkpt>
 <trkpt lat="47.416901" lon="13.394448">
 <ele>846.14</ele>
 <time>2010-05-28T10:05:52Z</time>
 </trkpt>
 <trkpt lat="47.416821" lon="13.394169">
 <ele>847.74</ele>
 <time>2010-05-28T10:06:01Z</time>
 </trkpt>
 <trkpt lat="47.416744" lon="13.393840">
 <ele>848.96</ele>
 <time>2010-05-28T10:06:11Z</time>
 </trkpt>
 <trkpt lat="47.416676" lon="13.393556">
 <ele>850.25</ele>
 <time>2010-05-28T10:06:19Z</time>
 </trkpt>
 <trkpt lat="47.416561" lon="13.393223">
 <ele>850.70</ele>
 <time>2010-05-28T10:06:28Z</time>
 </trkpt>
 <trkpt lat="47.416420" lon="13.392806">
 <ele>851.26</ele>
 <time>2010-05-28T10:06:38Z</time>
 </trkpt>
 <trkpt lat="47.416283" lon="13.392406">
 <ele>851.42</ele>
 <time>2010-05-28T10:06:46Z</time>
 </trkpt>
 <trkpt lat="47.416176" lon="13.392098">
 <ele>850.85</ele>
 <time>2010-05-28T10:06:54Z</time>
 </trkpt>
 <trkpt lat="47.416004" lon="13.391626">
 <ele>850.25</ele>
 <time>2010-05-28T10:07:02Z</time>
 </trkpt>
 <trkpt lat="47.415752" lon="13.390676">
 <ele>849.63</ele>
 <time>2010-05-28T10:07:11Z</time>
 </trkpt>
 <trkpt lat="47.415573" lon="13.390248">
 <ele>849.01</ele>
 <time>2010-05-28T10:07:17Z</time>
 </trkpt>
 <trkpt lat="47.415226" lon="13.389931">
 <ele>848.10</ele>
 <time>2010-05-28T10:07:24Z</time>
 </trkpt>
 <trkpt lat="47.414883" lon="13.389751">
 <ele>847.28</ele>
 <time>2010-05-28T10:07:30Z</time>
 </trkpt>
 <trkpt lat="47.414375" lon="13.389555">
 <ele>846.04</ele>
 <time>2010-05-28T10:07:38Z</time>
 </trkpt>
 <trkpt lat="47.414246" lon="13.389502">
 <ele>845.75</ele>
 <time>2010-05-28T10:07:40Z</time>
 </trkpt>
 <trkpt lat="47.414013" lon="13.389330">
 <ele>845.25</ele>
 <time>2010-05-28T10:07:44Z</time>
 </trkpt>
 <trkpt lat="47.413883" lon="13.389156">
 <ele>844.73</ele>
 <time>2010-05-28T10:07:47Z</time>
 </trkpt>
 <trkpt lat="47.413979" lon="13.388886">
 <ele>844.62</ele>
 <time>2010-05-28T10:07:49Z</time>
 </trkpt>
 <trkpt lat="47.414360" lon="13.388357">
 <ele>842.91</ele>
 <time>2010-05-28T10:07:57Z</time>
 </trkpt>
 <trkpt lat="47.414406" lon="13.388291">
 <ele>842.88</ele>
 <time>2010-05-28T10:07:58Z</time>
 </trkpt>
 <trkpt lat="47.414700" lon="13.387820">
 <ele>842.60</ele>
 <time>2010-05-28T10:08:05Z</time>
 </trkpt>
 <trkpt lat="47.414959" lon="13.387203">
 <ele>843.04</ele>
 <time>2010-05-28T10:08:13Z</time>
 </trkpt>
 <trkpt lat="47.415150" lon="13.386425">
 <ele>842.56</ele>
 <time>2010-05-28T10:08:22Z</time>
 </trkpt>
 <trkpt lat="47.415310" lon="13.385567">
 <ele>841.48</ele>
 <time>2010-05-28T10:08:31Z</time>
 </trkpt>
 <trkpt lat="47.415497" lon="13.384600">
 <ele>837.76</ele>
 <time>2010-05-28T10:08:40Z</time>
 </trkpt>
 <trkpt lat="47.415634" lon="13.383902">
 <ele>834.85</ele>
 <time>2010-05-28T10:08:46Z</time>
 </trkpt>
 <trkpt lat="47.415882" lon="13.383066">
 <ele>832.04</ele>
 <time>2010-05-28T10:08:53Z</time>
 </trkpt>
 <trkpt lat="47.416264" lon="13.382153">
 <ele>828.70</ele>
 <time>2010-05-28T10:09:01Z</time>
 </trkpt>
 <trkpt lat="47.416565" lon="13.381484">
 <ele>826.03</ele>
 <time>2010-05-28T10:09:07Z</time>
 </trkpt>
 <trkpt lat="47.416962" lon="13.380636">
 <ele>820.89</ele>
 <time>2010-05-28T10:09:14Z</time>
 </trkpt>
 <trkpt lat="47.417214" lon="13.380149">
 <ele>832.80</ele>
 <time>2010-05-28T10:09:21Z</time>
 </trkpt>
 <trkpt lat="47.417617" lon="13.379175">
 <ele>830.16</ele>
 <time>2010-05-28T10:09:26Z</time>
 </trkpt>
 <trkpt lat="47.417786" lon="13.378425">
 <ele>818.62</ele>
 <time>2010-05-28T10:09:33Z</time>
 </trkpt>
 <trkpt lat="47.418270" lon="13.376043">
 <ele>792.10</ele>
 <time>2010-05-28T10:09:43Z</time>
 </trkpt>
 <trkpt lat="47.418255" lon="13.375825">
 <ele>810.69</ele>
 <time>2010-05-28T10:09:46Z</time>
 </trkpt>
 <trkpt lat="47.418541" lon="13.374557">
 <ele>800.00</ele>
 <time>2010-05-28T10:09:56Z</time>
 </trkpt>
 <trkpt lat="47.418752" lon="13.373572">
 <ele>800.00</ele>
 <time>2010-05-28T10:10:01Z</time>
 </trkpt>
 <trkpt lat="47.418989" lon="13.372803">
 <ele>802.39</ele>
 <time>2010-05-28T10:10:06Z</time>
 </trkpt>
 <trkpt lat="47.419590" lon="13.371591">
 <ele>773.66</ele>
 <time>2010-05-28T10:10:13Z</time>
 </trkpt>
 <trkpt lat="47.419910" lon="13.370946">
 <ele>772.75</ele>
 <time>2010-05-28T10:10:19Z</time>
 </trkpt>
 <trkpt lat="47.420227" lon="13.369999">
 <ele>770.69</ele>
 <time>2010-05-28T10:10:27Z</time>
 </trkpt>
 <trkpt lat="47.420513" lon="13.369072">
 <ele>769.22</ele>
 <time>2010-05-28T10:10:35Z</time>
 </trkpt>
 <trkpt lat="47.420765" lon="13.368108">
 <ele>768.88</ele>
 <time>2010-05-28T10:10:44Z</time>
 </trkpt>
 <trkpt lat="47.420952" lon="13.367315">
 <ele>768.85</ele>
 <time>2010-05-28T10:10:52Z</time>
 </trkpt>
 <trkpt lat="47.421021" lon="13.366608">
 <ele>768.90</ele>
 <time>2010-05-28T10:10:59Z</time>
 </trkpt>
 <trkpt lat="47.421055" lon="13.365749">
 <ele>768.04</ele>
 <time>2010-05-28T10:11:07Z</time>
 </trkpt>
 <trkpt lat="47.421070" lon="13.364626">
 <ele>766.49</ele>
 <time>2010-05-28T10:11:17Z</time>
 </trkpt>
 <trkpt lat="47.421070" lon="13.363318">
 <ele>763.94</ele>
 <time>2010-05-28T10:11:28Z</time>
 </trkpt>
 <trkpt lat="47.421043" lon="13.361670">
 <ele>761.58</ele>
 <time>2010-05-28T10:11:42Z</time>
 </trkpt>
 <trkpt lat="47.421032" lon="13.360035">
 <ele>759.20</ele>
 <time>2010-05-28T10:11:56Z</time>
 </trkpt>
 <trkpt lat="47.421043" lon="13.358466">
 <ele>757.23</ele>
 <time>2010-05-28T10:12:09Z</time>
 </trkpt>
 <trkpt lat="47.421043" lon="13.357142">
 <ele>755.05</ele>
 <time>2010-05-28T10:12:20Z</time>
 </trkpt>
 <trkpt lat="47.421032" lon="13.355606">
 <ele>752.39</ele>
 <time>2010-05-28T10:12:33Z</time>
 </trkpt>
 <trkpt lat="47.421040" lon="13.354193">
 <ele>750.78</ele>
 <time>2010-05-28T10:12:45Z</time>
 </trkpt>
 <trkpt lat="47.421078" lon="13.352597">
 <ele>747.94</ele>
 <time>2010-05-28T10:12:58Z</time>
 </trkpt>
 <trkpt lat="47.421089" lon="13.351011">
 <ele>746.16</ele>
 <time>2010-05-28T10:13:11Z</time>
 </trkpt>
 <trkpt lat="47.421055" lon="13.349528">
 <ele>744.24</ele>
 <time>2010-05-28T10:13:23Z</time>
 </trkpt>
 <trkpt lat="47.421162" lon="13.348916">
 <ele>743.09</ele>
 <time>2010-05-28T10:13:28Z</time>
 </trkpt>
 <trkpt lat="47.421360" lon="13.348386">
 <ele>742.78</ele>
 <time>2010-05-28T10:13:33Z</time>
 </trkpt>
 <trkpt lat="47.421589" lon="13.348034">
 <ele>742.65</ele>
 <time>2010-05-28T10:13:37Z</time>
 </trkpt>
 <trkpt lat="47.421772" lon="13.347495">
 <ele>742.19</ele>
 <time>2010-05-28T10:13:42Z</time>
 </trkpt>
 <trkpt lat="47.421684" lon="13.347035">
 <ele>741.23</ele>
 <time>2010-05-28T10:13:46Z</time>
 </trkpt>
 <trkpt lat="47.421673" lon="13.346587">
 <ele>740.71</ele>
 <time>2010-05-28T10:13:50Z</time>
 </trkpt>
 <trkpt lat="47.421680" lon="13.345890">
 <ele>740.02</ele>
 <time>2010-05-28T10:13:56Z</time>
 </trkpt>
 <trkpt lat="47.421818" lon="13.345096">
 <ele>738.18</ele>
 <time>2010-05-28T10:14:03Z</time>
 </trkpt>
 <trkpt lat="47.421864" lon="13.344878">
 <ele>737.41</ele>
 <time>2010-05-28T10:14:05Z</time>
 </trkpt>
 <trkpt lat="47.421833" lon="13.344305">
 <ele>736.22</ele>
 <time>2010-05-28T10:14:10Z</time>
 </trkpt>
 <trkpt lat="47.421715" lon="13.343127">
 <ele>734.79</ele>
 <time>2010-05-28T10:14:20Z</time>
 </trkpt>
 <trkpt lat="47.421597" lon="13.342386">
 <ele>735.72</ele>
 <time>2010-05-28T10:14:27Z</time>
 </trkpt>
 <trkpt lat="47.421612" lon="13.341791">
 <ele>736.88</ele>
 <time>2010-05-28T10:14:33Z</time>
 </trkpt>
 <trkpt lat="47.421707" lon="13.341152">
 <ele>737.67</ele>
 <time>2010-05-28T10:14:40Z</time>
 </trkpt>
 <trkpt lat="47.421803" lon="13.340625">
 <ele>737.68</ele>
 <time>2010-05-28T10:14:46Z</time>
 </trkpt>
 <trkpt lat="47.422100" lon="13.339975">
 <ele>737.57</ele>
 <time>2010-05-28T10:14:54Z</time>
 </trkpt>
 <trkpt lat="47.422482" lon="13.339118">
 <ele>736.07</ele>
 <time>2010-05-28T10:15:04Z</time>
 </trkpt>
 <trkpt lat="47.422684" lon="13.338428">
 <ele>734.67</ele>
 <time>2010-05-28T10:15:11Z</time>
 </trkpt>
 <trkpt lat="47.422752" lon="13.337801">
 <ele>733.98</ele>
 <time>2010-05-28T10:15:17Z</time>
 </trkpt>
 <trkpt lat="47.422714" lon="13.337053">
 <ele>732.90</ele>
 <time>2010-05-28T10:15:24Z</time>
 </trkpt>
 <trkpt lat="47.422562" lon="13.336306">
 <ele>731.68</ele>
 <time>2010-05-28T10:15:31Z</time>
 </trkpt>
 <trkpt lat="47.422371" lon="13.335710">
 <ele>730.54</ele>
 <time>2010-05-28T10:15:37Z</time>
 </trkpt>
 <trkpt lat="47.422138" lon="13.335029">
 <ele>729.06</ele>
 <time>2010-05-28T10:15:44Z</time>
 </trkpt>
 <trkpt lat="47.421932" lon="13.334304">
 <ele>727.61</ele>
 <time>2010-05-28T10:15:51Z</time>
 </trkpt>
 <trkpt lat="47.421837" lon="13.333525">
 <ele>726.67</ele>
 <time>2010-05-28T10:15:58Z</time>
 </trkpt>
 <trkpt lat="47.421841" lon="13.332460">
 <ele>725.87</ele>
 <time>2010-05-28T10:16:07Z</time>
 </trkpt>
 <trkpt lat="47.421753" lon="13.331757">
 <ele>724.68</ele>
 <time>2010-05-28T10:16:13Z</time>
 </trkpt>
 <trkpt lat="47.421577" lon="13.330982">
 <ele>722.90</ele>
 <time>2010-05-28T10:16:20Z</time>
 </trkpt>
 <trkpt lat="47.421356" lon="13.330367">
 <ele>721.78</ele>
 <time>2010-05-28T10:16:26Z</time>
 </trkpt>
 <trkpt lat="47.420921" lon="13.329764">
 <ele>720.52</ele>
 <time>2010-05-28T10:16:34Z</time>
 </trkpt>
 <trkpt lat="47.420441" lon="13.329093">
 <ele>718.91</ele>
 <time>2010-05-28T10:16:43Z</time>
 </trkpt>
 <trkpt lat="47.419834" lon="13.328270">
 <ele>716.93</ele>
 <time>2010-05-28T10:16:54Z</time>
 </trkpt>
 <trkpt lat="47.419132" lon="13.327193">
 <ele>713.85</ele>
 <time>2010-05-28T10:17:07Z</time>
 </trkpt>
 <trkpt lat="47.418854" lon="13.326640">
 <ele>712.44</ele>
 <time>2010-05-28T10:17:13Z</time>
 </trkpt>
 <trkpt lat="47.418530" lon="13.325914">
 <ele>712.09</ele>
 <time>2010-05-28T10:17:21Z</time>
 </trkpt>
 <trkpt lat="47.418098" lon="13.324962">
 <ele>711.66</ele>
 <time>2010-05-28T10:17:32Z</time>
 </trkpt>
 <trkpt lat="47.417694" lon="13.324081">
 <ele>710.04</ele>
 <time>2010-05-28T10:17:42Z</time>
 </trkpt>
 <trkpt lat="47.417252" lon="13.323068">
 <ele>708.67</ele>
 <time>2010-05-28T10:17:53Z</time>
 </trkpt>
 <trkpt lat="47.416924" lon="13.322173">
 <ele>706.68</ele>
 <time>2010-05-28T10:18:02Z</time>
 </trkpt>
 <trkpt lat="47.416580" lon="13.321035">
 <ele>704.85</ele>
 <time>2010-05-28T10:18:13Z</time>
 </trkpt>
 <trkpt lat="47.416378" lon="13.320324">
 <ele>704.49</ele>
 <time>2010-05-28T10:18:20Z</time>
 </trkpt>
 <trkpt lat="47.416100" lon="13.319359">
 <ele>704.83</ele>
 <time>2010-05-28T10:18:30Z</time>
 </trkpt>
 <trkpt lat="47.415905" lon="13.318810">
 <ele>704.81</ele>
 <time>2010-05-28T10:18:36Z</time>
 </trkpt>
 <trkpt lat="47.415592" lon="13.318428">
 <ele>704.85</ele>
 <time>2010-05-28T10:18:42Z</time>
 </trkpt>
 <trkpt lat="47.415249" lon="13.318053">
 <ele>703.96</ele>
 <time>2010-05-28T10:18:48Z</time>
 </trkpt>
 <trkpt lat="47.415054" lon="13.317779">
 <ele>703.03</ele>
 <time>2010-05-28T10:18:51Z</time>
 </trkpt>
 <trkpt lat="47.414902" lon="13.317204">
 <ele>701.22</ele>
 <time>2010-05-28T10:18:56Z</time>
 </trkpt>
 <trkpt lat="47.414772" lon="13.316392">
 <ele>700.54</ele>
 <time>2010-05-28T10:19:03Z</time>
 </trkpt>
 <trkpt lat="47.414665" lon="13.315649">
 <ele>700.32</ele>
 <time>2010-05-28T10:19:10Z</time>
 </trkpt>
 <trkpt lat="47.414482" lon="13.315101">
 <ele>700.07</ele>
 <time>2010-05-28T10:19:16Z</time>
 </trkpt>
 <trkpt lat="47.414448" lon="13.315005">
 <ele>699.95</ele>
 <time>2010-05-28T10:19:17Z</time>
 </trkpt>
 <trkpt lat="47.414406" lon="13.314580">
 <ele>698.95</ele>
 <time>2010-05-28T10:19:21Z</time>
 </trkpt>
 <trkpt lat="47.414455" lon="13.314229">
 <ele>698.24</ele>
 <time>2010-05-28T10:19:24Z</time>
 </trkpt>
 <trkpt lat="47.414555" lon="13.314041">
 <ele>697.74</ele>
 <time>2010-05-28T10:19:26Z</time>
 </trkpt>
 <trkpt lat="47.414761" lon="13.313713">
 <ele>697.23</ele>
 <time>2010-05-28T10:19:30Z</time>
 </trkpt>
 <trkpt lat="47.414902" lon="13.313236">
 <ele>696.60</ele>
 <time>2010-05-28T10:19:35Z</time>
 </trkpt>
 <trkpt lat="47.414860" lon="13.313066">
 <ele>696.43</ele>
 <time>2010-05-28T10:19:38Z</time>
 </trkpt>
 <trkpt lat="47.414757" lon="13.312812">
 <ele>696.62</ele>
 <time>2010-05-28T10:19:41Z</time>
 </trkpt>
 <trkpt lat="47.414467" lon="13.312328">
 <ele>696.42</ele>
 <time>2010-05-28T10:19:48Z</time>
 </trkpt>
 <trkpt lat="47.414276" lon="13.311998">
 <ele>695.95</ele>
 <time>2010-05-28T10:19:52Z</time>
 </trkpt>
 <trkpt lat="47.414188" lon="13.311468">
 <ele>694.84</ele>
 <time>2010-05-28T10:19:57Z</time>
 </trkpt>
 <trkpt lat="47.414196" lon="13.311123">
 <ele>693.71</ele>
 <time>2010-05-28T10:20:00Z</time>
 </trkpt>
 <trkpt lat="47.414307" lon="13.310084">
 <ele>691.92</ele>
 <time>2010-05-28T10:20:09Z</time>
 </trkpt>
 <trkpt lat="47.414486" lon="13.309758">
 <ele>691.10</ele>
 <time>2010-05-28T10:20:13Z</time>
 </trkpt>
 <trkpt lat="47.414967" lon="13.309162">
 <ele>688.70</ele>
 <time>2010-05-28T10:20:21Z</time>
 </trkpt>
 <trkpt lat="47.415497" lon="13.308437">
 <ele>686.50</ele>
 <time>2010-05-28T10:20:30Z</time>
 </trkpt>
 <trkpt lat="47.415703" lon="13.307944">
 <ele>685.22</ele>
 <time>2010-05-28T10:20:35Z</time>
 </trkpt>
 <trkpt lat="47.415970" lon="13.307139">
 <ele>684.09</ele>
 <time>2010-05-28T10:20:43Z</time>
 </trkpt>
 <trkpt lat="47.416126" lon="13.306475">
 <ele>683.84</ele>
 <time>2010-05-28T10:20:50Z</time>
 </trkpt>
 <trkpt lat="47.416283" lon="13.306104">
 <ele>683.31</ele>
 <time>2010-05-28T10:20:54Z</time>
 </trkpt>
 <trkpt lat="47.416546" lon="13.305762">
 <ele>682.16</ele>
 <time>2010-05-28T10:20:59Z</time>
 </trkpt>
 <trkpt lat="47.417149" lon="13.305411">
 <ele>681.41</ele>
 <time>2010-05-28T10:21:08Z</time>
 </trkpt>
 <trkpt lat="47.417606" lon="13.305051">
 <ele>680.47</ele>
 <time>2010-05-28T10:21:15Z</time>
 </trkpt>
 <trkpt lat="47.418083" lon="13.304406">
 <ele>678.24</ele>
 <time>2010-05-28T10:21:24Z</time>
 </trkpt>
 <trkpt lat="47.418503" lon="13.303628">
 <ele>676.85</ele>
 <time>2010-05-28T10:21:33Z</time>
 </trkpt>
 <trkpt lat="47.418613" lon="13.303357">
 <ele>676.22</ele>
 <time>2010-05-28T10:21:37Z</time>
 </trkpt>
 <trkpt lat="47.418705" lon="13.302718">
 <ele>674.88</ele>
 <time>2010-05-28T10:21:42Z</time>
 </trkpt>
 <trkpt lat="47.418892" lon="13.302379">
 <ele>673.95</ele>
 <time>2010-05-28T10:21:46Z</time>
 </trkpt>
 <trkpt lat="47.419003" lon="13.302213">
 <ele>673.43</ele>
 <time>2010-05-28T10:21:48Z</time>
 </trkpt>
 <trkpt lat="47.419540" lon="13.301571">
 <ele>672.15</ele>
 <time>2010-05-28T10:21:57Z</time>
 </trkpt>
 <trkpt lat="47.419743" lon="13.301086">
 <ele>671.29</ele>
 <time>2010-05-28T10:22:02Z</time>
 </trkpt>
 <trkpt lat="47.419827" lon="13.300691">
 <ele>670.54</ele>
 <time>2010-05-28T10:22:06Z</time>
 </trkpt>
 <trkpt lat="47.419922" lon="13.300005">
 <ele>669.40</ele>
 <time>2010-05-28T10:22:12Z</time>
 </trkpt>
 <trkpt lat="47.420200" lon="13.299568">
 <ele>668.17</ele>
 <time>2010-05-28T10:22:17Z</time>
 </trkpt>
 <trkpt lat="47.420258" lon="13.299492">
 <ele>668.09</ele>
 <time>2010-05-28T10:22:18Z</time>
 </trkpt>
 <trkpt lat="47.420902" lon="13.298697">
 <ele>667.04</ele>
 <time>2010-05-28T10:22:29Z</time>
 </trkpt>
 <trkpt lat="47.421097" lon="13.298290">
 <ele>666.49</ele>
 <time>2010-05-28T10:22:34Z</time>
 </trkpt>
 <trkpt lat="47.421276" lon="13.297649">
 <ele>665.55</ele>
 <time>2010-05-28T10:22:41Z</time>
 </trkpt>
 <trkpt lat="47.421410" lon="13.296828">
 <ele>664.38</ele>
 <time>2010-05-28T10:22:49Z</time>
 </trkpt>
 <trkpt lat="47.421558" lon="13.295888">
 <ele>663.37</ele>
 <time>2010-05-28T10:22:58Z</time>
 </trkpt>
 <trkpt lat="47.421623" lon="13.295555">
 <ele>663.06</ele>
 <time>2010-05-28T10:23:01Z</time>
 </trkpt>
 <trkpt lat="47.421860" lon="13.295168">
 <ele>662.02</ele>
 <time>2010-05-28T10:23:05Z</time>
 </trkpt>
 <trkpt lat="47.422020" lon="13.295180">
 <ele>661.62</ele>
 <time>2010-05-28T10:23:07Z</time>
 </trkpt>
 <trkpt lat="47.422436" lon="13.295401">
 <ele>660.77</ele>
 <time>2010-05-28T10:23:13Z</time>
 </trkpt>
 <trkpt lat="47.422859" lon="13.295378">
 <ele>660.66</ele>
 <time>2010-05-28T10:23:18Z</time>
 </trkpt>
 <trkpt lat="47.423100" lon="13.295135">
 <ele>659.92</ele>
 <time>2010-05-28T10:23:22Z</time>
 </trkpt>
 <trkpt lat="47.423214" lon="13.294858">
 <ele>659.59</ele>
 <time>2010-05-28T10:23:25Z</time>
 </trkpt>
 <trkpt lat="47.423233" lon="13.294550">
 <ele>659.23</ele>
 <time>2010-05-28T10:23:28Z</time>
 </trkpt>
 <trkpt lat="47.423244" lon="13.294319">
 <ele>658.88</ele>
 <time>2010-05-28T10:23:30Z</time>
 </trkpt>
 <trkpt lat="47.423351" lon="13.293908">
 <ele>658.02</ele>
 <time>2010-05-28T10:23:34Z</time>
 </trkpt>
 <trkpt lat="47.423454" lon="13.293740">
 <ele>657.89</ele>
 <time>2010-05-28T10:23:36Z</time>
 </trkpt>
 <trkpt lat="47.423653" lon="13.293273">
 <ele>656.88</ele>
 <time>2010-05-28T10:23:41Z</time>
 </trkpt>
 <trkpt lat="47.423676" lon="13.293160">
 <ele>656.65</ele>
 <time>2010-05-28T10:23:42Z</time>
 </trkpt>
 <trkpt lat="47.423775" lon="13.292806">
 <ele>655.86</ele>
 <time>2010-05-28T10:23:45Z</time>
 </trkpt>
 <trkpt lat="47.424019" lon="13.292201">
 <ele>654.79</ele>
 <time>2010-05-28T10:23:51Z</time>
 </trkpt>
 <trkpt lat="47.424400" lon="13.291557">
 <ele>652.82</ele>
 <time>2010-05-28T10:23:58Z</time>
 </trkpt>
 <trkpt lat="47.424679" lon="13.291032">
 <ele>652.45</ele>
 <time>2010-05-28T10:24:03Z</time>
 </trkpt>
 <trkpt lat="47.424862" lon="13.290190">
 <ele>650.47</ele>
 <time>2010-05-28T10:24:11Z</time>
 </trkpt>
 <trkpt lat="47.424995" lon="13.289302">
 <ele>649.56</ele>
 <time>2010-05-28T10:24:19Z</time>
 </trkpt>
 <trkpt lat="47.424995" lon="13.288715">
 <ele>649.16</ele>
 <time>2010-05-28T10:24:25Z</time>
 </trkpt>
 <trkpt lat="47.424870" lon="13.288225">
 <ele>648.65</ele>
 <time>2010-05-28T10:24:30Z</time>
 </trkpt>
 <trkpt lat="47.424740" lon="13.287560">
 <ele>648.22</ele>
 <time>2010-05-28T10:24:36Z</time>
 </trkpt>
 <trkpt lat="47.424820" lon="13.286860">
 <ele>646.94</ele>
 <time>2010-05-28T10:24:41Z</time>
 </trkpt>
 <trkpt lat="47.424892" lon="13.286652">
 <ele>646.53</ele>
 <time>2010-05-28T10:24:43Z</time>
 </trkpt>
 <trkpt lat="47.425247" lon="13.285570">
 <ele>644.90</ele>
 <time>2010-05-28T10:24:53Z</time>
 </trkpt>
 <trkpt lat="47.425594" lon="13.284446">
 <ele>643.81</ele>
 <time>2010-05-28T10:25:04Z</time>
 </trkpt>
 <trkpt lat="47.425945" lon="13.283321">
 <ele>643.66</ele>
 <time>2010-05-28T10:25:15Z</time>
 </trkpt>
 <trkpt lat="47.426086" lon="13.282800">
 <ele>642.17</ele>
 <time>2010-05-28T10:25:20Z</time>
 </trkpt>
 <trkpt lat="47.426121" lon="13.282346">
 <ele>640.27</ele>
 <time>2010-05-28T10:25:24Z</time>
 </trkpt>
 <trkpt lat="47.426128" lon="13.282133">
 <ele>638.97</ele>
 <time>2010-05-28T10:25:26Z</time>
 </trkpt>
 <trkpt lat="47.426151" lon="13.281805">
 <ele>638.24</ele>
 <time>2010-05-28T10:25:28Z</time>
 </trkpt>
 <trkpt lat="47.426235" lon="13.281467">
 <ele>638.14</ele>
 <time>2010-05-28T10:25:31Z</time>
 </trkpt>
 <trkpt lat="47.426434" lon="13.281316">
 <ele>637.83</ele>
 <time>2010-05-28T10:25:34Z</time>
 </trkpt>
 <trkpt lat="47.427147" lon="13.281014">
 <ele>637.85</ele>
 <time>2010-05-28T10:25:43Z</time>
 </trkpt>
 <trkpt lat="47.427479" lon="13.280739">
 <ele>637.23</ele>
 <time>2010-05-28T10:25:48Z</time>
 </trkpt>
 <trkpt lat="47.427761" lon="13.280347">
 <ele>636.17</ele>
 <time>2010-05-28T10:25:53Z</time>
 </trkpt>
 <trkpt lat="47.427948" lon="13.279857">
 <ele>634.26</ele>
 <time>2010-05-28T10:25:58Z</time>
 </trkpt>
 <trkpt lat="47.428394" lon="13.278750">
 <ele>632.16</ele>
 <time>2010-05-28T10:26:09Z</time>
 </trkpt>
 <trkpt lat="47.428497" lon="13.278319">
 <ele>631.66</ele>
 <time>2010-05-28T10:26:13Z</time>
 </trkpt>
 <trkpt lat="47.428635" lon="13.277763">
 <ele>630.68</ele>
 <time>2010-05-28T10:26:18Z</time>
 </trkpt>
 <trkpt lat="47.428661" lon="13.277650">
 <ele>630.34</ele>
 <time>2010-05-28T10:26:19Z</time>
 </trkpt>
 <trkpt lat="47.428875" lon="13.277230">
 <ele>629.21</ele>
 <time>2010-05-28T10:26:23Z</time>
 </trkpt>
 <trkpt lat="47.429077" lon="13.277044">
 <ele>628.78</ele>
 <time>2010-05-28T10:26:26Z</time>
 </trkpt>
 <trkpt lat="47.429573" lon="13.276612">
 <ele>627.93</ele>
 <time>2010-05-28T10:26:33Z</time>
 </trkpt>
 <trkpt lat="47.429981" lon="13.276038">
 <ele>626.56</ele>
 <time>2010-05-28T10:26:40Z</time>
 </trkpt>
 <trkpt lat="47.430061" lon="13.275854">
 <ele>626.41</ele>
 <time>2010-05-28T10:26:42Z</time>
 </trkpt>
 <trkpt lat="47.430061" lon="13.275545">
 <ele>626.02</ele>
 <time>2010-05-28T10:26:45Z</time>
 </trkpt>
 <trkpt lat="47.430038" lon="13.275164">
 <ele>625.36</ele>
 <time>2010-05-28T10:26:49Z</time>
 </trkpt>
 <trkpt lat="47.430012" lon="13.275062">
 <ele>625.20</ele>
 <time>2010-05-28T10:26:50Z</time>
 </trkpt>
 <trkpt lat="47.429855" lon="13.274521">
 <ele>624.16</ele>
 <time>2010-05-28T10:26:55Z</time>
 </trkpt>
 <trkpt lat="47.429829" lon="13.273897">
 <ele>623.29</ele>
 <time>2010-05-28T10:27:00Z</time>
 </trkpt>
 <trkpt lat="47.429840" lon="13.273665">
 <ele>623.02</ele>
 <time>2010-05-28T10:27:02Z</time>
 </trkpt>
 <trkpt lat="47.429863" lon="13.272912">
 <ele>622.30</ele>
 <time>2010-05-28T10:27:09Z</time>
 </trkpt>
 <trkpt lat="47.429848" lon="13.272176">
 <ele>621.66</ele>
 <time>2010-05-28T10:27:16Z</time>
 </trkpt>
 <trkpt lat="47.429867" lon="13.271851">
 <ele>621.57</ele>
 <time>2010-05-28T10:27:19Z</time>
 </trkpt>
 <trkpt lat="47.429970" lon="13.270998">
 <ele>620.84</ele>
 <time>2010-05-28T10:27:27Z</time>
 </trkpt>
 <trkpt lat="47.430111" lon="13.270120">
 <ele>620.32</ele>
 <time>2010-05-28T10:27:36Z</time>
 </trkpt>
 <trkpt lat="47.430126" lon="13.269639">
 <ele>619.56</ele>
 <time>2010-05-28T10:27:41Z</time>
 </trkpt>
 <trkpt lat="47.430046" lon="13.269131">
 <ele>619.34</ele>
 <time>2010-05-28T10:27:46Z</time>
 </trkpt>
 <trkpt lat="47.429947" lon="13.268434">
 <ele>618.44</ele>
 <time>2010-05-28T10:27:53Z</time>
 </trkpt>
 <trkpt lat="47.429932" lon="13.268333">
 <ele>618.30</ele>
 <time>2010-05-28T10:27:54Z</time>
 </trkpt>
 <trkpt lat="47.429897" lon="13.267653">
 <ele>618.43</ele>
 <time>2010-05-28T10:28:00Z</time>
 </trkpt>
 <trkpt lat="47.429932" lon="13.267359">
 <ele>618.66</ele>
 <time>2010-05-28T10:28:03Z</time>
 </trkpt>
 <trkpt lat="47.430092" lon="13.266915">
 <ele>618.57</ele>
 <time>2010-05-28T10:28:08Z</time>
 </trkpt>
 <trkpt lat="47.430176" lon="13.266745">
 <ele>617.90</ele>
 <time>2010-05-28T10:28:10Z</time>
 </trkpt>
 <trkpt lat="47.430309" lon="13.266480">
 <ele>616.63</ele>
 <time>2010-05-28T10:28:13Z</time>
 </trkpt>
 <trkpt lat="47.430508" lon="13.266011">
 <ele>614.42</ele>
 <time>2010-05-28T10:28:18Z</time>
 </trkpt>
 <trkpt lat="47.430542" lon="13.265577">
 <ele>612.35</ele>
 <time>2010-05-28T10:28:22Z</time>
 </trkpt>
 <trkpt lat="47.430519" lon="13.265317">
 <ele>611.29</ele>
 <time>2010-05-28T10:28:24Z</time>
 </trkpt>
 <trkpt lat="47.430485" lon="13.264909">
 <ele>609.59</ele>
 <time>2010-05-28T10:28:27Z</time>
 </trkpt>
 <trkpt lat="47.430408" lon="13.264074">
 <ele>606.78</ele>
 <time>2010-05-28T10:28:33Z</time>
 </trkpt>
 <trkpt lat="47.430298" lon="13.263426">
 <ele>606.06</ele>
 <time>2010-05-28T10:28:38Z</time>
 </trkpt>
 <trkpt lat="47.430164" lon="13.262735">
 <ele>605.06</ele>
 <time>2010-05-28T10:28:44Z</time>
 </trkpt>
 <trkpt lat="47.430058" lon="13.262189">
 <ele>604.90</ele>
 <time>2010-05-28T10:28:49Z</time>
 </trkpt>
 <trkpt lat="47.430058" lon="13.261586">
 <ele>604.27</ele>
 <time>2010-05-28T10:28:54Z</time>
 </trkpt>
 <trkpt lat="47.430187" lon="13.260701">
 <ele>602.59</ele>
 <time>2010-05-28T10:29:02Z</time>
 </trkpt>
 <trkpt lat="47.430374" lon="13.259586">
 <ele>600.94</ele>
 <time>2010-05-28T10:29:12Z</time>
 </trkpt>
 <trkpt lat="47.430477" lon="13.258506">
 <ele>599.92</ele>
 <time>2010-05-28T10:29:22Z</time>
 </trkpt>
 <trkpt lat="47.430500" lon="13.257614">
 <ele>599.46</ele>
 <time>2010-05-28T10:29:30Z</time>
 </trkpt>
 <trkpt lat="47.430534" lon="13.256458">
 <ele>597.67</ele>
 <time>2010-05-28T10:29:40Z</time>
 </trkpt>
 <trkpt lat="47.430603" lon="13.255396">
 <ele>595.48</ele>
 <time>2010-05-28T10:29:49Z</time>
 </trkpt>
 <trkpt lat="47.430740" lon="13.254630">
 <ele>594.92</ele>
 <time>2010-05-28T10:29:56Z</time>
 </trkpt>
 <trkpt lat="47.431026" lon="13.253687">
 <ele>594.14</ele>
 <time>2010-05-28T10:30:05Z</time>
 </trkpt>
 <trkpt lat="47.431301" lon="13.252878">
 <ele>592.42</ele>
 <time>2010-05-28T10:30:13Z</time>
 </trkpt>
 <trkpt lat="47.431477" lon="13.252017">
 <ele>591.29</ele>
 <time>2010-05-28T10:30:21Z</time>
 </trkpt>
 <trkpt lat="47.431625" lon="13.251266">
 <ele>590.58</ele>
 <time>2010-05-28T10:30:28Z</time>
 </trkpt>
 <trkpt lat="47.431587" lon="13.250093">
 <ele>589.49</ele>
 <time>2010-05-28T10:30:38Z</time>
 </trkpt>
 <trkpt lat="47.431545" lon="13.249165">
 <ele>589.08</ele>
 <time>2010-05-28T10:30:46Z</time>
 </trkpt>
 <trkpt lat="47.431385" lon="13.248595">
 <ele>588.36</ele>
 <time>2010-05-28T10:30:52Z</time>
 </trkpt>
 <trkpt lat="47.431015" lon="13.247552">
 <ele>587.11</ele>
 <time>2010-05-28T10:31:02Z</time>
 </trkpt>
 <trkpt lat="47.430763" lon="13.246811">
 <ele>585.53</ele>
 <time>2010-05-28T10:31:09Z</time>
 </trkpt>
 <trkpt lat="47.430668" lon="13.246175">
 <ele>585.06</ele>
 <time>2010-05-28T10:31:14Z</time>
 </trkpt>
 <trkpt lat="47.430664" lon="13.245532">
 <ele>583.30</ele>
 <time>2010-05-28T10:31:19Z</time>
 </trkpt>
 <trkpt lat="47.430725" lon="13.244523">
 <ele>582.89</ele>
 <time>2010-05-28T10:31:28Z</time>
 </trkpt>
 <trkpt lat="47.430763" lon="13.243441">
 <ele>582.38</ele>
 <time>2010-05-28T10:31:38Z</time>
 </trkpt>
 <trkpt lat="47.430798" lon="13.242242">
 <ele>581.07</ele>
 <time>2010-05-28T10:31:49Z</time>
 </trkpt>
 <trkpt lat="47.430893" lon="13.241582">
 <ele>580.55</ele>
 <time>2010-05-28T10:31:55Z</time>
 </trkpt>
 <trkpt lat="47.431171" lon="13.241008">
 <ele>579.46</ele>
 <time>2010-05-28T10:32:01Z</time>
 </trkpt>
 <trkpt lat="47.431519" lon="13.240519">
 <ele>578.68</ele>
 <time>2010-05-28T10:32:07Z</time>
 </trkpt>
 <trkpt lat="47.432060" lon="13.239846">
 <ele>577.55</ele>
 <time>2010-05-28T10:32:16Z</time>
 </trkpt>
 <trkpt lat="47.432297" lon="13.239396">
 <ele>576.43</ele>
 <time>2010-05-28T10:32:21Z</time>
 </trkpt>
 <trkpt lat="47.432442" lon="13.238852">
 <ele>575.41</ele>
 <time>2010-05-28T10:32:26Z</time>
 </trkpt>
 <trkpt lat="47.432648" lon="13.237819">
 <ele>574.26</ele>
 <time>2010-05-28T10:32:35Z</time>
 </trkpt>
 <trkpt lat="47.432739" lon="13.236716">
 <ele>574.10</ele>
 <time>2010-05-28T10:32:45Z</time>
 </trkpt>
 <trkpt lat="47.432831" lon="13.235635">
 <ele>573.01</ele>
 <time>2010-05-28T10:32:55Z</time>
 </trkpt>
 <trkpt lat="47.432972" lon="13.234573">
 <ele>571.51</ele>
 <time>2010-05-28T10:33:05Z</time>
 </trkpt>
 <trkpt lat="47.433147" lon="13.233719">
 <ele>570.41</ele>
 <time>2010-05-28T10:33:13Z</time>
 </trkpt>
 <trkpt lat="47.433384" lon="13.232703">
 <ele>569.70</ele>
 <time>2010-05-28T10:33:23Z</time>
 </trkpt>
 <trkpt lat="47.433517" lon="13.231933">
 <ele>568.68</ele>
 <time>2010-05-28T10:33:30Z</time>
 </trkpt>
 <trkpt lat="47.433659" lon="13.231150">
 <ele>567.37</ele>
 <time>2010-05-28T10:33:37Z</time>
 </trkpt>
 <trkpt lat="47.433777" lon="13.230634">
 <ele>567.02</ele>
 <time>2010-05-28T10:33:42Z</time>
 </trkpt>
 <trkpt lat="47.433830" lon="13.230454">
 <ele>566.43</ele>
 <time>2010-05-28T10:33:44Z</time>
 </trkpt>
 <trkpt lat="47.433983" lon="13.230124">
 <ele>565.46</ele>
 <time>2010-05-28T10:33:48Z</time>
 </trkpt>
 <trkpt lat="47.434151" lon="13.230013">
 <ele>565.16</ele>
 <time>2010-05-28T10:33:51Z</time>
 </trkpt>
 <trkpt lat="47.434380" lon="13.229879">
 <ele>565.15</ele>
 <time>2010-05-28T10:33:55Z</time>
 </trkpt>
 <trkpt lat="47.434719" lon="13.229611">
 <ele>564.67</ele>
 <time>2010-05-28T10:34:01Z</time>
 </trkpt>
 <trkpt lat="47.435024" lon="13.229131">
 <ele>563.77</ele>
 <time>2010-05-28T10:34:08Z</time>
 </trkpt>
 <trkpt lat="47.435074" lon="13.228763">
 <ele>562.76</ele>
 <time>2010-05-28T10:34:13Z</time>
 </trkpt>
 <trkpt lat="47.435101" lon="13.228462">
 <ele>562.10</ele>
 <time>2010-05-28T10:34:16Z</time>
 </trkpt>
 <trkpt lat="47.435196" lon="13.228021">
 <ele>561.18</ele>
 <time>2010-05-28T10:34:20Z</time>
 </trkpt>
 <trkpt lat="47.435345" lon="13.227662">
 <ele>560.24</ele>
 <time>2010-05-28T10:34:24Z</time>
 </trkpt>
 <trkpt lat="47.435566" lon="13.227347">
 <ele>559.22</ele>
 <time>2010-05-28T10:34:28Z</time>
 </trkpt>
 <trkpt lat="47.435619" lon="13.227272">
 <ele>559.07</ele>
 <time>2010-05-28T10:34:29Z</time>
 </trkpt>
 <trkpt lat="47.435768" lon="13.227058">
 <ele>558.80</ele>
 <time>2010-05-28T10:34:32Z</time>
 </trkpt>
 <trkpt lat="47.435959" lon="13.226673">
 <ele>558.82</ele>
 <time>2010-05-28T10:34:37Z</time>
 </trkpt>
 <trkpt lat="47.435989" lon="13.226576">
 <ele>558.56</ele>
 <time>2010-05-28T10:34:38Z</time>
 </trkpt>
 <trkpt lat="47.436081" lon="13.226286">
 <ele>557.72</ele>
 <time>2010-05-28T10:34:41Z</time>
 </trkpt>
 <trkpt lat="47.436295" lon="13.225819">
 <ele>556.69</ele>
 <time>2010-05-28T10:34:46Z</time>
 </trkpt>
 <trkpt lat="47.436508" lon="13.225367">
 <ele>555.86</ele>
 <time>2010-05-28T10:34:51Z</time>
 </trkpt>
 <trkpt lat="47.436638" lon="13.225010">
 <ele>555.41</ele>
 <time>2010-05-28T10:34:55Z</time>
 </trkpt>
 <trkpt lat="47.436611" lon="13.224715">
 <ele>555.19</ele>
 <time>2010-05-28T10:34:58Z</time>
 </trkpt>
 <trkpt lat="47.436432" lon="13.223727">
 <ele>553.18</ele>
 <time>2010-05-28T10:35:06Z</time>
 </trkpt>
 <trkpt lat="47.436512" lon="13.223267">
 <ele>552.32</ele>
 <time>2010-05-28T10:35:10Z</time>
 </trkpt>
 <trkpt lat="47.436825" lon="13.221963">
 <ele>548.76</ele>
 <time>2010-05-28T10:35:21Z</time>
 </trkpt>
 <trkpt lat="47.436859" lon="13.221614">
 <ele>547.86</ele>
 <time>2010-05-28T10:35:24Z</time>
 </trkpt>
 <trkpt lat="47.436768" lon="13.221021">
 <ele>546.66</ele>
 <time>2010-05-28T10:35:29Z</time>
 </trkpt>
 <trkpt lat="47.436749" lon="13.220898">
 <ele>546.29</ele>
 <time>2010-05-28T10:35:30Z</time>
 </trkpt>
 <trkpt lat="47.436516" lon="13.219860">
 <ele>542.75</ele>
 <time>2010-05-28T10:35:39Z</time>
 </trkpt>
 <trkpt lat="47.436359" lon="13.218795">
 <ele>539.93</ele>
 <time>2010-05-28T10:35:48Z</time>
 </trkpt>
 <trkpt lat="47.436310" lon="13.217800">
 <ele>537.02</ele>
 <time>2010-05-28T10:35:56Z</time>
 </trkpt>
 <trkpt lat="47.436306" lon="13.216876">
 <ele>535.60</ele>
 <time>2010-05-28T10:36:04Z</time>
 </trkpt>
 <trkpt lat="47.436344" lon="13.216200">
 <ele>534.52</ele>
 <time>2010-05-28T10:36:10Z</time>
 </trkpt>
 <trkpt lat="47.436241" lon="13.215548">
 <ele>533.32</ele>
 <time>2010-05-28T10:36:16Z</time>
 </trkpt>
 <trkpt lat="47.436157" lon="13.214564">
 <ele>532.91</ele>
 <time>2010-05-28T10:36:25Z</time>
 </trkpt>
 <trkpt lat="47.436134" lon="13.213786">
 <ele>533.87</ele>
 <time>2010-05-28T10:36:33Z</time>
 </trkpt>
 <trkpt lat="47.436226" lon="13.213210">
 <ele>535.19</ele>
 <time>2010-05-28T10:36:40Z</time>
 </trkpt>
 <trkpt lat="47.436359" lon="13.212504">
 <ele>537.08</ele>
 <time>2010-05-28T10:36:50Z</time>
 </trkpt>
 <trkpt lat="47.436535" lon="13.211701">
 <ele>538.29</ele>
 <time>2010-05-28T10:37:01Z</time>
 </trkpt>
 <trkpt lat="47.436710" lon="13.211188">
 <ele>539.15</ele>
 <time>2010-05-28T10:37:09Z</time>
 </trkpt>
 <trkpt lat="47.436886" lon="13.210652">
 <ele>539.24</ele>
 <time>2010-05-28T10:37:21Z</time>
 </trkpt>
 <trkpt lat="47.437065" lon="13.210062">
 <ele>539.11</ele>
 <time>2010-05-28T10:37:24Z</time>
 </trkpt>
 <trkpt lat="47.437092" lon="13.209876">
 <ele>539.03</ele>
 <time>2010-05-28T10:37:27Z</time>
 </trkpt>
 <trkpt lat="47.437092" lon="13.209561">
 <ele>539.38</ele>
 <time>2010-05-28T10:37:33Z</time>
 </trkpt>
 <trkpt lat="47.437073" lon="13.209427">
 <ele>539.95</ele>
 <time>2010-05-28T10:37:37Z</time>
 </trkpt>
 <trkpt lat="47.437069" lon="13.209410">
 <ele>539.90</ele>
 <time>2010-05-28T10:37:40Z</time>
 </trkpt>
 <trkpt lat="47.436993" lon="13.209540">
 <ele>539.13</ele>
 <time>2010-05-28T10:37:54Z</time>
 </trkpt>
 <trkpt lat="47.437088" lon="13.209524">
 <ele>539.13</ele>
 <time>2010-05-28T10:37:56Z</time>
 </trkpt>
 <trkpt lat="47.437099" lon="13.209728">
 <ele>537.10</ele>
 <time>2010-05-28T10:37:59Z</time>
 </trkpt>
 <trkpt lat="47.437012" lon="13.210243">
 <ele>532.74</ele>
 <time>2010-05-28T10:38:04Z</time>
 </trkpt>
 <trkpt lat="47.436989" lon="13.210321">
 <ele>531.71</ele>
 <time>2010-05-28T10:38:05Z</time>
 </trkpt>
 <trkpt lat="47.436913" lon="13.210561">
 <ele>528.41</ele>
 <time>2010-05-28T10:38:08Z</time>
 </trkpt>
 <trkpt lat="47.436886" lon="13.210652">
 <ele>525.88</ele>
 <time>2010-05-28T10:38:12Z</time>
 </trkpt>
 <trkpt lat="47.435860" lon="13.210730">
 <ele>526.52</ele>
 <time>2010-05-28T10:38:18Z</time>
 </trkpt>
 <trkpt lat="47.435463" lon="13.210836">
 <ele>526.46</ele>
 <time>2010-05-28T10:38:25Z</time>
 </trkpt>
 <trkpt lat="47.434887" lon="13.209828">
 <ele>526.73</ele>
 <time>2010-05-28T10:38:33Z</time>
 </trkpt>
 <trkpt lat="47.434582" lon="13.209948">
 <ele>526.72</ele>
 <time>2010-05-28T10:38:39Z</time>
 </trkpt>
 <trkpt lat="47.434425" lon="13.210009">
 <ele>526.93</ele>
 <time>2010-05-28T10:38:42Z</time>
 </trkpt>
 <trkpt lat="47.434322" lon="13.211452">
 <ele>526.85</ele>
 <time>2010-05-28T10:38:48Z</time>
 </trkpt>
 <trkpt lat="47.434151" lon="13.211869">
 <ele>526.77</ele>
 <time>2010-05-28T10:38:54Z</time>
 </trkpt>
 <trkpt lat="47.433903" lon="13.212491">
 <ele>526.85</ele>
 <time>2010-05-28T10:39:03Z</time>
 </trkpt>
 <trkpt lat="47.433643" lon="13.213026">
 <ele>526.86</ele>
 <time>2010-05-28T10:39:11Z</time>
 </trkpt>
 <trkpt lat="47.433392" lon="13.213466">
 <ele>526.88</ele>
 <time>2010-05-28T10:39:18Z</time>
 </trkpt>
 <trkpt lat="47.433060" lon="13.213935">
 <ele>526.94</ele>
 <time>2010-05-28T10:39:26Z</time>
 </trkpt>
 <trkpt lat="47.432720" lon="13.214405">
 <ele>526.96</ele>
 <time>2010-05-28T10:39:34Z</time>
 </trkpt>
 <trkpt lat="47.432304" lon="13.214892">
 <ele>527.14</ele>
 <time>2010-05-28T10:39:43Z</time>
 </trkpt>
 <trkpt lat="47.431812" lon="13.215304">
 <ele>526.60</ele>
 <time>2010-05-28T10:39:53Z</time>
 </trkpt>
 <trkpt lat="47.431355" lon="13.215570">
 <ele>527.71</ele>
 <time>2010-05-28T10:40:02Z</time>
 </trkpt>
 <trkpt lat="47.431225" lon="13.215674">
 <ele>527.76</ele>
 <time>2010-05-28T10:40:05Z</time>
 </trkpt>
 <trkpt lat="47.431049" lon="13.215716">
 <ele>527.92</ele>
 <time>2010-05-28T10:40:09Z</time>
 </trkpt>
 <trkpt lat="47.431019" lon="13.215584">
 <ele>528.11</ele>
 <time>2010-05-28T10:40:12Z</time>
 </trkpt>
 <trkpt lat="47.430920" lon="13.215152">
 <ele>528.78</ele>
 <time>2010-05-28T10:40:20Z</time>
 </trkpt>
 <trkpt lat="47.430843" lon="13.214820">
 <ele>528.64</ele>
 <time>2010-05-28T10:40:26Z</time>
 </trkpt>
 <trkpt lat="47.430813" lon="13.214686">
 <ele>528.25</ele>
 <time>2010-05-28T10:40:30Z</time>
 </trkpt>
 <trkpt lat="47.430813" lon="13.214686">
 <ele>527.64</ele>
 <time>2010-05-28T10:40:37Z</time>
 </trkpt>
 <trkpt lat="47.429825" lon="13.214669">
 <ele>527.44</ele>
 <time>2010-05-28T10:40:48Z</time>
 </trkpt>
 <trkpt lat="47.429348" lon="13.214937">
 <ele>527.55</ele>
 <time>2010-05-28T10:40:58Z</time>
 </trkpt>
 <trkpt lat="47.428925" lon="13.215167">
 <ele>527.81</ele>
 <time>2010-05-28T10:41:07Z</time>
 </trkpt>
 <trkpt lat="47.428432" lon="13.215654">
 <ele>527.33</ele>
 <time>2010-05-28T10:41:17Z</time>
 </trkpt>
 <trkpt lat="47.427917" lon="13.216298">
 <ele>527.83</ele>
 <time>2010-05-28T10:41:29Z</time>
 </trkpt>
 <trkpt lat="47.427692" lon="13.216761">
 <ele>527.69</ele>
 <time>2010-05-28T10:41:36Z</time>
 </trkpt>
 <trkpt lat="47.427658" lon="13.216832">
 <ele>527.73</ele>
 <time>2010-05-28T10:41:38Z</time>
 </trkpt>
 <trkpt lat="47.427658" lon="13.216832">
 <ele>528.06</ele>
 <time>2010-05-28T10:41:49Z</time>
 </trkpt>
 <trkpt lat="47.427078" lon="13.217454">
 <ele>528.12</ele>
 <time>2010-05-28T10:41:56Z</time>
 </trkpt>
 <trkpt lat="47.426750" lon="13.218279">
 <ele>528.26</ele>
 <time>2010-05-28T10:42:02Z</time>
 </trkpt>
 <trkpt lat="47.426495" lon="13.218717">
 <ele>528.36</ele>
 <time>2010-05-28T10:42:09Z</time>
 </trkpt>
 <trkpt lat="47.426434" lon="13.218838">
 <ele>528.45</ele>
 <time>2010-05-28T10:42:11Z</time>
 </trkpt>
 <trkpt lat="47.426197" lon="13.219278">
 <ele>528.43</ele>
 <time>2010-05-28T10:42:19Z</time>
 </trkpt>
 <trkpt lat="47.425919" lon="13.219712">
 <ele>528.61</ele>
 <time>2010-05-28T10:42:27Z</time>
 </trkpt>
 <trkpt lat="47.425678" lon="13.220090">
 <ele>528.81</ele>
 <time>2010-05-28T10:42:34Z</time>
 </trkpt>
 <trkpt lat="47.425629" lon="13.220165">
 <ele>528.95</ele>
 <time>2010-05-28T10:42:36Z</time>
 </trkpt>
 <trkpt lat="47.425690" lon="13.220782">
 <ele>528.51</ele>
 <time>2010-05-28T10:42:40Z</time>
 </trkpt>
 <trkpt lat="47.425510" lon="13.220737">
 <ele>528.51</ele>
 <time>2010-05-28T10:42:48Z</time>
 </trkpt>
 <trkpt lat="47.425285" lon="13.220207">
 <ele>528.14</ele>
 <time>2010-05-28T10:42:56Z</time>
 </trkpt>
 <trkpt lat="47.425194" lon="13.220105">
 <ele>528.10</ele>
 <time>2010-05-28T10:43:01Z</time>
 </trkpt>
 <trkpt lat="47.425510" lon="13.220737">
 <ele>528.11</ele>
 <time>2010-05-28T10:43:06Z</time>
 </trkpt>
 <trkpt lat="47.425171" lon="13.219951">
 <ele>528.10</ele>
 <time>2010-05-28T10:43:09Z</time>
 </trkpt>
 <trkpt lat="47.425201" lon="13.220113">
 <ele>528.19</ele>
 <time>2010-05-28T10:43:15Z</time>
 </trkpt>
 <trkpt lat="47.425339" lon="13.220269">
 <ele>528.12</ele>
 <time>2010-05-28T10:43:21Z</time>
 </trkpt>
 <trkpt lat="47.425468" lon="13.220415">
 <ele>528.25</ele>
 <time>2010-05-28T10:43:27Z</time>
 </trkpt>
 <trkpt lat="47.425716" lon="13.220791">
 <ele>528.45</ele>
 <time>2010-05-28T10:43:35Z</time>
 </trkpt>
 <trkpt lat="47.425755" lon="13.220805">
 <ele>528.91</ele>
 <time>2010-05-28T10:43:38Z</time>
 </trkpt>
 <trkpt lat="47.425755" lon="13.220805">
 <ele>529.26</ele>
 <time>2010-05-28T10:43:43Z</time>
 </trkpt>
 <trkpt lat="47.425755" lon="13.220805">
 <ele>529.23</ele>
 <time>2010-05-28T10:43:45Z</time>
 </trkpt>
 <trkpt lat="47.425755" lon="13.220805">
 <ele>529.08</ele>
 <time>2010-05-28T10:43:49Z</time>
 </trkpt>
 <trkpt lat="47.425739" lon="13.220800">
 <ele>528.14</ele>
 <time>2010-05-28T10:43:54Z</time>
 </trkpt>
 <trkpt lat="47.425747" lon="13.220802">
 <ele>527.62</ele>
 <time>2010-05-28T10:43:59Z</time>
 </trkpt>
 <trkpt lat="47.425793" lon="13.220818">
 <ele>527.75</ele>
 <time>2010-05-28T10:44:05Z</time>
 </trkpt>
 <trkpt lat="47.425671" lon="13.220616">
 <ele>527.73</ele>
 <time>2010-05-28T10:44:08Z</time>
 </trkpt>
 <trkpt lat="47.425610" lon="13.220734">
 <ele>528.81</ele>
 <time>2010-05-28T10:44:18Z</time>
 </trkpt>
 <trkpt lat="47.425610" lon="13.220734">
 <ele>529.03</ele>
 <time>2010-05-28T10:44:19Z</time>
 </trkpt>
 <trkpt lat="47.425575" lon="13.220802">
 <ele>528.53</ele>
 <time>2010-05-28T10:44:28Z</time>
 </trkpt>
 <trkpt lat="47.425430" lon="13.220978">
 <ele>528.33</ele>
 <time>2010-05-28T10:44:35Z</time>
 </trkpt>
 <trkpt lat="47.425385" lon="13.221064">
 <ele>528.00</ele>
 <time>2010-05-28T10:44:38Z</time>
 </trkpt>
 <trkpt lat="47.425194" lon="13.220974">
 <ele>527.85</ele>
 <time>2010-05-28T10:44:43Z</time>
 </trkpt>
 <trkpt lat="47.424900" lon="13.220661">
 <ele>527.72</ele>
 <time>2010-05-28T10:44:52Z</time>
 </trkpt>
 <trkpt lat="47.424641" lon="13.220446">
 <ele>527.94</ele>
 <time>2010-05-28T10:44:59Z</time>
 </trkpt>
 <trkpt lat="47.424377" lon="13.220331">
 <ele>528.21</ele>
 <time>2010-05-28T10:45:06Z</time>
 </trkpt>
 <trkpt lat="47.424229" lon="13.220249">
 <ele>528.30</ele>
 <time>2010-05-28T10:45:10Z</time>
 </trkpt>
 <trkpt lat="47.424072" lon="13.220008">
 <ele>527.29</ele>
 <time>2010-05-28T10:45:15Z</time>
 </trkpt>
 <trkpt lat="47.424095" lon="13.219814">
 <ele>526.84</ele>
 <time>2010-05-28T10:45:21Z</time>
 </trkpt>
 <trkpt lat="47.424095" lon="13.219814">
 <ele>527.60</ele>
 <time>2010-05-28T10:45:25Z</time>
 </trkpt>
 <trkpt lat="47.424141" lon="13.219428">
 <ele>527.89</ele>
 <time>2010-05-28T10:45:29Z</time>
 </trkpt>
 <trkpt lat="47.424107" lon="13.219428">
 <ele>527.77</ele>
 <time>2010-05-28T10:45:30Z</time>
 </trkpt>
 <trkpt lat="47.423851" lon="13.219384">
 <ele>527.83</ele>
 <time>2010-05-28T10:45:36Z</time>
 </trkpt>
 <trkpt lat="47.423752" lon="13.219364">
 <ele>528.32</ele>
 <time>2010-05-28T10:45:44Z</time>
 </trkpt>
 <trkpt lat="47.423031" lon="13.219381">
 <ele>528.34</ele>
 <time>2010-05-28T10:45:53Z</time>
 </trkpt>
 <trkpt lat="47.422512" lon="13.219413">
 <ele>528.33</ele>
 <time>2010-05-28T10:46:03Z</time>
 </trkpt>
 <trkpt lat="47.422188" lon="13.219441">
 <ele>529.03</ele>
 <time>2010-05-28T10:46:10Z</time>
 </trkpt>
 <trkpt lat="47.422039" lon="13.219454">
 <ele>528.97</ele>
 <time>2010-05-28T10:46:14Z</time>
 </trkpt>
 <trkpt lat="47.421967" lon="13.219460">
 <ele>529.12</ele>
 <time>2010-05-28T10:46:18Z</time>
 </trkpt>
 <trkpt lat="47.422058" lon="13.218270">
 <ele>529.55</ele>
 <time>2010-05-28T10:46:24Z</time>
 </trkpt>
 <trkpt lat="47.422058" lon="13.218270">
 <ele>529.60</ele>
 <time>2010-05-28T10:46:25Z</time>
 </trkpt>
 </trkseg>
 </trk>
</gpx>
